<?xml version="1.0" encoding="UTF-8" standalone="no" ?>
<gpx xmlns="http://www.topografix.com/GPX/1/1" xmlns:xsi="http://www.w3.org/2001/XMLSchema-instance" xsi:schemaLocation="http://www.topografix.com/GPX/1/1 http://www.topografix.com/GPX/1/1/gpx.xsd" version="1.1" creator="VisuGPX - https://www.visugpx.com">
  <metadata>
    <name>DB Clem split</name>
  </metadata>
  <wpt lat="42.20966" lon="-1.51524">
    <ele>292.9</ele>
    <name><![CDATA[CP1]]></name>
  </wpt>
  <wpt lat="40.40677" lon="-1.44426">
    <ele>1162.2</ele>
    <name><![CDATA[CP2]]></name>
  </wpt>
  <wpt lat="37.54317" lon="-3.04779">
    <ele>794.7</ele>
    <name><![CDATA[CP3]]></name>
  </wpt>
  <wpt lat="37.04445" lon="-2.52483">
    <ele>472.4</ele>
    <name><![CDATA[CP4]]></name>
  </wpt>
  <trk>
    <name><![CDATA[DB Clem cp4]]></name>
    <trkseg>
      <trkpt lat="37.54315" lon="-3.04776">
        <ele>814.93639</ele>
        <time>2022-02-24T16:33:18.511Z</time>
      </trkpt>
      <trkpt lat="37.5429" lon="-3.04818">
        <ele>815.280589</ele>
        <time>2022-02-24T16:33:34.685Z</time>
      </trkpt>
      <trkpt lat="37.54236" lon="-3.04833">
        <ele>815.747486</ele>
        <time>2022-02-24T16:33:56.540Z</time>
      </trkpt>
      <trkpt lat="37.54221" lon="-3.04845">
        <ele>815.89872</ele>
        <time>2022-02-24T16:34:04.433Z</time>
      </trkpt>
      <trkpt lat="37.54217" lon="-3.04856">
        <ele>815.973415</ele>
        <time>2022-02-24T16:34:09.359Z</time>
      </trkpt>
      <trkpt lat="37.54225" lon="-3.04901">
        <ele>817.397692</ele>
        <time>2022-02-24T16:34:32.159Z</time>
      </trkpt>
      <trkpt lat="37.54222" lon="-3.04906">
        <ele>817.582255</ele>
        <time>2022-02-24T16:34:35.157Z</time>
      </trkpt>
      <trkpt lat="37.54218" lon="-3.04906">
        <ele>817.765371</ele>
        <time>2022-02-24T16:34:38.785Z</time>
      </trkpt>
      <trkpt lat="37.54204" lon="-3.04851">
        <ele>819.637809</ele>
        <time>2022-02-24T16:35:06.694Z</time>
      </trkpt>
      <trkpt lat="37.54212" lon="-3.04821">
        <ele>820.649877</ele>
        <time>2022-02-24T16:35:20.539Z</time>
      </trkpt>
      <trkpt lat="37.54209" lon="-3.04811">
        <ele>820.975494</ele>
        <time>2022-02-24T16:35:24.981Z</time>
      </trkpt>
      <trkpt lat="37.54182" lon="-3.04795">
        <ele>822.200928</ele>
        <time>2022-02-24T16:35:41.537Z</time>
      </trkpt>
      <trkpt lat="37.54139" lon="-3.04797">
        <ele>824.144169</ele>
        <time>2022-02-24T16:36:06.011Z</time>
      </trkpt>
      <trkpt lat="37.54114" lon="-3.04808">
        <ele>825.584278</ele>
        <time>2022-02-24T16:36:21.877Z</time>
      </trkpt>
      <trkpt lat="37.54058" lon="-3.04873">
        <ele>829.641282</ele>
        <time>2022-02-24T16:37:13.821Z</time>
      </trkpt>
      <trkpt lat="37.53959" lon="-3.04914">
        <ele>834.475076</ele>
        <time>2022-02-24T16:38:21.260Z</time>
      </trkpt>
      <trkpt lat="37.53926" lon="-3.04933">
        <ele>835.756844</ele>
        <time>2022-02-24T16:38:41.672Z</time>
      </trkpt>
      <trkpt lat="37.53914" lon="-3.04946">
        <ele>836.315811</ele>
        <time>2022-02-24T16:38:50.001Z</time>
      </trkpt>
      <trkpt lat="37.53888" lon="-3.05008">
        <ele>838.304353</ele>
        <time>2022-02-24T16:39:18.744Z</time>
      </trkpt>
      <trkpt lat="37.53875" lon="-3.05008">
        <ele>838.775344</ele>
        <time>2022-02-24T16:39:24.762Z</time>
      </trkpt>
      <trkpt lat="37.53872" lon="-3.05004">
        <ele>838.932769</ele>
        <time>2022-02-24T16:39:26.858Z</time>
      </trkpt>
      <trkpt lat="37.53868" lon="-3.04991">
        <ele>839.3223</ele>
        <time>2022-02-24T16:39:31.805Z</time>
      </trkpt>
      <trkpt lat="37.53866" lon="-3.04953">
        <ele>840.025389</ele>
        <time>2022-02-24T16:39:45.965Z</time>
      </trkpt>
      <trkpt lat="37.53863" lon="-3.04946">
        <ele>840.170859</ele>
        <time>2022-02-24T16:39:48.995Z</time>
      </trkpt>
      <trkpt lat="37.5385" lon="-3.04945">
        <ele>840.456969</ele>
        <time>2022-02-24T16:39:54.961Z</time>
      </trkpt>
      <trkpt lat="37.53823" lon="-3.04984">
        <ele>841.368469</ele>
        <time>2022-02-24T16:40:14.178Z</time>
      </trkpt>
      <trkpt lat="37.53791" lon="-3.05008">
        <ele>842.194636</ele>
        <time>2022-02-24T16:40:32.292Z</time>
      </trkpt>
      <trkpt lat="37.53762" lon="-3.05017">
        <ele>842.858245</ele>
        <time>2022-02-24T16:40:47.626Z</time>
      </trkpt>
      <trkpt lat="37.53741" lon="-3.0504">
        <ele>843.438402</ele>
        <time>2022-02-24T16:41:02.543Z</time>
      </trkpt>
      <trkpt lat="37.53619" lon="-3.05098">
        <ele>844.761478</ele>
        <time>2022-02-24T16:42:00.804Z</time>
      </trkpt>
      <trkpt lat="37.53568" lon="-3.05128">
        <ele>844.905824</ele>
        <time>2022-02-24T16:42:21.040Z</time>
      </trkpt>
      <trkpt lat="37.53528" lon="-3.05146">
        <ele>843.766166</ele>
        <time>2022-02-24T16:42:34.956Z</time>
      </trkpt>
      <trkpt lat="37.53481" lon="-3.05154">
        <ele>842.47208</ele>
        <time>2022-02-24T16:42:50.031Z</time>
      </trkpt>
      <trkpt lat="37.53431" lon="-3.05214">
        <ele>840.607329</ele>
        <time>2022-02-24T16:43:10.119Z</time>
      </trkpt>
      <trkpt lat="37.53361" lon="-3.05251">
        <ele>839.015982</ele>
        <time>2022-02-24T16:43:33.100Z</time>
      </trkpt>
      <trkpt lat="37.533" lon="-3.05273">
        <ele>837.729066</ele>
        <time>2022-02-24T16:43:54.280Z</time>
      </trkpt>
      <trkpt lat="37.53238" lon="-3.05334">
        <ele>836.831696</ele>
        <time>2022-02-24T16:44:22.687Z</time>
      </trkpt>
      <trkpt lat="37.53229" lon="-3.05353">
        <ele>836.897505</ele>
        <time>2022-02-24T16:44:29.700Z</time>
      </trkpt>
      <trkpt lat="37.53208" lon="-3.05425">
        <ele>837.119028</ele>
        <time>2022-02-24T16:44:54.291Z</time>
      </trkpt>
      <trkpt lat="37.53163" lon="-3.05509">
        <ele>837.411171</ele>
        <time>2022-02-24T16:45:28.653Z</time>
      </trkpt>
      <trkpt lat="37.53146" lon="-3.05518">
        <ele>837.474384</ele>
        <time>2022-02-24T16:45:34.394Z</time>
      </trkpt>
      <trkpt lat="37.53069" lon="-3.05529">
        <ele>837.750581</ele>
        <time>2022-02-24T16:46:02.221Z</time>
      </trkpt>
      <trkpt lat="37.53046" lon="-3.05511">
        <ele>837.845934</ele>
        <time>2022-02-24T16:46:11.444Z</time>
      </trkpt>
      <trkpt lat="37.53024" lon="-3.05513">
        <ele>837.925067</ele>
        <time>2022-02-24T16:46:20.436Z</time>
      </trkpt>
      <trkpt lat="37.53008" lon="-3.05522">
        <ele>837.987494</ele>
        <time>2022-02-24T16:46:26.417Z</time>
      </trkpt>
      <trkpt lat="37.52969" lon="-3.0555">
        <ele>839.780616</ele>
        <time>2022-02-24T16:46:51.742Z</time>
      </trkpt>
      <trkpt lat="37.52928" lon="-3.05561">
        <ele>841.874488</ele>
        <time>2022-02-24T16:47:17.687Z</time>
      </trkpt>
      <trkpt lat="37.52899" lon="-3.05584">
        <ele>843.57344</ele>
        <time>2022-02-24T16:47:40.056Z</time>
      </trkpt>
      <trkpt lat="37.52861" lon="-3.05603">
        <ele>845.657459</ele>
        <time>2022-02-24T16:48:08.760Z</time>
      </trkpt>
      <trkpt lat="37.52832" lon="-3.05608">
        <ele>847.083684</ele>
        <time>2022-02-24T16:48:29.982Z</time>
      </trkpt>
      <trkpt lat="37.52817" lon="-3.05616">
        <ele>847.678283</ele>
        <time>2022-02-24T16:48:41.453Z</time>
      </trkpt>
      <trkpt lat="37.52809" lon="-3.05631">
        <ele>848.212178</ele>
        <time>2022-02-24T16:48:50.680Z</time>
      </trkpt>
      <trkpt lat="37.52802" lon="-3.05674">
        <ele>849.499422</ele>
        <time>2022-02-24T16:49:13.666Z</time>
      </trkpt>
      <trkpt lat="37.52789" lon="-3.05692">
        <ele>850.195588</ele>
        <time>2022-02-24T16:49:26.672Z</time>
      </trkpt>
      <trkpt lat="37.52765" lon="-3.05686">
        <ele>851.091475</ele>
        <time>2022-02-24T16:49:41.309Z</time>
      </trkpt>
      <trkpt lat="37.52719" lon="-3.05662">
        <ele>852.936317</ele>
        <time>2022-02-24T16:50:05.515Z</time>
      </trkpt>
      <trkpt lat="37.52682" lon="-3.05655">
        <ele>853.293924</ele>
        <time>2022-02-24T16:50:17.988Z</time>
      </trkpt>
      <trkpt lat="37.52617" lon="-3.05687">
        <ele>851.814511</ele>
        <time>2022-02-24T16:50:40.140Z</time>
      </trkpt>
      <trkpt lat="37.5252" lon="-3.05708">
        <ele>849.81465</ele>
        <time>2022-02-24T16:51:10.746Z</time>
      </trkpt>
      <trkpt lat="37.52432" lon="-3.05698">
        <ele>849.392832</ele>
        <time>2022-02-24T16:51:40.029Z</time>
      </trkpt>
      <trkpt lat="37.52372" lon="-3.05667">
        <ele>849.084992</ele>
        <time>2022-02-24T16:52:03.865Z</time>
      </trkpt>
      <trkpt lat="37.52228" lon="-3.05708">
        <ele>853.350492</ele>
        <time>2022-02-24T16:53:24.124Z</time>
      </trkpt>
      <trkpt lat="37.5218" lon="-3.05713">
        <ele>854.980885</ele>
        <time>2022-02-24T16:53:52.558Z</time>
      </trkpt>
      <trkpt lat="37.52153" lon="-3.05724">
        <ele>856.149461</ele>
        <time>2022-02-24T16:54:08.521Z</time>
      </trkpt>
      <trkpt lat="37.52126" lon="-3.05744">
        <ele>857.504009</ele>
        <time>2022-02-24T16:54:26.298Z</time>
      </trkpt>
      <trkpt lat="37.52112" lon="-3.05746">
        <ele>858.106895</ele>
        <time>2022-02-24T16:54:34.720Z</time>
      </trkpt>
      <trkpt lat="37.52062" lon="-3.05722">
        <ele>860.379472</ele>
        <time>2022-02-24T16:55:03.636Z</time>
      </trkpt>
      <trkpt lat="37.52048" lon="-3.05706">
        <ele>861.170489</ele>
        <time>2022-02-24T16:55:16.150Z</time>
      </trkpt>
      <trkpt lat="37.51983" lon="-3.05655">
        <ele>864.849608</ele>
        <time>2022-02-24T16:56:03.732Z</time>
      </trkpt>
      <trkpt lat="37.51956" lon="-3.05626">
        <ele>866.759755</ele>
        <time>2022-02-24T16:56:25.967Z</time>
      </trkpt>
      <trkpt lat="37.5194" lon="-3.05624">
        <ele>867.598938</ele>
        <time>2022-02-24T16:56:35.337Z</time>
      </trkpt>
      <trkpt lat="37.51933" lon="-3.05632">
        <ele>868.094023</ele>
        <time>2022-02-24T16:56:41.434Z</time>
      </trkpt>
      <trkpt lat="37.51936" lon="-3.05657">
        <ele>869.14403</ele>
        <time>2022-02-24T16:56:54.893Z</time>
      </trkpt>
      <trkpt lat="37.51954" lon="-3.05691">
        <ele>870.904794</ele>
        <time>2022-02-24T16:57:16.008Z</time>
      </trkpt>
      <trkpt lat="37.51979" lon="-3.05768">
        <ele>874.199799</ele>
        <time>2022-02-24T16:57:59.319Z</time>
      </trkpt>
      <trkpt lat="37.51969" lon="-3.05783">
        <ele>874.933126</ele>
        <time>2022-02-24T16:58:09.498Z</time>
      </trkpt>
      <trkpt lat="37.51942" lon="-3.05793">
        <ele>876.280754</ele>
        <time>2022-02-24T16:58:30.112Z</time>
      </trkpt>
      <trkpt lat="37.51932" lon="-3.05787">
        <ele>876.787</ele>
        <time>2022-02-24T16:58:36.028Z</time>
      </trkpt>
      <trkpt lat="37.51915" lon="-3.05788">
        <ele>877.594834</ele>
        <time>2022-02-24T16:58:44.909Z</time>
      </trkpt>
      <trkpt lat="37.51904" lon="-3.05803">
        <ele>878.352263</ele>
        <time>2022-02-24T16:58:53.514Z</time>
      </trkpt>
      <trkpt lat="37.51882" lon="-3.0581">
        <ele>879.424759</ele>
        <time>2022-02-24T16:59:05.719Z</time>
      </trkpt>
      <trkpt lat="37.51869" lon="-3.05821">
        <ele>880.158827</ele>
        <time>2022-02-24T16:59:14.408Z</time>
      </trkpt>
      <trkpt lat="37.51833" lon="-3.05806">
        <ele>881.759777</ele>
        <time>2022-02-24T16:59:36.455Z</time>
      </trkpt>
      <trkpt lat="37.51805" lon="-3.05811">
        <ele>882.789808</ele>
        <time>2022-02-24T16:59:52.363Z</time>
      </trkpt>
      <trkpt lat="37.5178" lon="-3.05808">
        <ele>883.721201</ele>
        <time>2022-02-24T17:00:06.874Z</time>
      </trkpt>
      <trkpt lat="37.51771" lon="-3.058">
        <ele>884.144919</ele>
        <time>2022-02-24T17:00:13.295Z</time>
      </trkpt>
      <trkpt lat="37.51714" lon="-3.05774">
        <ele>886.40331</ele>
        <time>2022-02-24T17:00:47.900Z</time>
      </trkpt>
      <trkpt lat="37.51692" lon="-3.05775">
        <ele>887.246343</ele>
        <time>2022-02-24T17:01:00.031Z</time>
      </trkpt>
      <trkpt lat="37.51659" lon="-3.05758">
        <ele>887.976487</ele>
        <time>2022-02-24T17:01:18.412Z</time>
      </trkpt>
      <trkpt lat="37.51612" lon="-3.05753">
        <ele>888.647609</ele>
        <time>2022-02-24T17:01:41.004Z</time>
      </trkpt>
      <trkpt lat="37.51596" lon="-3.05741">
        <ele>888.920693</ele>
        <time>2022-02-24T17:01:49.518Z</time>
      </trkpt>
      <trkpt lat="37.51568" lon="-3.05699">
        <ele>889.541396</ele>
        <time>2022-02-24T17:02:07.382Z</time>
      </trkpt>
      <trkpt lat="37.51555" lon="-3.0569">
        <ele>889.754123</ele>
        <time>2022-02-24T17:02:13.210Z</time>
      </trkpt>
      <trkpt lat="37.51437" lon="-3.0563">
        <ele>890.022281</ele>
        <time>2022-02-24T17:02:59.961Z</time>
      </trkpt>
      <trkpt lat="37.5141" lon="-3.05637">
        <ele>889.976335</ele>
        <time>2022-02-24T17:03:10.043Z</time>
      </trkpt>
      <trkpt lat="37.51369" lon="-3.05681">
        <ele>889.886807</ele>
        <time>2022-02-24T17:03:29.530Z</time>
      </trkpt>
      <trkpt lat="37.51321" lon="-3.05698">
        <ele>889.224174</ele>
        <time>2022-02-24T17:03:47.295Z</time>
      </trkpt>
      <trkpt lat="37.51262" lon="-3.05681">
        <ele>888.39276</ele>
        <time>2022-02-24T17:04:08.456Z</time>
      </trkpt>
      <trkpt lat="37.51239" lon="-3.05666">
        <ele>888.045548</ele>
        <time>2022-02-24T17:04:16.917Z</time>
      </trkpt>
      <trkpt lat="37.5121" lon="-3.05589">
        <ele>886.454706</ele>
        <time>2022-02-24T17:04:38.303Z</time>
      </trkpt>
      <trkpt lat="37.51209" lon="-3.05563">
        <ele>885.542059</ele>
        <time>2022-02-24T17:04:44.663Z</time>
      </trkpt>
      <trkpt lat="37.51205" lon="-3.05556">
        <ele>885.238033</ele>
        <time>2022-02-24T17:04:46.674Z</time>
      </trkpt>
      <trkpt lat="37.51175" lon="-3.05532">
        <ele>883.643056</ele>
        <time>2022-02-24T17:04:57.355Z</time>
      </trkpt>
      <trkpt lat="37.51135" lon="-3.05489">
        <ele>881.366697</ele>
        <time>2022-02-24T17:05:12.221Z</time>
      </trkpt>
      <trkpt lat="37.51052" lon="-3.05448">
        <ele>877.17216</ele>
        <time>2022-02-24T17:05:37.675Z</time>
      </trkpt>
      <trkpt lat="37.51019" lon="-3.05422">
        <ele>875.263458</ele>
        <time>2022-02-24T17:05:48.594Z</time>
      </trkpt>
      <trkpt lat="37.5097" lon="-3.0542">
        <ele>872.818071</ele>
        <time>2022-02-24T17:06:02.774Z</time>
      </trkpt>
      <trkpt lat="37.50934" lon="-3.05391">
        <ele>870.71472</ele>
        <time>2022-02-24T17:06:15.223Z</time>
      </trkpt>
      <trkpt lat="37.50911" lon="-3.05362">
        <ele>869.935055</ele>
        <time>2022-02-24T17:06:25.199Z</time>
      </trkpt>
      <trkpt lat="37.50889" lon="-3.0536">
        <ele>869.442258</ele>
        <time>2022-02-24T17:06:32.052Z</time>
      </trkpt>
      <trkpt lat="37.50813" lon="-3.05324">
        <ele>867.637709</ele>
        <time>2022-02-24T17:06:58.643Z</time>
      </trkpt>
      <trkpt lat="37.50751" lon="-3.05322">
        <ele>866.476412</ele>
        <time>2022-02-24T17:07:20.279Z</time>
      </trkpt>
      <trkpt lat="37.50727" lon="-3.05313">
        <ele>866.256654</ele>
        <time>2022-02-24T17:07:29.101Z</time>
      </trkpt>
      <trkpt lat="37.50684" lon="-3.05256">
        <ele>865.701538</ele>
        <time>2022-02-24T17:07:50.138Z</time>
      </trkpt>
      <trkpt lat="37.50664" lon="-3.05241">
        <ele>865.496923</ele>
        <time>2022-02-24T17:07:58.321Z</time>
      </trkpt>
      <trkpt lat="37.50614" lon="-3.05219">
        <ele>865.028661</ele>
        <time>2022-02-24T17:08:17.094Z</time>
      </trkpt>
      <trkpt lat="37.50603" lon="-3.05203">
        <ele>865.025236</ele>
        <time>2022-02-24T17:08:23.487Z</time>
      </trkpt>
      <trkpt lat="37.50594" lon="-3.05163">
        <ele>865.018714</ele>
        <time>2022-02-24T17:08:35.418Z</time>
      </trkpt>
      <trkpt lat="37.50583" lon="-3.05155">
        <ele>865.016222</ele>
        <time>2022-02-24T17:08:39.308Z</time>
      </trkpt>
      <trkpt lat="37.50534" lon="-3.05184">
        <ele>865.005516</ele>
        <time>2022-02-24T17:09:00.089Z</time>
      </trkpt>
      <trkpt lat="37.50497" lon="-3.05187">
        <ele>864.998239</ele>
        <time>2022-02-24T17:09:13.944Z</time>
      </trkpt>
      <trkpt lat="37.50466" lon="-3.05209">
        <ele>865.13499</ele>
        <time>2022-02-24T17:09:28.181Z</time>
      </trkpt>
      <trkpt lat="37.50449" lon="-3.05208">
        <ele>865.384797</ele>
        <time>2022-02-24T17:09:34.365Z</time>
      </trkpt>
      <trkpt lat="37.50406" lon="-3.05182">
        <ele>866.059322</ele>
        <time>2022-02-24T17:09:58.064Z</time>
      </trkpt>
      <trkpt lat="37.50388" lon="-3.05188">
        <ele>866.331453</ele>
        <time>2022-02-24T17:10:06.885Z</time>
      </trkpt>
      <trkpt lat="37.50341" lon="-3.05188">
        <ele>866.999412</ele>
        <time>2022-02-24T17:10:27.642Z</time>
      </trkpt>
      <trkpt lat="37.50312" lon="-3.05161">
        <ele>867.514221</ele>
        <time>2022-02-24T17:10:43.208Z</time>
      </trkpt>
      <trkpt lat="37.50286" lon="-3.0512">
        <ele>868.485567</ele>
        <time>2022-02-24T17:11:01.079Z</time>
      </trkpt>
      <trkpt lat="37.50264" lon="-3.05072">
        <ele>869.562416</ele>
        <time>2022-02-24T17:11:21.228Z</time>
      </trkpt>
      <trkpt lat="37.50258" lon="-3.05069">
        <ele>869.714597</ele>
        <time>2022-02-24T17:11:24.194Z</time>
      </trkpt>
      <trkpt lat="37.50207" lon="-3.05039">
        <ele>871.07982</ele>
        <time>2022-02-24T17:11:52.850Z</time>
      </trkpt>
      <trkpt lat="37.5018" lon="-3.05012">
        <ele>871.91506</ele>
        <time>2022-02-24T17:12:11.658Z</time>
      </trkpt>
      <trkpt lat="37.50157" lon="-3.05001">
        <ele>873.334429</ele>
        <time>2022-02-24T17:12:25.869Z</time>
      </trkpt>
      <trkpt lat="37.50133" lon="-3.04968">
        <ele>875.384166</ele>
        <time>2022-02-24T17:12:47.474Z</time>
      </trkpt>
      <trkpt lat="37.50123" lon="-3.04963">
        <ele>875.989169</ele>
        <time>2022-02-24T17:12:53.864Z</time>
      </trkpt>
      <trkpt lat="37.50087" lon="-3.04965">
        <ele>878.08585</ele>
        <time>2022-02-24T17:13:17.061Z</time>
      </trkpt>
      <trkpt lat="37.50049" lon="-3.04956">
        <ele>880.326707</ele>
        <time>2022-02-24T17:13:43.608Z</time>
      </trkpt>
      <trkpt lat="37.50016" lon="-3.04956">
        <ele>882.270306</ele>
        <time>2022-02-24T17:14:08.473Z</time>
      </trkpt>
      <trkpt lat="37.49986" lon="-3.04946">
        <ele>885.563084</ele>
        <time>2022-02-24T17:14:33.683Z</time>
      </trkpt>
      <trkpt lat="37.49953" lon="-3.04892">
        <ele>891.347418</ele>
        <time>2022-02-24T17:15:18.697Z</time>
      </trkpt>
      <trkpt lat="37.49887" lon="-3.04875">
        <ele>898.663839</ele>
        <time>2022-02-24T17:16:22.832Z</time>
      </trkpt>
      <trkpt lat="37.49796" lon="-3.04916">
        <ele>910.837852</ele>
        <time>2022-02-24T17:18:08.279Z</time>
      </trkpt>
      <trkpt lat="37.49712" lon="-3.04906">
        <ele>922.192633</ele>
        <time>2022-02-24T17:19:41.206Z</time>
      </trkpt>
      <trkpt lat="37.49663" lon="-3.04912">
        <ele>927.561468</ele>
        <time>2022-02-24T17:20:27.128Z</time>
      </trkpt>
      <trkpt lat="37.49605" lon="-3.04891">
        <ele>931.929245</ele>
        <time>2022-02-24T17:21:17.367Z</time>
      </trkpt>
      <trkpt lat="37.49587" lon="-3.04874">
        <ele>933.560864</ele>
        <time>2022-02-24T17:21:32.843Z</time>
      </trkpt>
      <trkpt lat="37.49585" lon="-3.04865">
        <ele>934.061313</ele>
        <time>2022-02-24T17:21:37.336Z</time>
      </trkpt>
      <trkpt lat="37.49597" lon="-3.04851">
        <ele>935.230281</ele>
        <time>2022-02-24T17:21:47.265Z</time>
      </trkpt>
      <trkpt lat="37.49625" lon="-3.04835">
        <ele>937.492728</ele>
        <time>2022-02-24T17:22:04.559Z</time>
      </trkpt>
      <trkpt lat="37.49637" lon="-3.04821">
        <ele>938.609217</ele>
        <time>2022-02-24T17:22:13.016Z</time>
      </trkpt>
      <trkpt lat="37.49636" lon="-3.04812">
        <ele>939.115487</ele>
        <time>2022-02-24T17:22:16.988Z</time>
      </trkpt>
      <trkpt lat="37.49625" lon="-3.04799">
        <ele>939.938896</ele>
        <time>2022-02-24T17:22:25.393Z</time>
      </trkpt>
      <trkpt lat="37.49604" lon="-3.04795">
        <ele>941.147213</ele>
        <time>2022-02-24T17:22:37.779Z</time>
      </trkpt>
      <trkpt lat="37.49588" lon="-3.04809">
        <ele>942.26272</ele>
        <time>2022-02-24T17:22:49.505Z</time>
      </trkpt>
      <trkpt lat="37.49565" lon="-3.0482">
        <ele>943.628685</ele>
        <time>2022-02-24T17:23:03.688Z</time>
      </trkpt>
      <trkpt lat="37.49516" lon="-3.04803">
        <ele>946.500191</ele>
        <time>2022-02-24T17:23:36.213Z</time>
      </trkpt>
      <trkpt lat="37.49454" lon="-3.04795">
        <ele>950.371822</ele>
        <time>2022-02-24T17:24:22.825Z</time>
      </trkpt>
      <trkpt lat="37.49395" lon="-3.04776">
        <ele>955.370266</ele>
        <time>2022-02-24T17:25:14.509Z</time>
      </trkpt>
      <trkpt lat="37.49325" lon="-3.04772">
        <ele>961.115304</ele>
        <time>2022-02-24T17:26:11.156Z</time>
      </trkpt>
      <trkpt lat="37.49299" lon="-3.04735">
        <ele>964.122029</ele>
        <time>2022-02-24T17:26:39.996Z</time>
      </trkpt>
      <trkpt lat="37.49241" lon="-3.04678">
        <ele>967.112126</ele>
        <time>2022-02-24T17:27:29.530Z</time>
      </trkpt>
      <trkpt lat="37.48935" lon="-3.04505">
        <ele>976.288301</ele>
        <time>2022-02-24T17:30:08.793Z</time>
      </trkpt>
      <trkpt lat="37.48898" lon="-3.04483">
        <ele>977.289321</ele>
        <time>2022-02-24T17:30:28.199Z</time>
      </trkpt>
      <trkpt lat="37.4868" lon="-3.04243">
        <ele>984.955794</ele>
        <time>2022-02-24T17:32:57.344Z</time>
      </trkpt>
      <trkpt lat="37.48621" lon="-3.04192">
        <ele>986.264803</ele>
        <time>2022-02-24T17:33:32.166Z</time>
      </trkpt>
      <trkpt lat="37.48541" lon="-3.04141">
        <ele>987.820219</ele>
        <time>2022-02-24T17:34:11.155Z</time>
      </trkpt>
      <trkpt lat="37.48439" lon="-3.04024">
        <ele>988.630079</ele>
        <time>2022-02-24T17:35:03.452Z</time>
      </trkpt>
      <trkpt lat="37.48358" lon="-3.03971">
        <ele>989.965249</ele>
        <time>2022-02-24T17:35:42.690Z</time>
      </trkpt>
      <trkpt lat="37.48336" lon="-3.0394">
        <ele>990.633393</ele>
        <time>2022-02-24T17:35:57.801Z</time>
      </trkpt>
      <trkpt lat="37.48271" lon="-3.0388">
        <ele>992.273489</ele>
        <time>2022-02-24T17:36:37.306Z</time>
      </trkpt>
      <trkpt lat="37.48218" lon="-3.03861">
        <ele>994.01507</ele>
        <time>2022-02-24T17:37:07.061Z</time>
      </trkpt>
      <trkpt lat="37.48146" lon="-3.03814">
        <ele>996.866661</ele>
        <time>2022-02-24T17:37:52.920Z</time>
      </trkpt>
      <trkpt lat="37.48011" lon="-3.03664">
        <ele>1002.942094</ele>
        <time>2022-02-24T17:39:30.677Z</time>
      </trkpt>
      <trkpt lat="37.47898" lon="-3.0361">
        <ele>1006.548823</ele>
        <time>2022-02-24T17:40:33.746Z</time>
      </trkpt>
      <trkpt lat="37.47849" lon="-3.03597">
        <ele>1007.924681</ele>
        <time>2022-02-24T17:40:58.896Z</time>
      </trkpt>
      <trkpt lat="37.47846" lon="-3.0359">
        <ele>1008.094654</ele>
        <time>2022-02-24T17:41:02.376Z</time>
      </trkpt>
      <trkpt lat="37.47782" lon="-3.03546">
        <ele>1010.019328</ele>
        <time>2022-02-24T17:41:38.271Z</time>
      </trkpt>
      <trkpt lat="37.4775" lon="-3.03543">
        <ele>1010.738011</ele>
        <time>2022-02-24T17:41:53.459Z</time>
      </trkpt>
      <trkpt lat="37.47704" lon="-3.03538">
        <ele>1011.776674</ele>
        <time>2022-02-24T17:42:15.616Z</time>
      </trkpt>
      <trkpt lat="37.47545" lon="-3.03447">
        <ele>1015.814264</ele>
        <time>2022-02-24T17:43:39.794Z</time>
      </trkpt>
      <trkpt lat="37.47456" lon="-3.03423">
        <ele>1017.974589</ele>
        <time>2022-02-24T17:44:25.240Z</time>
      </trkpt>
      <trkpt lat="37.47424" lon="-3.03423">
        <ele>1018.606325</ele>
        <time>2022-02-24T17:44:41.232Z</time>
      </trkpt>
      <trkpt lat="37.47385" lon="-3.03432">
        <ele>1019.369234</ele>
        <time>2022-02-24T17:45:00.460Z</time>
      </trkpt>
      <trkpt lat="37.47358" lon="-3.03428">
        <ele>1019.902396</ele>
        <time>2022-02-24T17:45:13.608Z</time>
      </trkpt>
      <trkpt lat="37.47231" lon="-3.03373">
        <ele>1022.202894</ele>
        <time>2022-02-24T17:46:13.288Z</time>
      </trkpt>
      <trkpt lat="37.472" lon="-3.03353">
        <ele>1022.661981</ele>
        <time>2022-02-24T17:46:28.107Z</time>
      </trkpt>
      <trkpt lat="37.47102" lon="-3.03266">
        <ele>1024.301487</ele>
        <time>2022-02-24T17:47:20.078Z</time>
      </trkpt>
      <trkpt lat="37.46981" lon="-3.03147">
        <ele>1026.671781</ele>
        <time>2022-02-24T17:48:28.700Z</time>
      </trkpt>
      <trkpt lat="37.46951" lon="-3.03126">
        <ele>1027.513069</ele>
        <time>2022-02-24T17:48:44.572Z</time>
      </trkpt>
      <trkpt lat="37.46857" lon="-3.03081">
        <ele>1030.014958</ele>
        <time>2022-02-24T17:49:34.650Z</time>
      </trkpt>
      <trkpt lat="37.4673" lon="-3.03036">
        <ele>1033.671558</ele>
        <time>2022-02-24T17:50:44.152Z</time>
      </trkpt>
      <trkpt lat="37.46642" lon="-3.02996">
        <ele>1036.377802</ele>
        <time>2022-02-24T17:51:32.781Z</time>
      </trkpt>
      <trkpt lat="37.46566" lon="-3.02992">
        <ele>1037.632024</ele>
        <time>2022-02-24T17:52:08.529Z</time>
      </trkpt>
      <trkpt lat="37.4629" lon="-3.02924">
        <ele>1041.376792</ele>
        <time>2022-02-24T17:54:08.580Z</time>
      </trkpt>
      <trkpt lat="37.46212" lon="-3.02886">
        <ele>1042.554144</ele>
        <time>2022-02-24T17:54:45.633Z</time>
      </trkpt>
      <trkpt lat="37.46141" lon="-3.0284">
        <ele>1043.691114</ele>
        <time>2022-02-24T17:55:21.611Z</time>
      </trkpt>
      <trkpt lat="37.45935" lon="-3.0273">
        <ele>1046.460888</ele>
        <time>2022-02-24T17:56:57.553Z</time>
      </trkpt>
      <trkpt lat="37.45897" lon="-3.02699">
        <ele>1047.057772</ele>
        <time>2022-02-24T17:57:17.144Z</time>
      </trkpt>
      <trkpt lat="37.45871" lon="-3.02659">
        <ele>1047.595704</ele>
        <time>2022-02-24T17:57:35.244Z</time>
      </trkpt>
      <trkpt lat="37.45859" lon="-3.0265">
        <ele>1047.780359</ele>
        <time>2022-02-24T17:57:41.467Z</time>
      </trkpt>
      <trkpt lat="37.4581" lon="-3.02635">
        <ele>1048.44814</ele>
        <time>2022-02-24T17:58:03.686Z</time>
      </trkpt>
      <trkpt lat="37.45729" lon="-3.02599">
        <ele>1049.137436</ele>
        <time>2022-02-24T17:58:40.856Z</time>
      </trkpt>
      <trkpt lat="37.4567" lon="-3.02581">
        <ele>1049.618882</ele>
        <time>2022-02-24T17:59:05.689Z</time>
      </trkpt>
      <trkpt lat="37.45623" lon="-3.02546">
        <ele>1049.865878</ele>
        <time>2022-02-24T17:59:26.287Z</time>
      </trkpt>
      <trkpt lat="37.45565" lon="-3.02514">
        <ele>1049.754791</ele>
        <time>2022-02-24T17:59:48.912Z</time>
      </trkpt>
      <trkpt lat="37.45529" lon="-3.02474">
        <ele>1049.671277</ele>
        <time>2022-02-24T18:00:05.930Z</time>
      </trkpt>
      <trkpt lat="37.4547" lon="-3.02422">
        <ele>1049.87255</ele>
        <time>2022-02-24T18:00:32.493Z</time>
      </trkpt>
      <trkpt lat="37.454" lon="-3.02331">
        <ele>1051.112617</ele>
        <time>2022-02-24T18:01:14.522Z</time>
      </trkpt>
      <trkpt lat="37.45355" lon="-3.02284">
        <ele>1051.875497</ele>
        <time>2022-02-24T18:01:42.469Z</time>
      </trkpt>
      <trkpt lat="37.45314" lon="-3.02231">
        <ele>1053.803673</ele>
        <time>2022-02-24T18:02:13.471Z</time>
      </trkpt>
      <trkpt lat="37.45247" lon="-3.02169">
        <ele>1056.479375</ele>
        <time>2022-02-24T18:02:58.777Z</time>
      </trkpt>
      <trkpt lat="37.45192" lon="-3.02109">
        <ele>1058.999507</ele>
        <time>2022-02-24T18:03:39.003Z</time>
      </trkpt>
      <trkpt lat="37.45008" lon="-3.01996">
        <ele>1066.284981</ele>
        <time>2022-02-24T18:05:32.454Z</time>
      </trkpt>
      <trkpt lat="37.44939" lon="-3.01973">
        <ele>1068.669215</ele>
        <time>2022-02-24T18:06:11.410Z</time>
      </trkpt>
      <trkpt lat="37.44919" lon="-3.01957">
        <ele>1069.429386</ele>
        <time>2022-02-24T18:06:23.889Z</time>
      </trkpt>
      <trkpt lat="37.44916" lon="-3.01938">
        <ele>1069.944602</ele>
        <time>2022-02-24T18:06:28.873Z</time>
      </trkpt>
      <trkpt lat="37.44896" lon="-3.01921">
        <ele>1070.607295</ele>
        <time>2022-02-24T18:06:38.089Z</time>
      </trkpt>
      <trkpt lat="37.44857" lon="-3.01891">
        <ele>1071.74576</ele>
        <time>2022-02-24T18:06:53.919Z</time>
      </trkpt>
      <trkpt lat="37.44776" lon="-3.0186">
        <ele>1073.836169</ele>
        <time>2022-02-24T18:07:24.301Z</time>
      </trkpt>
      <trkpt lat="37.44772" lon="-3.01865">
        <ele>1073.978595</ele>
        <time>2022-02-24T18:07:26.177Z</time>
      </trkpt>
      <trkpt lat="37.44519" lon="-3.01752">
        <ele>1080.016089</ele>
        <time>2022-02-24T18:08:54.858Z</time>
      </trkpt>
      <trkpt lat="37.44208" lon="-3.01613">
        <ele>1087.782458</ele>
        <time>2022-02-24T18:10:48.406Z</time>
      </trkpt>
      <trkpt lat="37.43886" lon="-3.01473">
        <ele>1095.066481</ele>
        <time>2022-02-24T18:12:39.760Z</time>
      </trkpt>
      <trkpt lat="37.4305" lon="-3.01108">
        <ele>1115.594484</ele>
        <time>2022-02-24T18:17:38.822Z</time>
      </trkpt>
      <trkpt lat="37.41432" lon="-3.00391">
        <ele>1162.185462</ele>
        <time>2022-02-24T18:27:53.885Z</time>
      </trkpt>
      <trkpt lat="37.41134" lon="-3.0026">
        <ele>1170.092117</ele>
        <time>2022-02-24T18:29:46.803Z</time>
      </trkpt>
      <trkpt lat="37.40888" lon="-3.00149">
        <ele>1172.937132</ele>
        <time>2022-02-24T18:30:59.831Z</time>
      </trkpt>
      <trkpt lat="37.40879" lon="-3.00144">
        <ele>1172.993503</ele>
        <time>2022-02-24T18:31:02.035Z</time>
      </trkpt>
      <trkpt lat="37.40857" lon="-3.00159">
        <ele>1173.138448</ele>
        <time>2022-02-24T18:31:07.462Z</time>
      </trkpt>
      <trkpt lat="37.40844" lon="-3.00167">
        <ele>1173.185522</ele>
        <time>2022-02-24T18:31:10.532Z</time>
      </trkpt>
      <trkpt lat="37.40818" lon="-3.00171">
        <ele>1172.73124</ele>
        <time>2022-02-24T18:31:15.979Z</time>
      </trkpt>
      <trkpt lat="37.40745" lon="-3.00141">
        <ele>1171.400104</ele>
        <time>2022-02-24T18:31:31.317Z</time>
      </trkpt>
      <trkpt lat="37.40694" lon="-3.00107">
        <ele>1170.410623</ele>
        <time>2022-02-24T18:31:42.240Z</time>
      </trkpt>
      <trkpt lat="37.40545" lon="-3.00104">
        <ele>1165.544621</ele>
        <time>2022-02-24T18:32:09.140Z</time>
      </trkpt>
      <trkpt lat="37.40494" lon="-3.00102">
        <ele>1163.70661</ele>
        <time>2022-02-24T18:32:17.998Z</time>
      </trkpt>
      <trkpt lat="37.40489" lon="-3.00118">
        <ele>1163.013861</ele>
        <time>2022-02-24T18:32:19.955Z</time>
      </trkpt>
      <trkpt lat="37.40479" lon="-3.00131">
        <ele>1162.278706</ele>
        <time>2022-02-24T18:32:22.319Z</time>
      </trkpt>
      <trkpt lat="37.40466" lon="-3.0014">
        <ele>1161.483477</ele>
        <time>2022-02-24T18:32:24.682Z</time>
      </trkpt>
      <trkpt lat="37.40438" lon="-3.00143">
        <ele>1160.020532</ele>
        <time>2022-02-24T18:32:29.141Z</time>
      </trkpt>
      <trkpt lat="37.4029" lon="-3.00044">
        <ele>1151.676408</ele>
        <time>2022-02-24T18:32:55.234Z</time>
      </trkpt>
      <trkpt lat="37.40269" lon="-3.00034">
        <ele>1150.655538</ele>
        <time>2022-02-24T18:32:58.810Z</time>
      </trkpt>
      <trkpt lat="37.40236" lon="-3.00028">
        <ele>1149.095903</ele>
        <time>2022-02-24T18:33:04.329Z</time>
      </trkpt>
      <trkpt lat="37.4015" lon="-3.00038">
        <ele>1145.143692</ele>
        <time>2022-02-24T18:33:18.713Z</time>
      </trkpt>
      <trkpt lat="37.40095" lon="-3.00018">
        <ele>1142.460305</ele>
        <time>2022-02-24T18:33:28.251Z</time>
      </trkpt>
      <trkpt lat="37.40055" lon="-3.00014">
        <ele>1140.618239</ele>
        <time>2022-02-24T18:33:34.654Z</time>
      </trkpt>
      <trkpt lat="37.40022" lon="-3.00023">
        <ele>1139.005961</ele>
        <time>2022-02-24T18:33:40.123Z</time>
      </trkpt>
      <trkpt lat="37.39827" lon="-3.00123">
        <ele>1126.285763</ele>
        <time>2022-02-24T18:34:12.036Z</time>
      </trkpt>
      <trkpt lat="37.39795" lon="-3.0013">
        <ele>1125.438819</ele>
        <time>2022-02-24T18:34:17.025Z</time>
      </trkpt>
      <trkpt lat="37.39769" lon="-3.00114">
        <ele>1124.688016</ele>
        <time>2022-02-24T18:34:21.490Z</time>
      </trkpt>
      <trkpt lat="37.39713" lon="-3.00026">
        <ele>1122.309046</ele>
        <time>2022-02-24T18:34:37.776Z</time>
      </trkpt>
      <trkpt lat="37.39687" lon="-3.00015">
        <ele>1121.782635</ele>
        <time>2022-02-24T18:34:46.196Z</time>
      </trkpt>
      <trkpt lat="37.39663" lon="-3.00023">
        <ele>1122.565127</ele>
        <time>2022-02-24T18:34:54.887Z</time>
      </trkpt>
      <trkpt lat="37.396" lon="-3.00067">
        <ele>1124.8879</ele>
        <time>2022-02-24T18:35:22.602Z</time>
      </trkpt>
      <trkpt lat="37.39571" lon="-3.00091">
        <ele>1125.996526</ele>
        <time>2022-02-24T18:35:36.555Z</time>
      </trkpt>
      <trkpt lat="37.39563" lon="-3.00107">
        <ele>1126.459597</ele>
        <time>2022-02-24T18:35:42.688Z</time>
      </trkpt>
      <trkpt lat="37.39558" lon="-3.00131">
        <ele>1127.090895</ele>
        <time>2022-02-24T18:35:51.130Z</time>
      </trkpt>
      <trkpt lat="37.39563" lon="-3.00222">
        <ele>1130.319607</ele>
        <time>2022-02-24T18:36:26.559Z</time>
      </trkpt>
      <trkpt lat="37.39559" lon="-3.00254">
        <ele>1131.519744</ele>
        <time>2022-02-24T18:36:39.743Z</time>
      </trkpt>
      <trkpt lat="37.3955" lon="-3.00279">
        <ele>1132.524144</ele>
        <time>2022-02-24T18:36:49.270Z</time>
      </trkpt>
      <trkpt lat="37.39406" lon="-3.00511">
        <ele>1142.069847</ele>
        <time>2022-02-24T18:38:29.836Z</time>
      </trkpt>
      <trkpt lat="37.39389" lon="-3.00545">
        <ele>1142.831618</ele>
        <time>2022-02-24T18:38:41.103Z</time>
      </trkpt>
      <trkpt lat="37.39385" lon="-3.00565">
        <ele>1143.013884</ele>
        <time>2022-02-24T18:38:46.592Z</time>
      </trkpt>
      <trkpt lat="37.39388" lon="-3.00584">
        <ele>1143.184943</ele>
        <time>2022-02-24T18:38:51.596Z</time>
      </trkpt>
      <trkpt lat="37.39413" lon="-3.00615">
        <ele>1143.573772</ele>
        <time>2022-02-24T18:39:02.121Z</time>
      </trkpt>
      <trkpt lat="37.39664" lon="-3.00805">
        <ele>1144.889635</ele>
        <time>2022-02-24T18:40:07.685Z</time>
      </trkpt>
      <trkpt lat="37.3969" lon="-3.00818">
        <ele>1145.20514</ele>
        <time>2022-02-24T18:40:13.857Z</time>
      </trkpt>
      <trkpt lat="37.39735" lon="-3.00819">
        <ele>1145.713162</ele>
        <time>2022-02-24T18:40:24.404Z</time>
      </trkpt>
      <trkpt lat="37.39852" lon="-3.00794">
        <ele>1148.21703</ele>
        <time>2022-02-24T18:41:01.159Z</time>
      </trkpt>
      <trkpt lat="37.39878" lon="-3.00798">
        <ele>1149.637816</ele>
        <time>2022-02-24T18:41:13.202Z</time>
      </trkpt>
      <trkpt lat="37.39946" lon="-3.00824">
        <ele>1153.359653</ele>
        <time>2022-02-24T18:41:49.040Z</time>
      </trkpt>
      <trkpt lat="37.3999" lon="-3.00829">
        <ele>1155.746741</ele>
        <time>2022-02-24T18:42:13.374Z</time>
      </trkpt>
      <trkpt lat="37.40029" lon="-3.00845">
        <ele>1158.742861</ele>
        <time>2022-02-24T18:42:40.056Z</time>
      </trkpt>
      <trkpt lat="37.40043" lon="-3.00858">
        <ele>1160.125097</ele>
        <time>2022-02-24T18:42:51.129Z</time>
      </trkpt>
      <trkpt lat="37.4009" lon="-3.00956">
        <ele>1167.341828</ele>
        <time>2022-02-24T18:43:49.175Z</time>
      </trkpt>
      <trkpt lat="37.40111" lon="-3.00979">
        <ele>1169.607109</ele>
        <time>2022-02-24T18:44:08.624Z</time>
      </trkpt>
      <trkpt lat="37.40146" lon="-3.01013">
        <ele>1172.034498</ele>
        <time>2022-02-24T18:44:33.535Z</time>
      </trkpt>
      <trkpt lat="37.40161" lon="-3.01036">
        <ele>1173.09857</ele>
        <time>2022-02-24T18:44:46.315Z</time>
      </trkpt>
      <trkpt lat="37.40174" lon="-3.0107">
        <ele>1174.459098</ele>
        <time>2022-02-24T18:45:01.311Z</time>
      </trkpt>
      <trkpt lat="37.40177" lon="-3.01091">
        <ele>1175.232285</ele>
        <time>2022-02-24T18:45:09.663Z</time>
      </trkpt>
      <trkpt lat="37.40175" lon="-3.01143">
        <ele>1177.090531</ele>
        <time>2022-02-24T18:45:27.754Z</time>
      </trkpt>
      <trkpt lat="37.40167" lon="-3.01176">
        <ele>1178.34371</ele>
        <time>2022-02-24T18:45:36.360Z</time>
      </trkpt>
      <trkpt lat="37.40045" lon="-3.01532">
        <ele>1176.713985</ele>
        <time>2022-02-24T18:46:38.175Z</time>
      </trkpt>
      <trkpt lat="37.396" lon="-3.02835">
        <ele>1164.117842</ele>
        <time>2022-02-24T18:50:30.591Z</time>
      </trkpt>
      <trkpt lat="37.39464" lon="-3.03235">
        <ele>1154.983628</ele>
        <time>2022-02-24T18:51:33.771Z</time>
      </trkpt>
      <trkpt lat="37.39404" lon="-3.03408">
        <ele>1151.653133</ele>
        <time>2022-02-24T18:52:02.063Z</time>
      </trkpt>
      <trkpt lat="37.39321" lon="-3.03794">
        <ele>1146.84955</ele>
        <time>2022-02-24T18:53:47.244Z</time>
      </trkpt>
      <trkpt lat="37.39267" lon="-3.0393">
        <ele>1146.343206</ele>
        <time>2022-02-24T18:54:32.759Z</time>
      </trkpt>
      <trkpt lat="37.39257" lon="-3.03977">
        <ele>1146.592225</ele>
        <time>2022-02-24T18:54:48.877Z</time>
      </trkpt>
      <trkpt lat="37.3919" lon="-3.04094">
        <ele>1147.327076</ele>
        <time>2022-02-24T18:55:36.511Z</time>
      </trkpt>
      <trkpt lat="37.39137" lon="-3.04214">
        <ele>1146.46641</ele>
        <time>2022-02-24T18:56:16.304Z</time>
      </trkpt>
      <trkpt lat="37.39115" lon="-3.04243">
        <ele>1146.185907</ele>
        <time>2022-02-24T18:56:27.243Z</time>
      </trkpt>
      <trkpt lat="37.39094" lon="-3.04295">
        <ele>1145.733962</ele>
        <time>2022-02-24T18:56:42.262Z</time>
      </trkpt>
      <trkpt lat="37.39078" lon="-3.04364">
        <ele>1144.098935</ele>
        <time>2022-02-24T18:57:00.358Z</time>
      </trkpt>
      <trkpt lat="37.39076" lon="-3.04413">
        <ele>1143.006667</ele>
        <time>2022-02-24T18:57:12.191Z</time>
      </trkpt>
      <trkpt lat="37.39087" lon="-3.04444">
        <ele>1142.223161</ele>
        <time>2022-02-24T18:57:20.558Z</time>
      </trkpt>
      <trkpt lat="37.39199" lon="-3.04624">
        <ele>1137.607738</ele>
        <time>2022-02-24T18:58:16.712Z</time>
      </trkpt>
      <trkpt lat="37.39206" lon="-3.04654">
        <ele>1137.008228</ele>
        <time>2022-02-24T18:58:24.818Z</time>
      </trkpt>
      <trkpt lat="37.39182" lon="-3.0466">
        <ele>1136.416811</ele>
        <time>2022-02-24T18:58:33.285Z</time>
      </trkpt>
      <trkpt lat="37.39121" lon="-3.04572">
        <ele>1136.229206</ele>
        <time>2022-02-24T18:59:06.719Z</time>
      </trkpt>
      <trkpt lat="37.38931" lon="-3.04542">
        <ele>1136.203815</ele>
        <time>2022-02-24T19:00:21.620Z</time>
      </trkpt>
      <trkpt lat="37.38863" lon="-3.04608">
        <ele>1136.23392</ele>
        <time>2022-02-24T19:00:52.683Z</time>
      </trkpt>
      <trkpt lat="37.38795" lon="-3.04692">
        <ele>1135.762748</ele>
        <time>2022-02-24T19:01:26.314Z</time>
      </trkpt>
      <trkpt lat="37.38136" lon="-3.05533">
        <ele>1132.206526</ele>
        <time>2022-02-24T19:07:03.212Z</time>
      </trkpt>
      <trkpt lat="37.38098" lon="-3.05592">
        <ele>1132.348538</ele>
        <time>2022-02-24T19:07:27.508Z</time>
      </trkpt>
      <trkpt lat="37.38095" lon="-3.05582">
        <ele>1132.427044</ele>
        <time>2022-02-24T19:07:30.949Z</time>
      </trkpt>
      <trkpt lat="37.38074" lon="-3.05542">
        <ele>1132.773085</ele>
        <time>2022-02-24T19:07:41.424Z</time>
      </trkpt>
      <trkpt lat="37.38069" lon="-3.05531">
        <ele>1132.863957</ele>
        <time>2022-02-24T19:07:45.661Z</time>
      </trkpt>
      <trkpt lat="37.38061" lon="-3.05533">
        <ele>1132.933089</ele>
        <time>2022-02-24T19:07:49.106Z</time>
      </trkpt>
      <trkpt lat="37.38055" lon="-3.05557">
        <ele>1133.119955</ele>
        <time>2022-02-24T19:07:57.482Z</time>
      </trkpt>
      <trkpt lat="37.37986" lon="-3.05655">
        <ele>1133.997326</ele>
        <time>2022-02-24T19:08:42.171Z</time>
      </trkpt>
      <trkpt lat="37.37727" lon="-3.05987">
        <ele>1136.145697</ele>
        <time>2022-02-24T19:11:09.212Z</time>
      </trkpt>
      <trkpt lat="37.37725" lon="-3.05994">
        <ele>1136.173555</ele>
        <time>2022-02-24T19:11:11.624Z</time>
      </trkpt>
      <trkpt lat="37.37728" lon="-3.05997">
        <ele>1136.19221</ele>
        <time>2022-02-24T19:11:13.058Z</time>
      </trkpt>
      <trkpt lat="37.37505" lon="-3.06286">
        <ele>1137.60723</ele>
        <time>2022-02-24T19:12:31.203Z</time>
      </trkpt>
      <trkpt lat="37.37499" lon="-3.06295">
        <ele>1137.668435</ele>
        <time>2022-02-24T19:12:33.403Z</time>
      </trkpt>
      <trkpt lat="37.37493" lon="-3.06303">
        <ele>1137.725954</ele>
        <time>2022-02-24T19:12:35.405Z</time>
      </trkpt>
      <trkpt lat="37.37486" lon="-3.06311">
        <ele>1137.786987</ele>
        <time>2022-02-24T19:12:37.656Z</time>
      </trkpt>
      <trkpt lat="37.37453" lon="-3.06354">
        <ele>1138.104134</ele>
        <time>2022-02-24T19:12:49.622Z</time>
      </trkpt>
      <trkpt lat="37.37443" lon="-3.06366">
        <ele>1138.194522</ele>
        <time>2022-02-24T19:12:52.774Z</time>
      </trkpt>
      <trkpt lat="37.37439" lon="-3.06365">
        <ele>1138.224228</ele>
        <time>2022-02-24T19:12:53.968Z</time>
      </trkpt>
      <trkpt lat="37.37429" lon="-3.06368">
        <ele>1138.287277</ele>
        <time>2022-02-24T19:12:56.404Z</time>
      </trkpt>
      <trkpt lat="37.37425" lon="-3.0636">
        <ele>1138.334221</ele>
        <time>2022-02-24T19:12:58.431Z</time>
      </trkpt>
      <trkpt lat="37.37398" lon="-3.06378">
        <ele>1138.53662</ele>
        <time>2022-02-24T19:13:06.414Z</time>
      </trkpt>
      <trkpt lat="37.37365" lon="-3.06375">
        <ele>1138.798091</ele>
        <time>2022-02-24T19:13:15.703Z</time>
      </trkpt>
      <trkpt lat="37.37333" lon="-3.06372">
        <ele>1139.3542</ele>
        <time>2022-02-24T19:13:25.385Z</time>
      </trkpt>
      <trkpt lat="37.373" lon="-3.0638">
        <ele>1139.935097</ele>
        <time>2022-02-24T19:13:36.101Z</time>
      </trkpt>
      <trkpt lat="37.37272" lon="-3.06399">
        <ele>1140.489525</ele>
        <time>2022-02-24T19:13:46.849Z</time>
      </trkpt>
      <trkpt lat="37.37247" lon="-3.06413">
        <ele>1140.978018</ele>
        <time>2022-02-24T19:13:56.220Z</time>
      </trkpt>
      <trkpt lat="37.37198" lon="-3.06407">
        <ele>1141.837215</ele>
        <time>2022-02-24T19:14:12.310Z</time>
      </trkpt>
      <trkpt lat="37.37162" lon="-3.06405">
        <ele>1142.673873</ele>
        <time>2022-02-24T19:14:24.051Z</time>
      </trkpt>
      <trkpt lat="37.37116" lon="-3.064">
        <ele>1143.757756</ele>
        <time>2022-02-24T19:14:39.646Z</time>
      </trkpt>
      <trkpt lat="37.37068" lon="-3.06392">
        <ele>1144.908785</ele>
        <time>2022-02-24T19:14:57.023Z</time>
      </trkpt>
      <trkpt lat="37.37042" lon="-3.06392">
        <ele>1145.51989</ele>
        <time>2022-02-24T19:15:07.001Z</time>
      </trkpt>
      <trkpt lat="37.36971" lon="-3.06323">
        <ele>1147.865305</ele>
        <time>2022-02-24T19:15:39.042Z</time>
      </trkpt>
      <trkpt lat="37.36938" lon="-3.06282">
        <ele>1149.121023</ele>
        <time>2022-02-24T19:15:56.377Z</time>
      </trkpt>
      <trkpt lat="37.36887" lon="-3.06204">
        <ele>1151.252866</ele>
        <time>2022-02-24T19:16:26.247Z</time>
      </trkpt>
      <trkpt lat="37.3687" lon="-3.06189">
        <ele>1151.748067</ele>
        <time>2022-02-24T19:16:33.937Z</time>
      </trkpt>
      <trkpt lat="37.36765" lon="-3.06162">
        <ele>1154.326478</ele>
        <time>2022-02-24T19:17:10.648Z</time>
      </trkpt>
      <trkpt lat="37.36689" lon="-3.06119">
        <ele>1156.42303</ele>
        <time>2022-02-24T19:17:39.922Z</time>
      </trkpt>
      <trkpt lat="37.36632" lon="-3.06097">
        <ele>1157.939413</ele>
        <time>2022-02-24T19:18:02.130Z</time>
      </trkpt>
      <trkpt lat="37.36486" lon="-3.06074">
        <ele>1161.019862</ele>
        <time>2022-02-24T19:18:54.732Z</time>
      </trkpt>
      <trkpt lat="37.36353" lon="-3.06049">
        <ele>1162.758535</ele>
        <time>2022-02-24T19:19:33.258Z</time>
      </trkpt>
      <trkpt lat="37.36314" lon="-3.06037">
        <ele>1162.784113</ele>
        <time>2022-02-24T19:19:42.586Z</time>
      </trkpt>
      <trkpt lat="37.36219" lon="-3.05969">
        <ele>1162.853812</ele>
        <time>2022-02-24T19:20:07.383Z</time>
      </trkpt>
      <trkpt lat="37.36188" lon="-3.05963">
        <ele>1162.732474</ele>
        <time>2022-02-24T19:20:14.264Z</time>
      </trkpt>
      <trkpt lat="37.36142" lon="-3.05967">
        <ele>1162.501861</ele>
        <time>2022-02-24T19:20:24.528Z</time>
      </trkpt>
      <trkpt lat="37.36" lon="-3.06019">
        <ele>1161.942055</ele>
        <time>2022-02-24T19:20:56.318Z</time>
      </trkpt>
      <trkpt lat="37.35962" lon="-3.06026">
        <ele>1161.918487</ele>
        <time>2022-02-24T19:21:04.858Z</time>
      </trkpt>
      <trkpt lat="37.35924" lon="-3.06018">
        <ele>1161.895418</ele>
        <time>2022-02-24T19:21:13.574Z</time>
      </trkpt>
      <trkpt lat="37.35848" lon="-3.05985">
        <ele>1161.97662</ele>
        <time>2022-02-24T19:21:33.675Z</time>
      </trkpt>
      <trkpt lat="37.35825" lon="-3.05992">
        <ele>1162.145291</ele>
        <time>2022-02-24T19:21:39.927Z</time>
      </trkpt>
      <trkpt lat="37.35785" lon="-3.06018">
        <ele>1162.468213</ele>
        <time>2022-02-24T19:21:52.304Z</time>
      </trkpt>
      <trkpt lat="37.35767" lon="-3.06014">
        <ele>1162.603552</ele>
        <time>2022-02-24T19:21:57.719Z</time>
      </trkpt>
      <trkpt lat="37.35679" lon="-3.05932">
        <ele>1162.658831</ele>
        <time>2022-02-24T19:22:27.748Z</time>
      </trkpt>
      <trkpt lat="37.35652" lon="-3.05914">
        <ele>1162.188291</ele>
        <time>2022-02-24T19:22:34.651Z</time>
      </trkpt>
      <trkpt lat="37.3562" lon="-3.05904">
        <ele>1161.701317</ele>
        <time>2022-02-24T19:22:41.305Z</time>
      </trkpt>
      <trkpt lat="37.35587" lon="-3.05904">
        <ele>1161.199994</ele>
        <time>2022-02-24T19:22:47.811Z</time>
      </trkpt>
      <trkpt lat="37.35299" lon="-3.05977">
        <ele>1151.746093</ele>
        <time>2022-02-24T19:23:38.768Z</time>
      </trkpt>
      <trkpt lat="37.35232" lon="-3.06007">
        <ele>1149.763843</ele>
        <time>2022-02-24T19:23:51.826Z</time>
      </trkpt>
      <trkpt lat="37.3485" lon="-3.06241">
        <ele>1143.289708</ele>
        <time>2022-02-24T19:25:16.827Z</time>
      </trkpt>
      <trkpt lat="37.34815" lon="-3.06249">
        <ele>1143.227555</ele>
        <time>2022-02-24T19:25:24.468Z</time>
      </trkpt>
      <trkpt lat="37.34785" lon="-3.06242">
        <ele>1143.172077</ele>
        <time>2022-02-24T19:25:31.464Z</time>
      </trkpt>
      <trkpt lat="37.34632" lon="-3.06173">
        <ele>1143.821202</ele>
        <time>2022-02-24T19:26:12.338Z</time>
      </trkpt>
      <trkpt lat="37.34616" lon="-3.06173">
        <ele>1144.001389</ele>
        <time>2022-02-24T19:26:16.671Z</time>
      </trkpt>
      <trkpt lat="37.34566" lon="-3.06188">
        <ele>1144.606535</ele>
        <time>2022-02-24T19:26:32.133Z</time>
      </trkpt>
      <trkpt lat="37.34539" lon="-3.06181">
        <ele>1144.93946</ele>
        <time>2022-02-24T19:26:40.969Z</time>
      </trkpt>
      <trkpt lat="37.3453" lon="-3.06177">
        <ele>1145.046276</ele>
        <time>2022-02-24T19:26:44.014Z</time>
      </trkpt>
      <trkpt lat="37.34216" lon="-3.05962">
        <ele>1153.079448</ele>
        <time>2022-02-24T19:28:50.706Z</time>
      </trkpt>
      <trkpt lat="37.34129" lon="-3.05866">
        <ele>1153.273197</ele>
        <time>2022-02-24T19:29:20.278Z</time>
      </trkpt>
      <trkpt lat="37.34118" lon="-3.05861">
        <ele>1153.274259</ele>
        <time>2022-02-24T19:29:22.908Z</time>
      </trkpt>
      <trkpt lat="37.34103" lon="-3.05864">
        <ele>1153.275556</ele>
        <time>2022-02-24T19:29:26.053Z</time>
      </trkpt>
      <trkpt lat="37.34046" lon="-3.05905">
        <ele>1152.952934</ele>
        <time>2022-02-24T19:29:39.419Z</time>
      </trkpt>
      <trkpt lat="37.34023" lon="-3.05934">
        <ele>1152.414886</ele>
        <time>2022-02-24T19:29:45.851Z</time>
      </trkpt>
      <trkpt lat="37.3393" lon="-3.06139">
        <ele>1149.812959</ele>
        <time>2022-02-24T19:30:22.477Z</time>
      </trkpt>
      <trkpt lat="37.33906" lon="-3.0617">
        <ele>1149.533097</ele>
        <time>2022-02-24T19:30:29.485Z</time>
      </trkpt>
      <trkpt lat="37.33881" lon="-3.06191">
        <ele>1149.289031</ele>
        <time>2022-02-24T19:30:35.820Z</time>
      </trkpt>
      <trkpt lat="37.33849" lon="-3.06204">
        <ele>1149.006902</ele>
        <time>2022-02-24T19:30:43.339Z</time>
      </trkpt>
      <trkpt lat="37.33734" lon="-3.06229">
        <ele>1150.798139</ele>
        <time>2022-02-24T19:31:15.962Z</time>
      </trkpt>
      <trkpt lat="37.33672" lon="-3.06233">
        <ele>1152.078385</ele>
        <time>2022-02-24T19:31:39.450Z</time>
      </trkpt>
      <trkpt lat="37.33454" lon="-3.06147">
        <ele>1160.462249</ele>
        <time>2022-02-24T19:33:21.466Z</time>
      </trkpt>
      <trkpt lat="37.33297" lon="-3.06128">
        <ele>1164.181366</ele>
        <time>2022-02-24T19:34:14.495Z</time>
      </trkpt>
      <trkpt lat="37.33196" lon="-3.06075">
        <ele>1164.33295</ele>
        <time>2022-02-24T19:34:44.950Z</time>
      </trkpt>
      <trkpt lat="37.33169" lon="-3.06068">
        <ele>1164.370556</ele>
        <time>2022-02-24T19:34:51.051Z</time>
      </trkpt>
      <trkpt lat="37.33085" lon="-3.06081">
        <ele>1162.592321</ele>
        <time>2022-02-24T19:35:07.560Z</time>
      </trkpt>
      <trkpt lat="37.32975" lon="-3.06103">
        <ele>1158.143504</ele>
        <time>2022-02-24T19:35:26.259Z</time>
      </trkpt>
      <trkpt lat="37.32921" lon="-3.06104">
        <ele>1155.996844</ele>
        <time>2022-02-24T19:35:34.934Z</time>
      </trkpt>
      <trkpt lat="37.32853" lon="-3.06083">
        <ele>1153.159346</ele>
        <time>2022-02-24T19:35:46.704Z</time>
      </trkpt>
      <trkpt lat="37.32832" lon="-3.06102">
        <ele>1152.142346</ele>
        <time>2022-02-24T19:35:51.109Z</time>
      </trkpt>
      <trkpt lat="37.32801" lon="-3.06117">
        <ele>1150.82026</ele>
        <time>2022-02-24T19:35:57.053Z</time>
      </trkpt>
      <trkpt lat="37.32728" lon="-3.06091">
        <ele>1149.795231</ele>
        <time>2022-02-24T19:36:12.222Z</time>
      </trkpt>
      <trkpt lat="37.32668" lon="-3.06051">
        <ele>1149.547784</ele>
        <time>2022-02-24T19:36:27.594Z</time>
      </trkpt>
      <trkpt lat="37.32627" lon="-3.05991">
        <ele>1149.476083</ele>
        <time>2022-02-24T19:36:44.327Z</time>
      </trkpt>
      <trkpt lat="37.32611" lon="-3.05974">
        <ele>1149.903931</ele>
        <time>2022-02-24T19:36:50.543Z</time>
      </trkpt>
      <trkpt lat="37.32596" lon="-3.0597">
        <ele>1150.208035</ele>
        <time>2022-02-24T19:36:54.982Z</time>
      </trkpt>
      <trkpt lat="37.31993" lon="-3.05958">
        <ele>1161.266751</ele>
        <time>2022-02-24T19:40:19.057Z</time>
      </trkpt>
      <trkpt lat="37.31947" lon="-3.05955">
        <ele>1161.716124</ele>
        <time>2022-02-24T19:40:29.220Z</time>
      </trkpt>
      <trkpt lat="37.31912" lon="-3.05975">
        <ele>1161.864715</ele>
        <time>2022-02-24T19:40:37.420Z</time>
      </trkpt>
      <trkpt lat="37.3168" lon="-3.06251">
        <ele>1157.769205</ele>
        <time>2022-02-24T19:41:42.021Z</time>
      </trkpt>
      <trkpt lat="37.31662" lon="-3.06264">
        <ele>1157.486317</ele>
        <time>2022-02-24T19:41:46.067Z</time>
      </trkpt>
      <trkpt lat="37.31643" lon="-3.06271">
        <ele>1157.156672</ele>
        <time>2022-02-24T19:41:50.162Z</time>
      </trkpt>
      <trkpt lat="37.31623" lon="-3.06265">
        <ele>1156.793614</ele>
        <time>2022-02-24T19:41:53.977Z</time>
      </trkpt>
      <trkpt lat="37.31606" lon="-3.06253">
        <ele>1156.443439</ele>
        <time>2022-02-24T19:41:57.665Z</time>
      </trkpt>
      <trkpt lat="37.31526" lon="-3.06168">
        <ele>1154.541898</ele>
        <time>2022-02-24T19:42:18.011Z</time>
      </trkpt>
      <trkpt lat="37.3149" lon="-3.06128">
        <ele>1153.807786</ele>
        <time>2022-02-24T19:42:27.478Z</time>
      </trkpt>
      <trkpt lat="37.31445" lon="-3.06133">
        <ele>1153.279521</ele>
        <time>2022-02-24T19:42:36.369Z</time>
      </trkpt>
      <trkpt lat="37.30604" lon="-3.06558">
        <ele>1142.34023</ele>
        <time>2022-02-24T19:45:42.802Z</time>
      </trkpt>
      <trkpt lat="37.30571" lon="-3.06568">
        <ele>1141.755718</ele>
        <time>2022-02-24T19:45:49.433Z</time>
      </trkpt>
      <trkpt lat="37.30539" lon="-3.0657">
        <ele>1141.194825</ele>
        <time>2022-02-24T19:45:55.731Z</time>
      </trkpt>
      <trkpt lat="37.30192" lon="-3.06512">
        <ele>1133.449927</ele>
        <time>2022-02-24T19:47:00.288Z</time>
      </trkpt>
      <trkpt lat="37.2981" lon="-3.06506">
        <ele>1133.243012</ele>
        <time>2022-02-24T19:48:30.756Z</time>
      </trkpt>
      <trkpt lat="37.29789" lon="-3.06501">
        <ele>1133.335878</ele>
        <time>2022-02-24T19:48:37.559Z</time>
      </trkpt>
      <trkpt lat="37.29681" lon="-3.06437">
        <ele>1135.489609</ele>
        <time>2022-02-24T19:49:15.910Z</time>
      </trkpt>
      <trkpt lat="37.29586" lon="-3.06408">
        <ele>1137.692183</ele>
        <time>2022-02-24T19:49:49.099Z</time>
      </trkpt>
      <trkpt lat="37.29567" lon="-3.06398">
        <ele>1138.33624</ele>
        <time>2022-02-24T19:49:56.495Z</time>
      </trkpt>
      <trkpt lat="37.29548" lon="-3.06373">
        <ele>1139.171853</ele>
        <time>2022-02-24T19:50:06.525Z</time>
      </trkpt>
      <trkpt lat="37.29538" lon="-3.06344">
        <ele>1139.925849</ele>
        <time>2022-02-24T19:50:15.955Z</time>
      </trkpt>
      <trkpt lat="37.29566" lon="-3.06209">
        <ele>1143.558576</ele>
        <time>2022-02-24T19:51:02.864Z</time>
      </trkpt>
      <trkpt lat="37.29596" lon="-3.06105">
        <ele>1146.869483</ele>
        <time>2022-02-24T19:51:40.993Z</time>
      </trkpt>
      <trkpt lat="37.29659" lon="-3.05984">
        <ele>1150.586104</ele>
        <time>2022-02-24T19:52:27.177Z</time>
      </trkpt>
      <trkpt lat="37.29703" lon="-3.05861">
        <ele>1153.575223</ele>
        <time>2022-02-24T19:53:05.092Z</time>
      </trkpt>
      <trkpt lat="37.29835" lon="-3.05531">
        <ele>1159.567882</ele>
        <time>2022-02-24T19:54:49.706Z</time>
      </trkpt>
      <trkpt lat="37.29865" lon="-3.054">
        <ele>1159.892611</ele>
        <time>2022-02-24T19:55:13.923Z</time>
      </trkpt>
      <trkpt lat="37.29863" lon="-3.05375">
        <ele>1159.51006</ele>
        <time>2022-02-24T19:55:17.802Z</time>
      </trkpt>
      <trkpt lat="37.29705" lon="-3.05326">
        <ele>1156.218628</ele>
        <time>2022-02-24T19:55:48.127Z</time>
      </trkpt>
      <trkpt lat="37.29605" lon="-3.05259">
        <ele>1153.513292</ele>
        <time>2022-02-24T19:56:09.101Z</time>
      </trkpt>
      <trkpt lat="37.29589" lon="-3.05258">
        <ele>1153.117562</ele>
        <time>2022-02-24T19:56:12.300Z</time>
      </trkpt>
      <trkpt lat="37.29575" lon="-3.0527">
        <ele>1152.712665</ele>
        <time>2022-02-24T19:56:15.418Z</time>
      </trkpt>
      <trkpt lat="37.29474" lon="-3.05427">
        <ele>1149.667334</ele>
        <time>2022-02-24T19:56:46.520Z</time>
      </trkpt>
      <trkpt lat="37.29446" lon="-3.05451">
        <ele>1149.079182</ele>
        <time>2022-02-24T19:56:53.190Z</time>
      </trkpt>
      <trkpt lat="37.29365" lon="-3.05506">
        <ele>1147.650056</ele>
        <time>2022-02-24T19:57:11.694Z</time>
      </trkpt>
      <trkpt lat="37.29307" lon="-3.05574">
        <ele>1146.355494</ele>
        <time>2022-02-24T19:57:27.553Z</time>
      </trkpt>
      <trkpt lat="37.29238" lon="-3.05614">
        <ele>1144.532657</ele>
        <time>2022-02-24T19:57:41.994Z</time>
      </trkpt>
      <trkpt lat="37.29198" lon="-3.05627">
        <ele>1143.538078</ele>
        <time>2022-02-24T19:57:49.635Z</time>
      </trkpt>
      <trkpt lat="37.29079" lon="-3.05643">
        <ele>1140.312733</ele>
        <time>2022-02-24T19:58:11.475Z</time>
      </trkpt>
      <trkpt lat="37.29057" lon="-3.05657">
        <ele>1139.571709</ele>
        <time>2022-02-24T19:58:15.978Z</time>
      </trkpt>
      <trkpt lat="37.29007" lon="-3.05728">
        <ele>1137.350083</ele>
        <time>2022-02-24T19:58:29.546Z</time>
      </trkpt>
      <trkpt lat="37.28949" lon="-3.05798">
        <ele>1134.826794</ele>
        <time>2022-02-24T19:58:44.141Z</time>
      </trkpt>
      <trkpt lat="37.28664" lon="-3.0594">
        <ele>1125.026463</ele>
        <time>2022-02-24T19:59:38.918Z</time>
      </trkpt>
      <trkpt lat="37.28607" lon="-3.05966">
        <ele>1123.107571</ele>
        <time>2022-02-24T19:59:49.839Z</time>
      </trkpt>
      <trkpt lat="37.28424" lon="-3.06013">
        <ele>1117.192616</ele>
        <time>2022-02-24T20:00:23.490Z</time>
      </trkpt>
      <trkpt lat="37.28405" lon="-3.06022">
        <ele>1116.545165</ele>
        <time>2022-02-24T20:00:27.160Z</time>
      </trkpt>
      <trkpt lat="37.28293" lon="-3.06138">
        <ele>1112.166497</ele>
        <time>2022-02-24T20:00:53.115Z</time>
      </trkpt>
      <trkpt lat="37.28194" lon="-3.06193">
        <ele>1109.097674</ele>
        <time>2022-02-24T20:01:13.015Z</time>
      </trkpt>
      <trkpt lat="37.28062" lon="-3.06307">
        <ele>1104.517846</ele>
        <time>2022-02-24T20:01:42.680Z</time>
      </trkpt>
      <trkpt lat="37.27903" lon="-3.06407">
        <ele>1098.679744</ele>
        <time>2022-02-24T20:02:14.045Z</time>
      </trkpt>
      <trkpt lat="37.27796" lon="-3.06518">
        <ele>1094.600358</ele>
        <time>2022-02-24T20:02:39.192Z</time>
      </trkpt>
      <trkpt lat="37.27745" lon="-3.06559">
        <ele>1092.896053</ele>
        <time>2022-02-24T20:02:50.433Z</time>
      </trkpt>
      <trkpt lat="37.2766" lon="-3.066">
        <ele>1090.196915</ele>
        <time>2022-02-24T20:03:07.240Z</time>
      </trkpt>
      <trkpt lat="37.27618" lon="-3.06625">
        <ele>1088.813793</ele>
        <time>2022-02-24T20:03:15.580Z</time>
      </trkpt>
      <trkpt lat="37.27591" lon="-3.06655">
        <ele>1087.734788</ele>
        <time>2022-02-24T20:03:22.028Z</time>
      </trkpt>
      <trkpt lat="37.27436" lon="-3.0688">
        <ele>1080.43635</ele>
        <time>2022-02-24T20:04:04.102Z</time>
      </trkpt>
      <trkpt lat="37.27406" lon="-3.06916">
        <ele>1079.537044</ele>
        <time>2022-02-24T20:04:11.939Z</time>
      </trkpt>
      <trkpt lat="37.27326" lon="-3.06983">
        <ele>1077.435258</ele>
        <time>2022-02-24T20:04:31.070Z</time>
      </trkpt>
      <trkpt lat="37.27292" lon="-3.0702">
        <ele>1076.357726</ele>
        <time>2022-02-24T20:04:40.002Z</time>
      </trkpt>
      <trkpt lat="37.27267" lon="-3.07062">
        <ele>1075.338723</ele>
        <time>2022-02-24T20:04:48.321Z</time>
      </trkpt>
      <trkpt lat="37.27248" lon="-3.07106">
        <ele>1074.37365</ele>
        <time>2022-02-24T20:04:55.942Z</time>
      </trkpt>
      <trkpt lat="37.27201" lon="-3.07247">
        <ele>1069.35008</ele>
        <time>2022-02-24T20:05:16.994Z</time>
      </trkpt>
      <trkpt lat="37.27185" lon="-3.07265">
        <ele>1068.165567</ele>
        <time>2022-02-24T20:05:20.460Z</time>
      </trkpt>
      <trkpt lat="37.27089" lon="-3.07339">
        <ele>1061.698315</ele>
        <time>2022-02-24T20:05:38.396Z</time>
      </trkpt>
      <trkpt lat="37.27054" lon="-3.07366">
        <ele>1059.056812</ele>
        <time>2022-02-24T20:05:44.766Z</time>
      </trkpt>
      <trkpt lat="37.26986" lon="-3.07422">
        <ele>1053.751527</ele>
        <time>2022-02-24T20:05:57.654Z</time>
      </trkpt>
      <trkpt lat="37.26875" lon="-3.07525">
        <ele>1047.817659</ele>
        <time>2022-02-24T20:06:20.279Z</time>
      </trkpt>
      <trkpt lat="37.26697" lon="-3.07647">
        <ele>1046.061595</ele>
        <time>2022-02-24T20:07:01.791Z</time>
      </trkpt>
      <trkpt lat="37.2668" lon="-3.0766">
        <ele>1046.232833</ele>
        <time>2022-02-24T20:07:09.990Z</time>
      </trkpt>
      <trkpt lat="37.26671" lon="-3.07668">
        <ele>1046.326214</ele>
        <time>2022-02-24T20:07:14.393Z</time>
      </trkpt>
      <trkpt lat="37.26665" lon="-3.07674">
        <ele>1046.386895</ele>
        <time>2022-02-24T20:07:17.490Z</time>
      </trkpt>
      <trkpt lat="37.26485" lon="-3.07851">
        <ele>1058.378783</ele>
        <time>2022-02-24T20:09:20.842Z</time>
      </trkpt>
      <trkpt lat="37.26404" lon="-3.07915">
        <ele>1062.830961</ele>
        <time>2022-02-24T20:10:05.235Z</time>
      </trkpt>
      <trkpt lat="37.26381" lon="-3.07942">
        <ele>1064.299126</ele>
        <time>2022-02-24T20:10:18.652Z</time>
      </trkpt>
      <trkpt lat="37.26356" lon="-3.07996">
        <ele>1066.236228</ele>
        <time>2022-02-24T20:10:38.824Z</time>
      </trkpt>
      <trkpt lat="37.26336" lon="-3.08082">
        <ele>1068.626463</ele>
        <time>2022-02-24T20:11:07.652Z</time>
      </trkpt>
      <trkpt lat="37.26327" lon="-3.08153">
        <ele>1070.537322</ele>
        <time>2022-02-24T20:11:31.062Z</time>
      </trkpt>
      <trkpt lat="37.2628" lon="-3.08309">
        <ele>1073.39573</ele>
        <time>2022-02-24T20:12:19.042Z</time>
      </trkpt>
      <trkpt lat="37.26248" lon="-3.08377">
        <ele>1074.59183</ele>
        <time>2022-02-24T20:12:36.497Z</time>
      </trkpt>
      <trkpt lat="37.26236" lon="-3.08409">
        <ele>1074.669662</ele>
        <time>2022-02-24T20:12:43.623Z</time>
      </trkpt>
      <trkpt lat="37.26225" lon="-3.08455">
        <ele>1074.547321</ele>
        <time>2022-02-24T20:12:52.352Z</time>
      </trkpt>
      <trkpt lat="37.26221" lon="-3.08494">
        <ele>1074.447504</ele>
        <time>2022-02-24T20:12:59.109Z</time>
      </trkpt>
      <trkpt lat="37.26221" lon="-3.08547">
        <ele>1074.312346</ele>
        <time>2022-02-24T20:13:08.318Z</time>
      </trkpt>
      <trkpt lat="37.2622" lon="-3.08554">
        <ele>1074.294381</ele>
        <time>2022-02-24T20:13:09.443Z</time>
      </trkpt>
      <trkpt lat="37.26224" lon="-3.08588">
        <ele>1074.205216</ele>
        <time>2022-02-24T20:13:14.978Z</time>
      </trkpt>
      <trkpt lat="37.26235" lon="-3.08608">
        <ele>1074.043109</ele>
        <time>2022-02-24T20:13:18.703Z</time>
      </trkpt>
      <trkpt lat="37.26237" lon="-3.08622">
        <ele>1073.789003</ele>
        <time>2022-02-24T20:13:20.864Z</time>
      </trkpt>
      <trkpt lat="37.26232" lon="-3.08637">
        <ele>1073.488235</ele>
        <time>2022-02-24T20:13:23.369Z</time>
      </trkpt>
      <trkpt lat="37.26216" lon="-3.08651">
        <ele>1073.047688</ele>
        <time>2022-02-24T20:13:27.016Z</time>
      </trkpt>
      <trkpt lat="37.26213" lon="-3.08651">
        <ele>1072.995515</ele>
        <time>2022-02-24T20:13:27.453Z</time>
      </trkpt>
      <trkpt lat="37.26196" lon="-3.08697">
        <ele>1072.085351</ele>
        <time>2022-02-24T20:13:35.212Z</time>
      </trkpt>
      <trkpt lat="37.26159" lon="-3.08841">
        <ele>1068.702657</ele>
        <time>2022-02-24T20:13:57.404Z</time>
      </trkpt>
      <trkpt lat="37.26157" lon="-3.08944">
        <ele>1065.215583</ele>
        <time>2022-02-24T20:14:11.294Z</time>
      </trkpt>
      <trkpt lat="37.26144" lon="-3.09011">
        <ele>1062.849547</ele>
        <time>2022-02-24T20:14:20.585Z</time>
      </trkpt>
      <trkpt lat="37.26004" lon="-3.09379">
        <ele>1043.806524</ele>
        <time>2022-02-24T20:15:13.265Z</time>
      </trkpt>
      <trkpt lat="37.25946" lon="-3.0948">
        <ele>1037.311186</ele>
        <time>2022-02-24T20:15:28.700Z</time>
      </trkpt>
      <trkpt lat="37.2594" lon="-3.09502">
        <ele>1036.00458</ele>
        <time>2022-02-24T20:15:31.616Z</time>
      </trkpt>
      <trkpt lat="37.25921" lon="-3.09588">
        <ele>1031.15646</ele>
        <time>2022-02-24T20:15:42.635Z</time>
      </trkpt>
      <trkpt lat="37.25889" lon="-3.09646">
        <ele>1028.045668</ele>
        <time>2022-02-24T20:15:51.917Z</time>
      </trkpt>
      <trkpt lat="37.25869" lon="-3.09672">
        <ele>1027.220304</ele>
        <time>2022-02-24T20:15:56.596Z</time>
      </trkpt>
      <trkpt lat="37.25851" lon="-3.09699">
        <ele>1026.419141</ele>
        <time>2022-02-24T20:16:01.456Z</time>
      </trkpt>
      <trkpt lat="37.2585" lon="-3.09704">
        <ele>1026.290032</ele>
        <time>2022-02-24T20:16:02.213Z</time>
      </trkpt>
      <trkpt lat="37.2584" lon="-3.09701">
        <ele>1025.990675</ele>
        <time>2022-02-24T20:16:04.344Z</time>
      </trkpt>
      <trkpt lat="37.25808" lon="-3.09738">
        <ele>1024.755544</ele>
        <time>2022-02-24T20:16:12.642Z</time>
      </trkpt>
      <trkpt lat="37.25777" lon="-3.09778">
        <ele>1023.466417</ele>
        <time>2022-02-24T20:16:22.651Z</time>
      </trkpt>
      <trkpt lat="37.25766" lon="-3.09781">
        <ele>1023.241654</ele>
        <time>2022-02-24T20:16:25.073Z</time>
      </trkpt>
      <trkpt lat="37.25761" lon="-3.09779">
        <ele>1023.145941</ele>
        <time>2022-02-24T20:16:26.308Z</time>
      </trkpt>
      <trkpt lat="37.25731" lon="-3.09771">
        <ele>1022.578539</ele>
        <time>2022-02-24T20:16:33.181Z</time>
      </trkpt>
      <trkpt lat="37.25709" lon="-3.0974">
        <ele>1021.966022</ele>
        <time>2022-02-24T20:16:40.525Z</time>
      </trkpt>
      <trkpt lat="37.25691" lon="-3.09745">
        <ele>1021.631799</ele>
        <time>2022-02-24T20:16:43.950Z</time>
      </trkpt>
      <trkpt lat="37.25687" lon="-3.09745">
        <ele>1021.548593</ele>
        <time>2022-02-24T20:16:45.004Z</time>
      </trkpt>
      <trkpt lat="37.25677" lon="-3.0972">
        <ele>1021.138826</ele>
        <time>2022-02-24T20:16:49.159Z</time>
      </trkpt>
      <trkpt lat="37.25647" lon="-3.09726">
        <ele>1020.57334</ele>
        <time>2022-02-24T20:16:54.654Z</time>
      </trkpt>
      <trkpt lat="37.25649" lon="-3.09742">
        <ele>1020.344027</ele>
        <time>2022-02-24T20:16:56.718Z</time>
      </trkpt>
      <trkpt lat="37.2563" lon="-3.09761">
        <ele>1019.7133</ele>
        <time>2022-02-24T20:17:01.215Z</time>
      </trkpt>
      <trkpt lat="37.25605" lon="-3.09761">
        <ele>1018.853507</ele>
        <time>2022-02-24T20:17:05.544Z</time>
      </trkpt>
      <trkpt lat="37.2559" lon="-3.09756">
        <ele>1018.306989</ele>
        <time>2022-02-24T20:17:08.260Z</time>
      </trkpt>
      <trkpt lat="37.25564" lon="-3.0975">
        <ele>1017.414637</ele>
        <time>2022-02-24T20:17:12.732Z</time>
      </trkpt>
      <trkpt lat="37.25557" lon="-3.09759">
        <ele>1017.077466</ele>
        <time>2022-02-24T20:17:14.406Z</time>
      </trkpt>
      <trkpt lat="37.2555" lon="-3.09772">
        <ele>1016.645609</ele>
        <time>2022-02-24T20:17:16.504Z</time>
      </trkpt>
      <trkpt lat="37.25526" lon="-3.09793">
        <ele>1015.624007</ele>
        <time>2022-02-24T20:17:21.587Z</time>
      </trkpt>
      <trkpt lat="37.25479" lon="-3.09767">
        <ele>1013.952487</ele>
        <time>2022-02-24T20:17:30.544Z</time>
      </trkpt>
      <trkpt lat="37.2547" lon="-3.09762">
        <ele>1013.956233</ele>
        <time>2022-02-24T20:17:32.423Z</time>
      </trkpt>
      <trkpt lat="37.25433" lon="-3.09741">
        <ele>1013.971058</ele>
        <time>2022-02-24T20:17:40.375Z</time>
      </trkpt>
      <trkpt lat="37.25342" lon="-3.09689">
        <ele>1014.007924</ele>
        <time>2022-02-24T20:18:07.018Z</time>
      </trkpt>
      <trkpt lat="37.25268" lon="-3.09648">
        <ele>1014.713888</ele>
        <time>2022-02-24T20:18:29.763Z</time>
      </trkpt>
      <trkpt lat="37.25181" lon="-3.09599">
        <ele>1015.94205</ele>
        <time>2022-02-24T20:18:55.440Z</time>
      </trkpt>
      <trkpt lat="37.24804" lon="-3.09386">
        <ele>1025.315219</ele>
        <time>2022-02-24T20:21:14.706Z</time>
      </trkpt>
      <trkpt lat="37.24373" lon="-3.09216">
        <ele>1039.508742</ele>
        <time>2022-02-24T20:24:08.583Z</time>
      </trkpt>
      <trkpt lat="37.23717" lon="-3.08955">
        <ele>1059.53983</ele>
        <time>2022-02-24T20:28:18.669Z</time>
      </trkpt>
      <trkpt lat="37.23673" lon="-3.08918">
        <ele>1061.358862</ele>
        <time>2022-02-24T20:28:39.378Z</time>
      </trkpt>
      <trkpt lat="37.23297" lon="-3.08541">
        <ele>1081.717274</ele>
        <time>2022-02-24T20:32:16.381Z</time>
      </trkpt>
      <trkpt lat="37.2325" lon="-3.08501">
        <ele>1083.535896</ele>
        <time>2022-02-24T20:32:36.365Z</time>
      </trkpt>
      <trkpt lat="37.23139" lon="-3.08434">
        <ele>1086.19438</ele>
        <time>2022-02-24T20:33:13.499Z</time>
      </trkpt>
      <trkpt lat="37.23116" lon="-3.08412">
        <ele>1086.653942</ele>
        <time>2022-02-24T20:33:22.272Z</time>
      </trkpt>
      <trkpt lat="37.23104" lon="-3.08394">
        <ele>1086.950571</ele>
        <time>2022-02-24T20:33:27.837Z</time>
      </trkpt>
      <trkpt lat="37.23088" lon="-3.08352">
        <ele>1087.525575</ele>
        <time>2022-02-24T20:33:38.777Z</time>
      </trkpt>
      <trkpt lat="37.23084" lon="-3.08325">
        <ele>1087.855474</ele>
        <time>2022-02-24T20:33:45.452Z</time>
      </trkpt>
      <trkpt lat="37.23034" lon="-3.08299">
        <ele>1088.525173</ele>
        <time>2022-02-24T20:34:02.157Z</time>
      </trkpt>
      <trkpt lat="37.22984" lon="-3.08289">
        <ele>1089.136495</ele>
        <time>2022-02-24T20:34:16.939Z</time>
      </trkpt>
      <trkpt lat="37.22919" lon="-3.0826">
        <ele>1089.992184</ele>
        <time>2022-02-24T20:34:37.132Z</time>
      </trkpt>
      <trkpt lat="37.22815" lon="-3.0823">
        <ele>1090.453435</ele>
        <time>2022-02-24T20:35:03.847Z</time>
      </trkpt>
      <trkpt lat="37.22786" lon="-3.08231">
        <ele>1090.581837</ele>
        <time>2022-02-24T20:35:11.093Z</time>
      </trkpt>
      <trkpt lat="37.22743" lon="-3.08233">
        <ele>1090.766632</ele>
        <time>2022-02-24T20:35:21.313Z</time>
      </trkpt>
      <trkpt lat="37.22617" lon="-3.0813">
        <ele>1091.491631</ele>
        <time>2022-02-24T20:35:59.155Z</time>
      </trkpt>
      <trkpt lat="37.22559" lon="-3.08096">
        <ele>1091.957156</ele>
        <time>2022-02-24T20:36:16.491Z</time>
      </trkpt>
      <trkpt lat="37.22492" lon="-3.08045">
        <ele>1092.726459</ele>
        <time>2022-02-24T20:36:38.680Z</time>
      </trkpt>
      <trkpt lat="37.21395" lon="-3.07153">
        <ele>1107.718486</ele>
        <time>2022-02-24T20:42:56.974Z</time>
      </trkpt>
      <trkpt lat="37.21307" lon="-3.07059">
        <ele>1108.91413</ele>
        <time>2022-02-24T20:43:30.229Z</time>
      </trkpt>
      <trkpt lat="37.21227" lon="-3.06993">
        <ele>1109.842617</ele>
        <time>2022-02-24T20:43:56.661Z</time>
      </trkpt>
      <trkpt lat="37.21212" lon="-3.06981">
        <ele>1109.944739</ele>
        <time>2022-02-24T20:44:01.326Z</time>
      </trkpt>
      <trkpt lat="37.21151" lon="-3.06904">
        <ele>1110.4553</ele>
        <time>2022-02-24T20:44:24.457Z</time>
      </trkpt>
      <trkpt lat="37.2111" lon="-3.06828">
        <ele>1110.856811</ele>
        <time>2022-02-24T20:44:42.928Z</time>
      </trkpt>
      <trkpt lat="37.21083" lon="-3.06751">
        <ele>1110.988461</ele>
        <time>2022-02-24T20:44:59.213Z</time>
      </trkpt>
      <trkpt lat="37.21073" lon="-3.06747">
        <ele>1111.008729</ele>
        <time>2022-02-24T20:45:01.831Z</time>
      </trkpt>
      <trkpt lat="37.21029" lon="-3.06749">
        <ele>1111.097268</ele>
        <time>2022-02-24T20:45:12.614Z</time>
      </trkpt>
      <trkpt lat="37.2101" lon="-3.06743">
        <ele>1111.135493</ele>
        <time>2022-02-24T20:45:17.052Z</time>
      </trkpt>
      <trkpt lat="37.20976" lon="-3.0672">
        <ele>1111.19476</ele>
        <time>2022-02-24T20:45:25.945Z</time>
      </trkpt>
      <trkpt lat="37.20973" lon="-3.06707">
        <ele>1111.192249</ele>
        <time>2022-02-24T20:45:28.817Z</time>
      </trkpt>
      <trkpt lat="37.20983" lon="-3.06696">
        <ele>1111.189358</ele>
        <time>2022-02-24T20:45:31.697Z</time>
      </trkpt>
      <trkpt lat="37.21008" lon="-3.06708">
        <ele>1111.18333</ele>
        <time>2022-02-24T20:45:38.128Z</time>
      </trkpt>
      <trkpt lat="37.21031" lon="-3.06707">
        <ele>1111.178382</ele>
        <time>2022-02-24T20:45:43.232Z</time>
      </trkpt>
      <trkpt lat="37.21058" lon="-3.06699">
        <ele>1111.172197</ele>
        <time>2022-02-24T20:45:49.595Z</time>
      </trkpt>
      <trkpt lat="37.21069" lon="-3.06685">
        <ele>1111.168849</ele>
        <time>2022-02-24T20:45:53.280Z</time>
      </trkpt>
      <trkpt lat="37.21049" lon="-3.06593">
        <ele>1111.193794</ele>
        <time>2022-02-24T20:46:10.590Z</time>
      </trkpt>
      <trkpt lat="37.20989" lon="-3.06362">
        <ele>1111.762932</ele>
        <time>2022-02-24T20:46:57.909Z</time>
      </trkpt>
      <trkpt lat="37.20789" lon="-3.05382">
        <ele>1118.543625</ele>
        <time>2022-02-24T20:50:38.048Z</time>
      </trkpt>
      <trkpt lat="37.20773" lon="-3.05358">
        <ele>1118.801825</ele>
        <time>2022-02-24T20:50:45.310Z</time>
      </trkpt>
      <trkpt lat="37.20777" lon="-3.05319">
        <ele>1119.127196</ele>
        <time>2022-02-24T20:50:54.696Z</time>
      </trkpt>
      <trkpt lat="37.2072" lon="-3.05066">
        <ele>1122.327437</ele>
        <time>2022-02-24T20:52:01.293Z</time>
      </trkpt>
      <trkpt lat="37.20619" lon="-3.04972">
        <ele>1123.556212</ele>
        <time>2022-02-24T20:52:36.839Z</time>
      </trkpt>
      <trkpt lat="37.20613" lon="-3.04959">
        <ele>1123.675268</ele>
        <time>2022-02-24T20:52:39.979Z</time>
      </trkpt>
      <trkpt lat="37.20573" lon="-3.04762">
        <ele>1124.285694</ele>
        <time>2022-02-24T20:53:18.220Z</time>
      </trkpt>
      <trkpt lat="37.20581" lon="-3.0475">
        <ele>1124.326028</ele>
        <time>2022-02-24T20:53:21.422Z</time>
      </trkpt>
      <trkpt lat="37.20625" lon="-3.0474">
        <ele>1124.762198</ele>
        <time>2022-02-24T20:53:33.351Z</time>
      </trkpt>
      <trkpt lat="37.20633" lon="-3.04733">
        <ele>1124.90229</ele>
        <time>2022-02-24T20:53:36.042Z</time>
      </trkpt>
      <trkpt lat="37.2064" lon="-3.04698">
        <ele>1125.341915</ele>
        <time>2022-02-24T20:53:44.232Z</time>
      </trkpt>
      <trkpt lat="37.20629" lon="-3.04673">
        <ele>1125.682865</ele>
        <time>2022-02-24T20:53:52.645Z</time>
      </trkpt>
      <trkpt lat="37.20605" lon="-3.04648">
        <ele>1126.147815</ele>
        <time>2022-02-24T20:54:04.198Z</time>
      </trkpt>
      <trkpt lat="37.2058" lon="-3.04634">
        <ele>1126.564209</ele>
        <time>2022-02-24T20:54:14.821Z</time>
      </trkpt>
      <trkpt lat="37.20555" lon="-3.04645">
        <ele>1126.973331</ele>
        <time>2022-02-24T20:54:25.503Z</time>
      </trkpt>
      <trkpt lat="37.2055" lon="-3.04642">
        <ele>1127.05524</ele>
        <time>2022-02-24T20:54:27.781Z</time>
      </trkpt>
      <trkpt lat="37.20548" lon="-3.04629">
        <ele>1127.260224</ele>
        <time>2022-02-24T20:54:32.116Z</time>
      </trkpt>
      <trkpt lat="37.20533" lon="-3.04627">
        <ele>1127.601357</ele>
        <time>2022-02-24T20:54:37.134Z</time>
      </trkpt>
      <trkpt lat="37.20506" lon="-3.04631">
        <ele>1128.231179</ele>
        <time>2022-02-24T20:54:47.120Z</time>
      </trkpt>
      <trkpt lat="37.20346" lon="-3.04762">
        <ele>1131.969727</ele>
        <time>2022-02-24T20:55:50.734Z</time>
      </trkpt>
      <trkpt lat="37.20327" lon="-3.04778">
        <ele>1132.256616</ele>
        <time>2022-02-24T20:55:57.550Z</time>
      </trkpt>
      <trkpt lat="37.20184" lon="-3.04895">
        <ele>1133.544874</ele>
        <time>2022-02-24T20:56:40.674Z</time>
      </trkpt>
      <trkpt lat="37.2019" lon="-3.04867">
        <ele>1133.569092</ele>
        <time>2022-02-24T20:56:45.825Z</time>
      </trkpt>
      <trkpt lat="37.20207" lon="-3.04831">
        <ele>1133.604543</ele>
        <time>2022-02-24T20:56:53.328Z</time>
      </trkpt>
      <trkpt lat="37.20298" lon="-3.04758">
        <ele>1133.506771</ele>
        <time>2022-02-24T20:57:17.638Z</time>
      </trkpt>
      <trkpt lat="37.2032" lon="-3.04731">
        <ele>1133.425451</ele>
        <time>2022-02-24T20:57:24.475Z</time>
      </trkpt>
      <trkpt lat="37.20342" lon="-3.0467">
        <ele>1133.28391</ele>
        <time>2022-02-24T20:57:36.409Z</time>
      </trkpt>
      <trkpt lat="37.20478" lon="-3.04036">
        <ele>1131.915235</ele>
        <time>2022-02-24T20:59:33.450Z</time>
      </trkpt>
      <trkpt lat="37.20483" lon="-3.03975">
        <ele>1131.820476</ele>
        <time>2022-02-24T20:59:44.751Z</time>
      </trkpt>
      <trkpt lat="37.20482" lon="-3.03946">
        <ele>1131.78734</ele>
        <time>2022-02-24T20:59:50.131Z</time>
      </trkpt>
      <trkpt lat="37.20467" lon="-3.03869">
        <ele>1131.708673</ele>
        <time>2022-02-24T21:00:04.775Z</time>
      </trkpt>
      <trkpt lat="37.2041" lon="-3.03649">
        <ele>1131.270213</ele>
        <time>2022-02-24T21:00:46.379Z</time>
      </trkpt>
      <trkpt lat="37.20358" lon="-3.03436">
        <ele>1130.554176</ele>
        <time>2022-02-24T21:01:25.092Z</time>
      </trkpt>
      <trkpt lat="37.20358" lon="-3.03414">
        <ele>1130.475557</ele>
        <time>2022-02-24T21:01:28.968Z</time>
      </trkpt>
      <trkpt lat="37.20374" lon="-3.03378">
        <ele>1130.332313</ele>
        <time>2022-02-24T21:01:36.042Z</time>
      </trkpt>
      <trkpt lat="37.20318" lon="-3.03079">
        <ele>1129.889535</ele>
        <time>2022-02-24T21:02:31.319Z</time>
      </trkpt>
      <trkpt lat="37.20306" lon="-3.03068">
        <ele>1129.932727</ele>
        <time>2022-02-24T21:02:35.405Z</time>
      </trkpt>
      <trkpt lat="37.20258" lon="-3.03077">
        <ele>1130.068681</ele>
        <time>2022-02-24T21:02:47.114Z</time>
      </trkpt>
      <trkpt lat="37.20216" lon="-3.03092">
        <ele>1130.193991</ele>
        <time>2022-02-24T21:02:58.094Z</time>
      </trkpt>
      <trkpt lat="37.20208" lon="-3.03086">
        <ele>1130.220935</ele>
        <time>2022-02-24T21:03:00.961Z</time>
      </trkpt>
      <trkpt lat="37.20216" lon="-3.03076">
        <ele>1130.252311</ele>
        <time>2022-02-24T21:03:03.518Z</time>
      </trkpt>
      <trkpt lat="37.20294" lon="-3.02963">
        <ele>1130.541971</ele>
        <time>2022-02-24T21:03:33.682Z</time>
      </trkpt>
      <trkpt lat="37.2001" lon="-3.01575">
        <ele>1133.20677</ele>
        <time>2022-02-24T21:08:09.879Z</time>
      </trkpt>
      <trkpt lat="37.19979" lon="-3.01436">
        <ele>1133.863735</ele>
        <time>2022-02-24T21:08:39.720Z</time>
      </trkpt>
      <trkpt lat="37.19959" lon="-3.0138">
        <ele>1134.195709</ele>
        <time>2022-02-24T21:08:52.804Z</time>
      </trkpt>
      <trkpt lat="37.199" lon="-3.01074">
        <ele>1136.344065</ele>
        <time>2022-02-24T21:10:02.065Z</time>
      </trkpt>
      <trkpt lat="37.19894" lon="-3.01004">
        <ele>1136.932172</ele>
        <time>2022-02-24T21:10:17.334Z</time>
      </trkpt>
      <trkpt lat="37.19706" lon="-3.00091">
        <ele>1144.615876</ele>
        <time>2022-02-24T21:13:52.106Z</time>
      </trkpt>
      <trkpt lat="37.19699" lon="-3.0008">
        <ele>1144.702761</ele>
        <time>2022-02-24T21:13:54.487Z</time>
      </trkpt>
      <trkpt lat="37.19686" lon="-3.00077">
        <ele>1144.813312</ele>
        <time>2022-02-24T21:13:58.084Z</time>
      </trkpt>
      <trkpt lat="37.19655" lon="-3.00081">
        <ele>1145.068242</ele>
        <time>2022-02-24T21:14:06.009Z</time>
      </trkpt>
      <trkpt lat="37.19586" lon="-3.0007">
        <ele>1145.338198</ele>
        <time>2022-02-24T21:14:23.456Z</time>
      </trkpt>
      <trkpt lat="37.19573" lon="-3.00053">
        <ele>1145.390245</ele>
        <time>2022-02-24T21:14:29.455Z</time>
      </trkpt>
      <trkpt lat="37.19581" lon="-3.00037">
        <ele>1145.432782</ele>
        <time>2022-02-24T21:14:32.684Z</time>
      </trkpt>
      <trkpt lat="37.19644" lon="-3.00045">
        <ele>1145.605601</ele>
        <time>2022-02-24T21:14:48.330Z</time>
      </trkpt>
      <trkpt lat="37.1969" lon="-3.00032">
        <ele>1145.647102</ele>
        <time>2022-02-24T21:14:58.741Z</time>
      </trkpt>
      <trkpt lat="37.19692" lon="-3.00023">
        <ele>1145.634429</ele>
        <time>2022-02-24T21:15:01.339Z</time>
      </trkpt>
      <trkpt lat="37.19569" lon="-2.99408">
        <ele>1144.871173</ele>
        <time>2022-02-24T21:16:55.634Z</time>
      </trkpt>
      <trkpt lat="37.19447" lon="-2.98847">
        <ele>1145.7114</ele>
        <time>2022-02-24T21:18:45.213Z</time>
      </trkpt>
      <trkpt lat="37.19435" lon="-2.98819">
        <ele>1145.845461</ele>
        <time>2022-02-24T21:18:52.126Z</time>
      </trkpt>
      <trkpt lat="37.19405" lon="-2.9876">
        <ele>1146.14358</ele>
        <time>2022-02-24T21:19:08.109Z</time>
      </trkpt>
      <trkpt lat="37.19352" lon="-2.98707">
        <ele>1146.817142</ele>
        <time>2022-02-24T21:19:27.803Z</time>
      </trkpt>
      <trkpt lat="37.19304" lon="-2.9869">
        <ele>1147.311723</ele>
        <time>2022-02-24T21:19:42.616Z</time>
      </trkpt>
      <trkpt lat="37.19304" lon="-2.98669">
        <ele>1147.47901</ele>
        <time>2022-02-24T21:19:47.546Z</time>
      </trkpt>
      <trkpt lat="37.19293" lon="-2.98641">
        <ele>1147.724793</ele>
        <time>2022-02-24T21:19:54.103Z</time>
      </trkpt>
      <trkpt lat="37.19303" lon="-2.98613">
        <ele>1147.947809</ele>
        <time>2022-02-24T21:20:00.543Z</time>
      </trkpt>
      <trkpt lat="37.1931" lon="-2.98607">
        <ele>1147.922315</ele>
        <time>2022-02-24T21:20:02.478Z</time>
      </trkpt>
      <trkpt lat="37.19317" lon="-2.98579">
        <ele>1147.849064</ele>
        <time>2022-02-24T21:20:09.585Z</time>
      </trkpt>
      <trkpt lat="37.19311" lon="-2.98527">
        <ele>1147.723493</ele>
        <time>2022-02-24T21:20:21.649Z</time>
      </trkpt>
      <trkpt lat="37.19315" lon="-2.98506">
        <ele>1147.671402</ele>
        <time>2022-02-24T21:20:26.311Z</time>
      </trkpt>
      <trkpt lat="37.19302" lon="-2.98452">
        <ele>1147.534357</ele>
        <time>2022-02-24T21:20:38.991Z</time>
      </trkpt>
      <trkpt lat="37.19291" lon="-2.98441">
        <ele>1147.489914</ele>
        <time>2022-02-24T21:20:43.116Z</time>
      </trkpt>
      <trkpt lat="37.19282" lon="-2.98433">
        <ele>1147.458044</ele>
        <time>2022-02-24T21:20:45.144Z</time>
      </trkpt>
      <trkpt lat="37.19277" lon="-2.98401">
        <ele>1147.306685</ele>
        <time>2022-02-24T21:20:51.028Z</time>
      </trkpt>
      <trkpt lat="37.19347" lon="-2.9835">
        <ele>1146.447821</ele>
        <time>2022-02-24T21:21:07.289Z</time>
      </trkpt>
      <trkpt lat="37.19348" lon="-2.98344">
        <ele>1146.393174</ele>
        <time>2022-02-24T21:21:08.364Z</time>
      </trkpt>
      <trkpt lat="37.1932" lon="-2.98221">
        <ele>1145.411149</ele>
        <time>2022-02-24T21:21:29.367Z</time>
      </trkpt>
      <trkpt lat="37.19256" lon="-2.97874">
        <ele>1144.827695</ele>
        <time>2022-02-24T21:22:32.562Z</time>
      </trkpt>
      <trkpt lat="37.19064" lon="-2.96929">
        <ele>1153.616332</ele>
        <time>2022-02-24T21:26:17.682Z</time>
      </trkpt>
      <trkpt lat="37.18993" lon="-2.96598">
        <ele>1160.378369</ele>
        <time>2022-02-24T21:27:56.231Z</time>
      </trkpt>
      <trkpt lat="37.1894" lon="-2.96368">
        <ele>1165.655151</ele>
        <time>2022-02-24T21:29:05.933Z</time>
      </trkpt>
      <trkpt lat="37.18901" lon="-2.96239">
        <ele>1169.39605</ele>
        <time>2022-02-24T21:29:47.638Z</time>
      </trkpt>
      <trkpt lat="37.18866" lon="-2.96143">
        <ele>1173.205706</ele>
        <time>2022-02-24T21:30:26.258Z</time>
      </trkpt>
      <trkpt lat="37.18823" lon="-2.96054">
        <ele>1176.771812</ele>
        <time>2022-02-24T21:31:08.856Z</time>
      </trkpt>
      <trkpt lat="37.18777" lon="-2.95999">
        <ele>1179.096356</ele>
        <time>2022-02-24T21:31:41.189Z</time>
      </trkpt>
      <trkpt lat="37.18749" lon="-2.95979">
        <ele>1180.242593</ele>
        <time>2022-02-24T21:31:54.412Z</time>
      </trkpt>
      <trkpt lat="37.18717" lon="-2.95973">
        <ele>1181.431584</ele>
        <time>2022-02-24T21:32:06.360Z</time>
      </trkpt>
      <trkpt lat="37.18683" lon="-2.9592">
        <ele>1182.098225</ele>
        <time>2022-02-24T21:32:21.543Z</time>
      </trkpt>
      <trkpt lat="37.18651" lon="-2.95859">
        <ele>1180.99116</ele>
        <time>2022-02-24T21:32:33.328Z</time>
      </trkpt>
      <trkpt lat="37.18598" lon="-2.95792">
        <ele>1179.549613</ele>
        <time>2022-02-24T21:32:46.906Z</time>
      </trkpt>
      <trkpt lat="37.18593" lon="-2.95772">
        <ele>1179.236084</ele>
        <time>2022-02-24T21:32:49.633Z</time>
      </trkpt>
      <trkpt lat="37.18607" lon="-2.95713">
        <ele>1177.576535</ele>
        <time>2022-02-24T21:32:58.113Z</time>
      </trkpt>
      <trkpt lat="37.18621" lon="-2.95705">
        <ele>1177.016108</ele>
        <time>2022-02-24T21:33:00.688Z</time>
      </trkpt>
      <trkpt lat="37.1864" lon="-2.9571">
        <ele>1176.300742</ele>
        <time>2022-02-24T21:33:04.342Z</time>
      </trkpt>
      <trkpt lat="37.1866" lon="-2.95706">
        <ele>1175.556961</ele>
        <time>2022-02-24T21:33:07.810Z</time>
      </trkpt>
      <trkpt lat="37.18629" lon="-2.95673">
        <ele>1174.04063</ele>
        <time>2022-02-24T21:33:15.159Z</time>
      </trkpt>
      <trkpt lat="37.18583" lon="-2.95641">
        <ele>1172.291748</ele>
        <time>2022-02-24T21:33:24.363Z</time>
      </trkpt>
      <trkpt lat="37.18579" lon="-2.95633">
        <ele>1172.118574</ele>
        <time>2022-02-24T21:33:25.630Z</time>
      </trkpt>
      <trkpt lat="37.18572" lon="-2.95604">
        <ele>1171.574943</ele>
        <time>2022-02-24T21:33:29.925Z</time>
      </trkpt>
      <trkpt lat="37.18566" lon="-2.95598">
        <ele>1171.409868</ele>
        <time>2022-02-24T21:33:31.130Z</time>
      </trkpt>
      <trkpt lat="37.18558" lon="-2.95572">
        <ele>1170.905332</ele>
        <time>2022-02-24T21:33:34.872Z</time>
      </trkpt>
      <trkpt lat="37.18567" lon="-2.95547">
        <ele>1170.418864</ele>
        <time>2022-02-24T21:33:38.744Z</time>
      </trkpt>
      <trkpt lat="37.18566" lon="-2.95542">
        <ele>1170.322206</ele>
        <time>2022-02-24T21:33:39.555Z</time>
      </trkpt>
      <trkpt lat="37.18558" lon="-2.95529">
        <ele>1170.038504</ele>
        <time>2022-02-24T21:33:42.024Z</time>
      </trkpt>
      <trkpt lat="37.18551" lon="-2.95482">
        <ele>1169.192778</ele>
        <time>2022-02-24T21:33:49.090Z</time>
      </trkpt>
      <trkpt lat="37.18537" lon="-2.95449">
        <ele>1168.521774</ele>
        <time>2022-02-24T21:33:54.769Z</time>
      </trkpt>
      <trkpt lat="37.1836" lon="-2.9529">
        <ele>1169.73442</ele>
        <time>2022-02-24T21:34:51.101Z</time>
      </trkpt>
      <trkpt lat="37.18341" lon="-2.95281">
        <ele>1169.96607</ele>
        <time>2022-02-24T21:34:57.305Z</time>
      </trkpt>
      <trkpt lat="37.18248" lon="-2.95259">
        <ele>1171.019175</ele>
        <time>2022-02-24T21:35:24.663Z</time>
      </trkpt>
      <trkpt lat="37.18169" lon="-2.95212">
        <ele>1171.510368</ele>
        <time>2022-02-24T21:35:48.563Z</time>
      </trkpt>
      <trkpt lat="37.17914" lon="-2.95108">
        <ele>1170.303277</ele>
        <time>2022-02-24T21:36:47.255Z</time>
      </trkpt>
      <trkpt lat="37.17876" lon="-2.95099">
        <ele>1169.721392</ele>
        <time>2022-02-24T21:36:53.607Z</time>
      </trkpt>
      <trkpt lat="37.17875" lon="-2.95103">
        <ele>1169.590612</ele>
        <time>2022-02-24T21:36:54.124Z</time>
      </trkpt>
      <trkpt lat="37.17871" lon="-2.95105">
        <ele>1169.395344</ele>
        <time>2022-02-24T21:36:54.853Z</time>
      </trkpt>
      <trkpt lat="37.17867" lon="-2.95099">
        <ele>1169.144777</ele>
        <time>2022-02-24T21:36:55.811Z</time>
      </trkpt>
      <trkpt lat="37.17858" lon="-2.95101">
        <ele>1168.750234</ele>
        <time>2022-02-24T21:36:57.307Z</time>
      </trkpt>
      <trkpt lat="37.17837" lon="-2.95037">
        <ele>1166.372935</ele>
        <time>2022-02-24T21:37:06.445Z</time>
      </trkpt>
      <trkpt lat="37.17807" lon="-2.94999">
        <ele>1164.559842</ele>
        <time>2022-02-24T21:37:13.274Z</time>
      </trkpt>
      <trkpt lat="37.17769" lon="-2.94969">
        <ele>1162.631362</ele>
        <time>2022-02-24T21:37:20.708Z</time>
      </trkpt>
      <trkpt lat="37.17768" lon="-2.94967">
        <ele>1162.530985</ele>
        <time>2022-02-24T21:37:21.091Z</time>
      </trkpt>
      <trkpt lat="37.17723" lon="-2.94907">
        <ele>1163.210734</ele>
        <time>2022-02-24T21:37:33.957Z</time>
      </trkpt>
      <trkpt lat="37.17717" lon="-2.94906">
        <ele>1163.31186</ele>
        <time>2022-02-24T21:37:35.048Z</time>
      </trkpt>
      <trkpt lat="37.1771" lon="-2.94897">
        <ele>1163.479362</ele>
        <time>2022-02-24T21:37:37.844Z</time>
      </trkpt>
      <trkpt lat="37.17699" lon="-2.94882">
        <ele>1163.7547</ele>
        <time>2022-02-24T21:37:43.896Z</time>
      </trkpt>
      <trkpt lat="37.17693" lon="-2.94874">
        <ele>1163.914726</ele>
        <time>2022-02-24T21:37:46.475Z</time>
      </trkpt>
      <trkpt lat="37.1768" lon="-2.94861">
        <ele>1164.195039</ele>
        <time>2022-02-24T21:37:52.451Z</time>
      </trkpt>
      <trkpt lat="37.17673" lon="-2.94856">
        <ele>1164.323881</ele>
        <time>2022-02-24T21:37:55.713Z</time>
      </trkpt>
      <trkpt lat="37.17652" lon="-2.94837">
        <ele>1164.768923</ele>
        <time>2022-02-24T21:38:06.999Z</time>
      </trkpt>
      <trkpt lat="37.17647" lon="-2.94839">
        <ele>1164.850845</ele>
        <time>2022-02-24T21:38:09.503Z</time>
      </trkpt>
      <trkpt lat="37.17646" lon="-2.94838">
        <ele>1164.887146</ele>
        <time>2022-02-24T21:38:10.838Z</time>
      </trkpt>
      <trkpt lat="37.1764" lon="-2.94832">
        <ele>1165.007532</ele>
        <time>2022-02-24T21:38:15.566Z</time>
      </trkpt>
      <trkpt lat="37.17637" lon="-2.9483">
        <ele>1165.061875</ele>
        <time>2022-02-24T21:38:17.797Z</time>
      </trkpt>
      <trkpt lat="37.17632" lon="-2.94838">
        <ele>1165.198145</ele>
        <time>2022-02-24T21:38:21.617Z</time>
      </trkpt>
      <trkpt lat="37.17611" lon="-2.94811">
        <ele>1166.895087</ele>
        <time>2022-02-24T21:38:40.208Z</time>
      </trkpt>
      <trkpt lat="37.17616" lon="-2.94804">
        <ele>1167.385666</ele>
        <time>2022-02-24T21:38:43.943Z</time>
      </trkpt>
      <trkpt lat="37.17612" lon="-2.94779">
        <ele>1168.663056</ele>
        <time>2022-02-24T21:38:56.510Z</time>
      </trkpt>
      <trkpt lat="37.17603" lon="-2.94768">
        <ele>1169.445957</ele>
        <time>2022-02-24T21:39:04.695Z</time>
      </trkpt>
      <trkpt lat="37.17559" lon="-2.94731">
        <ele>1172.744159</ele>
        <time>2022-02-24T21:39:35.629Z</time>
      </trkpt>
      <trkpt lat="37.17549" lon="-2.94715">
        <ele>1173.805102</ele>
        <time>2022-02-24T21:39:46.187Z</time>
      </trkpt>
      <trkpt lat="37.17546" lon="-2.947">
        <ele>1174.554932</ele>
        <time>2022-02-24T21:39:51.605Z</time>
      </trkpt>
      <trkpt lat="37.17536" lon="-2.94668">
        <ele>1176.287653</ele>
        <time>2022-02-24T21:40:06.012Z</time>
      </trkpt>
      <trkpt lat="37.17528" lon="-2.94615">
        <ele>1176.834714</ele>
        <time>2022-02-24T21:40:23.584Z</time>
      </trkpt>
      <trkpt lat="37.1751" lon="-2.94555">
        <ele>1177.176936</ele>
        <time>2022-02-24T21:40:47.852Z</time>
      </trkpt>
      <trkpt lat="37.17505" lon="-2.94512">
        <ele>1177.404811</ele>
        <time>2022-02-24T21:41:00.352Z</time>
      </trkpt>
      <trkpt lat="37.1747" lon="-2.94486">
        <ele>1177.675059</ele>
        <time>2022-02-24T21:41:13.693Z</time>
      </trkpt>
      <trkpt lat="37.17473" lon="-2.94463">
        <ele>1177.633436</ele>
        <time>2022-02-24T21:41:19.140Z</time>
      </trkpt>
      <trkpt lat="37.17493" lon="-2.94432">
        <ele>1175.977052</ele>
        <time>2022-02-24T21:41:28.782Z</time>
      </trkpt>
      <trkpt lat="37.17498" lon="-2.94405">
        <ele>1174.844058</ele>
        <time>2022-02-24T21:41:35.320Z</time>
      </trkpt>
      <trkpt lat="37.17505" lon="-2.94322">
        <ele>1171.362228</ele>
        <time>2022-02-24T21:41:54.139Z</time>
      </trkpt>
      <trkpt lat="37.17564" lon="-2.94167">
        <ele>1163.288668</ele>
        <time>2022-02-24T21:42:31.627Z</time>
      </trkpt>
      <trkpt lat="37.17636" lon="-2.94049">
        <ele>1155.909394</ele>
        <time>2022-02-24T21:43:04.589Z</time>
      </trkpt>
      <trkpt lat="37.177" lon="-2.93921">
        <ele>1149.623271</ele>
        <time>2022-02-24T21:43:38.908Z</time>
      </trkpt>
      <trkpt lat="37.17699" lon="-2.93913">
        <ele>1149.312245</ele>
        <time>2022-02-24T21:43:40.504Z</time>
      </trkpt>
      <trkpt lat="37.17693" lon="-2.93906">
        <ele>1148.87908</ele>
        <time>2022-02-24T21:43:41.882Z</time>
      </trkpt>
      <trkpt lat="37.17695" lon="-2.93898">
        <ele>1148.550471</ele>
        <time>2022-02-24T21:43:42.923Z</time>
      </trkpt>
      <trkpt lat="37.17718" lon="-2.9384">
        <ele>1146.776883</ele>
        <time>2022-02-24T21:43:51.519Z</time>
      </trkpt>
      <trkpt lat="37.1772" lon="-2.93835">
        <ele>1146.653417</ele>
        <time>2022-02-24T21:43:52.306Z</time>
      </trkpt>
      <trkpt lat="37.17688" lon="-2.9382">
        <ele>1145.843403</ele>
        <time>2022-02-24T21:43:58.255Z</time>
      </trkpt>
      <trkpt lat="37.17642" lon="-2.93791">
        <ele>1144.629183</ele>
        <time>2022-02-24T21:44:07.427Z</time>
      </trkpt>
      <trkpt lat="37.17624" lon="-2.93771">
        <ele>1144.078039</ele>
        <time>2022-02-24T21:44:12.047Z</time>
      </trkpt>
      <trkpt lat="37.17606" lon="-2.93743">
        <ele>1143.403016</ele>
        <time>2022-02-24T21:44:18.132Z</time>
      </trkpt>
      <trkpt lat="37.17569" lon="-2.93702">
        <ele>1143.461985</ele>
        <time>2022-02-24T21:44:30.090Z</time>
      </trkpt>
      <trkpt lat="37.17517" lon="-2.93587">
        <ele>1143.840703</ele>
        <time>2022-02-24T21:44:56.662Z</time>
      </trkpt>
      <trkpt lat="37.17493" lon="-2.93488">
        <ele>1144.314204</ele>
        <time>2022-02-24T21:45:17.029Z</time>
      </trkpt>
      <trkpt lat="37.17481" lon="-2.93363">
        <ele>1145.011816</ele>
        <time>2022-02-24T21:45:42.947Z</time>
      </trkpt>
      <trkpt lat="37.17485" lon="-2.93248">
        <ele>1145.595652</ele>
        <time>2022-02-24T21:46:07.175Z</time>
      </trkpt>
      <trkpt lat="37.17485" lon="-2.93114">
        <ele>1146.247198</ele>
        <time>2022-02-24T21:46:34.208Z</time>
      </trkpt>
      <trkpt lat="37.17446" lon="-2.92931">
        <ele>1146.769313</ele>
        <time>2022-02-24T21:47:08.676Z</time>
      </trkpt>
      <trkpt lat="37.17336" lon="-2.92751">
        <ele>1148.340669</ele>
        <time>2022-02-24T21:47:56.519Z</time>
      </trkpt>
      <trkpt lat="37.1722" lon="-2.92585">
        <ele>1150.808269</ele>
        <time>2022-02-24T21:48:49.072Z</time>
      </trkpt>
      <trkpt lat="37.17054" lon="-2.9233">
        <ele>1154.27057</ele>
        <time>2022-02-24T21:50:07.877Z</time>
      </trkpt>
      <trkpt lat="37.17045" lon="-2.92306">
        <ele>1154.355343</ele>
        <time>2022-02-24T21:50:13.260Z</time>
      </trkpt>
      <trkpt lat="37.17008" lon="-2.92263">
        <ele>1154.555651</ele>
        <time>2022-02-24T21:50:24.992Z</time>
      </trkpt>
      <trkpt lat="37.17" lon="-2.92243">
        <ele>1154.629393</ele>
        <time>2022-02-24T21:50:29.012Z</time>
      </trkpt>
      <trkpt lat="37.17001" lon="-2.92205">
        <ele>1154.750361</ele>
        <time>2022-02-24T21:50:35.433Z</time>
      </trkpt>
      <trkpt lat="37.16991" lon="-2.92201">
        <ele>1154.791548</ele>
        <time>2022-02-24T21:50:37.649Z</time>
      </trkpt>
      <trkpt lat="37.16964" lon="-2.92191">
        <ele>1154.634647</ele>
        <time>2022-02-24T21:50:43.547Z</time>
      </trkpt>
      <trkpt lat="37.16953" lon="-2.92179">
        <ele>1154.514239</ele>
        <time>2022-02-24T21:50:46.387Z</time>
      </trkpt>
      <trkpt lat="37.16884" lon="-2.92065">
        <ele>1153.517345</ele>
        <time>2022-02-24T21:51:09.222Z</time>
      </trkpt>
      <trkpt lat="37.16869" lon="-2.92016">
        <ele>1153.063666</ele>
        <time>2022-02-24T21:51:17.636Z</time>
      </trkpt>
      <trkpt lat="37.16848" lon="-2.91982">
        <ele>1152.532838</ele>
        <time>2022-02-24T21:51:24.238Z</time>
      </trkpt>
      <trkpt lat="37.16844" lon="-2.91944">
        <ele>1152.049775</ele>
        <time>2022-02-24T21:51:30.141Z</time>
      </trkpt>
      <trkpt lat="37.16844" lon="-2.91888">
        <ele>1151.353574</ele>
        <time>2022-02-24T21:51:38.551Z</time>
      </trkpt>
      <trkpt lat="37.16867" lon="-2.91719">
        <ele>1148.429684</ele>
        <time>2022-02-24T21:52:03.566Z</time>
      </trkpt>
      <trkpt lat="37.16871" lon="-2.91586">
        <ele>1145.694251</ele>
        <time>2022-02-24T21:52:21.883Z</time>
      </trkpt>
      <trkpt lat="37.16838" lon="-2.91416">
        <ele>1141.715093</ele>
        <time>2022-02-24T21:52:46.490Z</time>
      </trkpt>
      <trkpt lat="37.16838" lon="-2.91381">
        <ele>1140.928206</ele>
        <time>2022-02-24T21:52:51.267Z</time>
      </trkpt>
      <trkpt lat="37.1685" lon="-2.91303">
        <ele>1138.666016</ele>
        <time>2022-02-24T21:53:01.906Z</time>
      </trkpt>
      <trkpt lat="37.16864" lon="-2.91262">
        <ele>1137.343876</ele>
        <time>2022-02-24T21:53:07.776Z</time>
      </trkpt>
      <trkpt lat="37.1691" lon="-2.91049">
        <ele>1131.899374</ele>
        <time>2022-02-24T21:53:37.101Z</time>
      </trkpt>
      <trkpt lat="37.16923" lon="-2.90951">
        <ele>1129.944792</ele>
        <time>2022-02-24T21:53:51.721Z</time>
      </trkpt>
      <trkpt lat="37.16936" lon="-2.90928">
        <ele>1129.56025</ele>
        <time>2022-02-24T21:53:56.327Z</time>
      </trkpt>
      <trkpt lat="37.16922" lon="-2.90855">
        <ele>1129.390786</ele>
        <time>2022-02-24T21:54:09.888Z</time>
      </trkpt>
      <trkpt lat="37.16923" lon="-2.90829">
        <ele>1129.332854</ele>
        <time>2022-02-24T21:54:14.867Z</time>
      </trkpt>
      <trkpt lat="37.16959" lon="-2.9067">
        <ele>1129.136325</ele>
        <time>2022-02-24T21:54:43.321Z</time>
      </trkpt>
      <trkpt lat="37.1696" lon="-2.90619">
        <ele>1129.196856</ele>
        <time>2022-02-24T21:54:51.711Z</time>
      </trkpt>
      <trkpt lat="37.16977" lon="-2.90597">
        <ele>1129.233321</ele>
        <time>2022-02-24T21:54:56.971Z</time>
      </trkpt>
      <trkpt lat="37.16981" lon="-2.90576">
        <ele>1129.259243</ele>
        <time>2022-02-24T21:55:00.663Z</time>
      </trkpt>
      <trkpt lat="37.16979" lon="-2.90554">
        <ele>1129.285235</ele>
        <time>2022-02-24T21:55:05.693Z</time>
      </trkpt>
      <trkpt lat="37.16967" lon="-2.90524">
        <ele>1129.325961</ele>
        <time>2022-02-24T21:55:12.773Z</time>
      </trkpt>
      <trkpt lat="37.1693" lon="-2.90468">
        <ele>1129.804886</ele>
        <time>2022-02-24T21:55:29.214Z</time>
      </trkpt>
      <trkpt lat="37.16897" lon="-2.90431">
        <ele>1130.248189</ele>
        <time>2022-02-24T21:55:41.870Z</time>
      </trkpt>
      <trkpt lat="37.16878" lon="-2.90421">
        <ele>1130.456661</ele>
        <time>2022-02-24T21:55:48.615Z</time>
      </trkpt>
      <trkpt lat="37.16862" lon="-2.90374">
        <ele>1130.868456</ele>
        <time>2022-02-24T21:55:59.847Z</time>
      </trkpt>
      <trkpt lat="37.16847" lon="-2.90294">
        <ele>1131.001048</ele>
        <time>2022-02-24T21:56:16.440Z</time>
      </trkpt>
      <trkpt lat="37.16816" lon="-2.90191">
        <ele>1130.625102</ele>
        <time>2022-02-24T21:56:34.979Z</time>
      </trkpt>
      <trkpt lat="37.16792" lon="-2.9007">
        <ele>1130.049527</ele>
        <time>2022-02-24T21:56:56.416Z</time>
      </trkpt>
      <trkpt lat="37.16787" lon="-2.89974">
        <ele>1129.454598</ele>
        <time>2022-02-24T21:57:13.223Z</time>
      </trkpt>
      <trkpt lat="37.16776" lon="-2.89976">
        <ele>1129.373379</ele>
        <time>2022-02-24T21:57:15.717Z</time>
      </trkpt>
      <trkpt lat="37.16748" lon="-2.89981">
        <ele>1129.149302</ele>
        <time>2022-02-24T21:57:21.546Z</time>
      </trkpt>
      <trkpt lat="37.1674" lon="-2.89982">
        <ele>1129.088345</ele>
        <time>2022-02-24T21:57:23.309Z</time>
      </trkpt>
      <trkpt lat="37.16727" lon="-2.89911">
        <ele>1128.094224</ele>
        <time>2022-02-24T21:57:33.950Z</time>
      </trkpt>
      <trkpt lat="37.1672" lon="-2.89833">
        <ele>1126.865985</ele>
        <time>2022-02-24T21:57:46.354Z</time>
      </trkpt>
      <trkpt lat="37.16695" lon="-2.89717">
        <ele>1124.340143</ele>
        <time>2022-02-24T21:58:03.038Z</time>
      </trkpt>
      <trkpt lat="37.16694" lon="-2.897">
        <ele>1123.698815</ele>
        <time>2022-02-24T21:58:05.455Z</time>
      </trkpt>
      <trkpt lat="37.16669" lon="-2.8965">
        <ele>1121.519289</ele>
        <time>2022-02-24T21:58:13.148Z</time>
      </trkpt>
      <trkpt lat="37.1666" lon="-2.89632">
        <ele>1120.718054</ele>
        <time>2022-02-24T21:58:15.757Z</time>
      </trkpt>
      <trkpt lat="37.16646" lon="-2.8956">
        <ele>1117.961829</ele>
        <time>2022-02-24T21:58:25.108Z</time>
      </trkpt>
      <trkpt lat="37.1665" lon="-2.89493">
        <ele>1114.695525</ele>
        <time>2022-02-24T21:58:33.280Z</time>
      </trkpt>
      <trkpt lat="37.16684" lon="-2.89385">
        <ele>1108.351454</ele>
        <time>2022-02-24T21:58:47.173Z</time>
      </trkpt>
      <trkpt lat="37.16702" lon="-2.89312">
        <ele>1104.160265</ele>
        <time>2022-02-24T21:58:56.106Z</time>
      </trkpt>
      <trkpt lat="37.16708" lon="-2.89208">
        <ele>1098.123473</ele>
        <time>2022-02-24T21:59:08.680Z</time>
      </trkpt>
      <trkpt lat="37.16697" lon="-2.89104">
        <ele>1092.125822</ele>
        <time>2022-02-24T21:59:21.042Z</time>
      </trkpt>
      <trkpt lat="37.16699" lon="-2.89045">
        <ele>1089.0087</ele>
        <time>2022-02-24T21:59:28.046Z</time>
      </trkpt>
      <trkpt lat="37.16716" lon="-2.88993">
        <ele>1086.085031</ele>
        <time>2022-02-24T21:59:34.641Z</time>
      </trkpt>
      <trkpt lat="37.16753" lon="-2.88947">
        <ele>1082.667287</ele>
        <time>2022-02-24T21:59:42.599Z</time>
      </trkpt>
      <trkpt lat="37.16798" lon="-2.88918">
        <ele>1079.689948</ele>
        <time>2022-02-24T21:59:50.466Z</time>
      </trkpt>
      <trkpt lat="37.16863" lon="-2.8891">
        <ele>1077.487273</ele>
        <time>2022-02-24T22:00:01.337Z</time>
      </trkpt>
      <trkpt lat="37.16898" lon="-2.88889">
        <ele>1076.182754</ele>
        <time>2022-02-24T22:00:08.161Z</time>
      </trkpt>
      <trkpt lat="37.16919" lon="-2.88857">
        <ele>1075.070916</ele>
        <time>2022-02-24T22:00:14.100Z</time>
      </trkpt>
      <trkpt lat="37.16944" lon="-2.88765">
        <ele>1072.619904</ele>
        <time>2022-02-24T22:00:28.005Z</time>
      </trkpt>
      <trkpt lat="37.16967" lon="-2.88716">
        <ele>1071.250161</ele>
        <time>2022-02-24T22:00:35.891Z</time>
      </trkpt>
      <trkpt lat="37.16988" lon="-2.88645">
        <ele>1069.427953</ele>
        <time>2022-02-24T22:00:46.169Z</time>
      </trkpt>
      <trkpt lat="37.1699" lon="-2.88561">
        <ele>1066.931986</ele>
        <time>2022-02-24T22:00:57.524Z</time>
      </trkpt>
      <trkpt lat="37.16939" lon="-2.88326">
        <ele>1058.325499</ele>
        <time>2022-02-24T22:01:28.863Z</time>
      </trkpt>
      <trkpt lat="37.16939" lon="-2.8825">
        <ele>1055.32709</ele>
        <time>2022-02-24T22:01:38.389Z</time>
      </trkpt>
      <trkpt lat="37.16952" lon="-2.88118">
        <ele>1050.201161</ele>
        <time>2022-02-24T22:01:55.062Z</time>
      </trkpt>
      <trkpt lat="37.16941" lon="-2.87996">
        <ele>1045.679259</ele>
        <time>2022-02-24T22:02:10.740Z</time>
      </trkpt>
      <trkpt lat="37.16941" lon="-2.87923">
        <ele>1043.119846</ele>
        <time>2022-02-24T22:02:20.220Z</time>
      </trkpt>
      <trkpt lat="37.17001" lon="-2.87609">
        <ele>1033.687368</ele>
        <time>2022-02-24T22:03:03.483Z</time>
      </trkpt>
      <trkpt lat="37.17009" lon="-2.87553">
        <ele>1032.053764</ele>
        <time>2022-02-24T22:03:11.182Z</time>
      </trkpt>
      <trkpt lat="37.17012" lon="-2.87482">
        <ele>1030.043195</ele>
        <time>2022-02-24T22:03:20.706Z</time>
      </trkpt>
      <trkpt lat="37.17002" lon="-2.87384">
        <ele>1027.36433</ele>
        <time>2022-02-24T22:03:33.679Z</time>
      </trkpt>
      <trkpt lat="37.16959" lon="-2.87229">
        <ele>1023.350262</ele>
        <time>2022-02-24T22:03:56.082Z</time>
      </trkpt>
      <trkpt lat="37.1693" lon="-2.87119">
        <ele>1021.158774</ele>
        <time>2022-02-24T22:04:12.837Z</time>
      </trkpt>
      <trkpt lat="37.16923" lon="-2.87049">
        <ele>1019.738339</ele>
        <time>2022-02-24T22:04:23.193Z</time>
      </trkpt>
      <trkpt lat="37.16929" lon="-2.86979">
        <ele>1017.96962</ele>
        <time>2022-02-24T22:04:33.686Z</time>
      </trkpt>
      <trkpt lat="37.17006" lon="-2.8657">
        <ele>1003.899721</ele>
        <time>2022-02-24T22:05:28.913Z</time>
      </trkpt>
      <trkpt lat="37.17024" lon="-2.86401">
        <ele>994.030244</ele>
        <time>2022-02-24T22:05:48.710Z</time>
      </trkpt>
      <trkpt lat="37.17013" lon="-2.86024">
        <ele>972.217572</ele>
        <time>2022-02-24T22:06:33.133Z</time>
      </trkpt>
      <trkpt lat="37.16999" lon="-2.8589">
        <ele>966.017684</ele>
        <time>2022-02-24T22:06:50.620Z</time>
      </trkpt>
      <trkpt lat="37.16988" lon="-2.85858">
        <ele>964.718591</ele>
        <time>2022-02-24T22:06:55.005Z</time>
      </trkpt>
      <trkpt lat="37.16987" lon="-2.85855">
        <ele>964.58671</ele>
        <time>2022-02-24T22:06:55.483Z</time>
      </trkpt>
      <trkpt lat="37.16929" lon="-2.8574">
        <ele>959.435943</ele>
        <time>2022-02-24T22:07:12.883Z</time>
      </trkpt>
      <trkpt lat="37.16916" lon="-2.85703">
        <ele>957.89327</ele>
        <time>2022-02-24T22:07:17.882Z</time>
      </trkpt>
      <trkpt lat="37.16914" lon="-2.85699">
        <ele>957.727125</ele>
        <time>2022-02-24T22:07:18.456Z</time>
      </trkpt>
      <trkpt lat="37.16896" lon="-2.85634">
        <ele>955.113301</ele>
        <time>2022-02-24T22:07:27.085Z</time>
      </trkpt>
      <trkpt lat="37.16888" lon="-2.85575">
        <ele>952.832743</ele>
        <time>2022-02-24T22:07:34.663Z</time>
      </trkpt>
      <trkpt lat="37.16888" lon="-2.85571">
        <ele>952.701259</ele>
        <time>2022-02-24T22:07:35.119Z</time>
      </trkpt>
      <trkpt lat="37.16878" lon="-2.85506">
        <ele>950.724864</ele>
        <time>2022-02-24T22:07:43.749Z</time>
      </trkpt>
      <trkpt lat="37.1686" lon="-2.85426">
        <ele>949.214331</ele>
        <time>2022-02-24T22:07:55.461Z</time>
      </trkpt>
      <trkpt lat="37.16765" lon="-2.85243">
        <ele>946.207762</ele>
        <time>2022-02-24T22:08:29.260Z</time>
      </trkpt>
      <trkpt lat="37.16752" lon="-2.85205">
        <ele>945.838732</ele>
        <time>2022-02-24T22:08:35.915Z</time>
      </trkpt>
      <trkpt lat="37.16735" lon="-2.85108">
        <ele>944.847657</ele>
        <time>2022-02-24T22:08:51.764Z</time>
      </trkpt>
      <trkpt lat="37.16667" lon="-2.84577">
        <ele>937.563158</ele>
        <time>2022-02-24T22:10:11.049Z</time>
      </trkpt>
      <trkpt lat="37.16662" lon="-2.84557">
        <ele>937.364827</ele>
        <time>2022-02-24T22:10:14.374Z</time>
      </trkpt>
      <trkpt lat="37.16633" lon="-2.84505">
        <ele>936.746377</ele>
        <time>2022-02-24T22:10:24.604Z</time>
      </trkpt>
      <trkpt lat="37.16526" lon="-2.84385">
        <ele>935.333719</ele>
        <time>2022-02-24T22:10:55.385Z</time>
      </trkpt>
      <trkpt lat="37.1651" lon="-2.84348">
        <ele>935.028271</ele>
        <time>2022-02-24T22:11:02.079Z</time>
      </trkpt>
      <trkpt lat="37.16498" lon="-2.84298">
        <ele>934.480377</ele>
        <time>2022-02-24T22:11:09.681Z</time>
      </trkpt>
      <trkpt lat="37.16485" lon="-2.84156">
        <ele>931.219762</ele>
        <time>2022-02-24T22:11:29.241Z</time>
      </trkpt>
      <trkpt lat="37.16484" lon="-2.84147">
        <ele>931.032553</ele>
        <time>2022-02-24T22:11:30.325Z</time>
      </trkpt>
      <trkpt lat="37.16483" lon="-2.84143">
        <ele>930.924104</ele>
        <time>2022-02-24T22:11:30.977Z</time>
      </trkpt>
      <trkpt lat="37.16472" lon="-2.8411">
        <ele>930.119923</ele>
        <time>2022-02-24T22:11:35.814Z</time>
      </trkpt>
      <trkpt lat="37.16469" lon="-2.84105">
        <ele>929.979784</ele>
        <time>2022-02-24T22:11:36.656Z</time>
      </trkpt>
      <trkpt lat="37.16454" lon="-2.84076">
        <ele>929.409859</ele>
        <time>2022-02-24T22:11:41.474Z</time>
      </trkpt>
      <trkpt lat="37.16436" lon="-2.84053">
        <ele>929.046686</ele>
        <time>2022-02-24T22:11:46.031Z</time>
      </trkpt>
      <trkpt lat="37.16395" lon="-2.84023">
        <ele>928.379589</ele>
        <time>2022-02-24T22:11:54.894Z</time>
      </trkpt>
      <trkpt lat="37.16327" lon="-2.83993">
        <ele>927.353492</ele>
        <time>2022-02-24T22:12:09.680Z</time>
      </trkpt>
      <trkpt lat="37.16285" lon="-2.83965">
        <ele>926.957943</ele>
        <time>2022-02-24T22:12:20.227Z</time>
      </trkpt>
      <trkpt lat="37.16254" lon="-2.8393">
        <ele>926.768038</ele>
        <time>2022-02-24T22:12:29.350Z</time>
      </trkpt>
      <trkpt lat="37.16233" lon="-2.83885">
        <ele>926.578394</ele>
        <time>2022-02-24T22:12:37.874Z</time>
      </trkpt>
      <trkpt lat="37.16176" lon="-2.83726">
        <ele>926.792923</ele>
        <time>2022-02-24T22:13:06.755Z</time>
      </trkpt>
      <trkpt lat="37.16163" lon="-2.83702">
        <ele>926.968767</ele>
        <time>2022-02-24T22:13:12.680Z</time>
      </trkpt>
      <trkpt lat="37.16145" lon="-2.83645">
        <ele>927.336076</ele>
        <time>2022-02-24T22:13:25.633Z</time>
      </trkpt>
      <trkpt lat="37.16119" lon="-2.83628">
        <ele>927.551551</ele>
        <time>2022-02-24T22:13:34.934Z</time>
      </trkpt>
      <trkpt lat="37.16036" lon="-2.83615">
        <ele>930.161536</ele>
        <time>2022-02-24T22:14:08.578Z</time>
      </trkpt>
      <trkpt lat="37.15961" lon="-2.83589">
        <ele>932.785211</ele>
        <time>2022-02-24T22:14:42.419Z</time>
      </trkpt>
      <trkpt lat="37.15931" lon="-2.83597">
        <ele>933.723843</ele>
        <time>2022-02-24T22:14:55.102Z</time>
      </trkpt>
      <trkpt lat="37.15928" lon="-2.83608">
        <ele>933.847058</ele>
        <time>2022-02-24T22:14:58.556Z</time>
      </trkpt>
      <trkpt lat="37.15914" lon="-2.83633">
        <ele>934.164273</ele>
        <time>2022-02-24T22:15:07.803Z</time>
      </trkpt>
      <trkpt lat="37.15899" lon="-2.83644">
        <ele>934.392494</ele>
        <time>2022-02-24T22:15:13.734Z</time>
      </trkpt>
      <trkpt lat="37.15876" lon="-2.83646">
        <ele>934.67986</ele>
        <time>2022-02-24T22:15:20.871Z</time>
      </trkpt>
      <trkpt lat="37.15862" lon="-2.8364">
        <ele>934.874963</ele>
        <time>2022-02-24T22:15:25.611Z</time>
      </trkpt>
      <trkpt lat="37.15855" lon="-2.83635">
        <ele>934.98151</ele>
        <time>2022-02-24T22:15:28.054Z</time>
      </trkpt>
      <trkpt lat="37.15843" lon="-2.83617">
        <ele>935.223887</ele>
        <time>2022-02-24T22:15:33.179Z</time>
      </trkpt>
      <trkpt lat="37.15836" lon="-2.83583">
        <ele>935.587497</ele>
        <time>2022-02-24T22:15:40.597Z</time>
      </trkpt>
      <trkpt lat="37.15824" lon="-2.83565">
        <ele>935.833674</ele>
        <time>2022-02-24T22:15:44.939Z</time>
      </trkpt>
      <trkpt lat="37.15816" lon="-2.83493">
        <ele>935.028126</ele>
        <time>2022-02-24T22:15:56.647Z</time>
      </trkpt>
      <trkpt lat="37.1577" lon="-2.83349">
        <ele>932.359113</ele>
        <time>2022-02-24T22:16:19.385Z</time>
      </trkpt>
      <trkpt lat="37.1573" lon="-2.83242">
        <ele>930.102571</ele>
        <time>2022-02-24T22:16:36.757Z</time>
      </trkpt>
      <trkpt lat="37.15705" lon="-2.8319">
        <ele>928.922895</ele>
        <time>2022-02-24T22:16:45.807Z</time>
      </trkpt>
      <trkpt lat="37.15697" lon="-2.83156">
        <ele>928.226556</ele>
        <time>2022-02-24T22:16:51.205Z</time>
      </trkpt>
      <trkpt lat="37.15598" lon="-2.82891">
        <ele>923.882168</ele>
        <time>2022-02-24T22:17:36.727Z</time>
      </trkpt>
      <trkpt lat="37.15439" lon="-2.82388">
        <ele>915.602822</ele>
        <time>2022-02-24T22:19:00.688Z</time>
      </trkpt>
      <trkpt lat="37.15399" lon="-2.82233">
        <ele>912.1917</ele>
        <time>2022-02-24T22:19:24.293Z</time>
      </trkpt>
      <trkpt lat="37.15343" lon="-2.82048">
        <ele>907.335866</ele>
        <time>2022-02-24T22:19:52.539Z</time>
      </trkpt>
      <trkpt lat="37.1533" lon="-2.81983">
        <ele>905.693468</ele>
        <time>2022-02-24T22:20:02.116Z</time>
      </trkpt>
      <trkpt lat="37.15307" lon="-2.81926">
        <ele>904.111304</ele>
        <time>2022-02-24T22:20:11.446Z</time>
      </trkpt>
      <trkpt lat="37.15301" lon="-2.81863">
        <ele>902.561145</ele>
        <time>2022-02-24T22:20:20.635Z</time>
      </trkpt>
      <trkpt lat="37.15259" lon="-2.81707">
        <ele>898.585612</ele>
        <time>2022-02-24T22:20:44.271Z</time>
      </trkpt>
      <trkpt lat="37.15251" lon="-2.81653">
        <ele>897.258518</ele>
        <time>2022-02-24T22:20:52.306Z</time>
      </trkpt>
      <trkpt lat="37.15232" lon="-2.81577">
        <ele>895.223214</ele>
        <time>2022-02-24T22:21:03.849Z</time>
      </trkpt>
      <trkpt lat="37.15223" lon="-2.81519">
        <ele>893.726658</ele>
        <time>2022-02-24T22:21:12.206Z</time>
      </trkpt>
      <trkpt lat="37.15199" lon="-2.81486">
        <ele>892.602091</ele>
        <time>2022-02-24T22:21:18.497Z</time>
      </trkpt>
      <trkpt lat="37.15196" lon="-2.81468">
        <ele>892.136242</ele>
        <time>2022-02-24T22:21:21.102Z</time>
      </trkpt>
      <trkpt lat="37.15203" lon="-2.81473">
        <ele>891.887584</ele>
        <time>2022-02-24T22:21:22.541Z</time>
      </trkpt>
      <trkpt lat="37.15207" lon="-2.81423">
        <ele>890.521892</ele>
        <time>2022-02-24T22:21:29.639Z</time>
      </trkpt>
      <trkpt lat="37.1513" lon="-2.811">
        <ele>881.103848</ele>
        <time>2022-02-24T22:22:17.006Z</time>
      </trkpt>
      <trkpt lat="37.15031" lon="-2.80767">
        <ele>871.620999</ele>
        <time>2022-02-24T22:23:07.083Z</time>
      </trkpt>
      <trkpt lat="37.14988" lon="-2.80641">
        <ele>868.885095</ele>
        <time>2022-02-24T22:23:27.516Z</time>
      </trkpt>
      <trkpt lat="37.14955" lon="-2.80567">
        <ele>867.620727</ele>
        <time>2022-02-24T22:23:41.012Z</time>
      </trkpt>
      <trkpt lat="37.14917" lon="-2.80453">
        <ele>866.165245</ele>
        <time>2022-02-24T22:24:01.139Z</time>
      </trkpt>
      <trkpt lat="37.14883" lon="-2.80368">
        <ele>864.58216</ele>
        <time>2022-02-24T22:24:16.323Z</time>
      </trkpt>
      <trkpt lat="37.14835" lon="-2.80207">
        <ele>860.806157</ele>
        <time>2022-02-24T22:24:41.055Z</time>
      </trkpt>
      <trkpt lat="37.14801" lon="-2.80034">
        <ele>856.321761</ele>
        <time>2022-02-24T22:25:05.887Z</time>
      </trkpt>
      <trkpt lat="37.14793" lon="-2.79972">
        <ele>854.869597</ele>
        <time>2022-02-24T22:25:15.067Z</time>
      </trkpt>
      <trkpt lat="37.14765" lon="-2.79886">
        <ele>854.31917</ele>
        <time>2022-02-24T22:25:30.258Z</time>
      </trkpt>
      <trkpt lat="37.14731" lon="-2.79805">
        <ele>853.780275</ele>
        <time>2022-02-24T22:25:47.634Z</time>
      </trkpt>
      <trkpt lat="37.14711" lon="-2.79778">
        <ele>853.573673</ele>
        <time>2022-02-24T22:25:54.402Z</time>
      </trkpt>
      <trkpt lat="37.14672" lon="-2.79753">
        <ele>853.633257</ele>
        <time>2022-02-24T22:26:04.279Z</time>
      </trkpt>
      <trkpt lat="37.1466" lon="-2.79732">
        <ele>853.660764</ele>
        <time>2022-02-24T22:26:08.729Z</time>
      </trkpt>
      <trkpt lat="37.14664" lon="-2.79703">
        <ele>853.692879</ele>
        <time>2022-02-24T22:26:14.224Z</time>
      </trkpt>
      <trkpt lat="37.14659" lon="-2.79676">
        <ele>853.722858</ele>
        <time>2022-02-24T22:26:19.105Z</time>
      </trkpt>
      <trkpt lat="37.14667" lon="-2.79656">
        <ele>853.746421</ele>
        <time>2022-02-24T22:26:23.108Z</time>
      </trkpt>
      <trkpt lat="37.14674" lon="-2.7965">
        <ele>853.758377</ele>
        <time>2022-02-24T22:26:25.159Z</time>
      </trkpt>
      <trkpt lat="37.14678" lon="-2.79596">
        <ele>853.804161</ele>
        <time>2022-02-24T22:26:36.889Z</time>
      </trkpt>
      <trkpt lat="37.14678" lon="-2.79587">
        <ele>853.753624</ele>
        <time>2022-02-24T22:26:39.051Z</time>
      </trkpt>
      <trkpt lat="37.14678" lon="-2.79571">
        <ele>853.667766</ele>
        <time>2022-02-24T22:26:42.635Z</time>
      </trkpt>
      <trkpt lat="37.14685" lon="-2.79492">
        <ele>853.234284</ele>
        <time>2022-02-24T22:26:57.429Z</time>
      </trkpt>
      <trkpt lat="37.14688" lon="-2.79466">
        <ele>853.093139</ele>
        <time>2022-02-24T22:27:01.766Z</time>
      </trkpt>
      <trkpt lat="37.14694" lon="-2.79422">
        <ele>852.848115</ele>
        <time>2022-02-24T22:27:08.765Z</time>
      </trkpt>
      <trkpt lat="37.14694" lon="-2.79377">
        <ele>852.60466</ele>
        <time>2022-02-24T22:27:15.364Z</time>
      </trkpt>
      <trkpt lat="37.14666" lon="-2.79165">
        <ele>847.966025</ele>
        <time>2022-02-24T22:27:44.599Z</time>
      </trkpt>
      <trkpt lat="37.14649" lon="-2.79094">
        <ele>847.683958</ele>
        <time>2022-02-24T22:27:55.534Z</time>
      </trkpt>
      <trkpt lat="37.14583" lon="-2.78937">
        <ele>847.807121</ele>
        <time>2022-02-24T22:28:33.283Z</time>
      </trkpt>
      <trkpt lat="37.14563" lon="-2.78877">
        <ele>848.182646</ele>
        <time>2022-02-24T22:28:49.467Z</time>
      </trkpt>
      <trkpt lat="37.14542" lon="-2.78814">
        <ele>848.566647</ele>
        <time>2022-02-24T22:29:04.220Z</time>
      </trkpt>
      <trkpt lat="37.14511" lon="-2.78686">
        <ele>848.769926</ele>
        <time>2022-02-24T22:29:27.958Z</time>
      </trkpt>
      <trkpt lat="37.14491" lon="-2.78561">
        <ele>848.151972</ele>
        <time>2022-02-24T22:29:48.419Z</time>
      </trkpt>
      <trkpt lat="37.14477" lon="-2.78399">
        <ele>847.771813</ele>
        <time>2022-02-24T22:30:14.869Z</time>
      </trkpt>
      <trkpt lat="37.14463" lon="-2.78172">
        <ele>848.150787</ele>
        <time>2022-02-24T22:30:59.588Z</time>
      </trkpt>
      <trkpt lat="37.14445" lon="-2.77863">
        <ele>848.372405</ele>
        <time>2022-02-24T22:32:01.958Z</time>
      </trkpt>
      <trkpt lat="37.14443" lon="-2.77842">
        <ele>848.331096</ele>
        <time>2022-02-24T22:32:04.966Z</time>
      </trkpt>
      <trkpt lat="37.14443" lon="-2.77827">
        <ele>847.773645</ele>
        <time>2022-02-24T22:32:06.911Z</time>
      </trkpt>
      <trkpt lat="37.14442" lon="-2.77803">
        <ele>846.805796</ele>
        <time>2022-02-24T22:32:10.233Z</time>
      </trkpt>
      <trkpt lat="37.14441" lon="-2.77684">
        <ele>842.153398</ele>
        <time>2022-02-24T22:32:25.253Z</time>
      </trkpt>
      <trkpt lat="37.14445" lon="-2.77541">
        <ele>835.97907</ele>
        <time>2022-02-24T22:32:42.331Z</time>
      </trkpt>
      <trkpt lat="37.14447" lon="-2.77497">
        <ele>833.908215</ele>
        <time>2022-02-24T22:32:47.697Z</time>
      </trkpt>
      <trkpt lat="37.14447" lon="-2.77489">
        <ele>833.503244</ele>
        <time>2022-02-24T22:32:48.753Z</time>
      </trkpt>
      <trkpt lat="37.14448" lon="-2.77476">
        <ele>832.88045</ele>
        <time>2022-02-24T22:32:50.398Z</time>
      </trkpt>
      <trkpt lat="37.14451" lon="-2.77427">
        <ele>830.606739</ele>
        <time>2022-02-24T22:32:56.433Z</time>
      </trkpt>
      <trkpt lat="37.14452" lon="-2.77424">
        <ele>830.451495</ele>
        <time>2022-02-24T22:32:56.852Z</time>
      </trkpt>
      <trkpt lat="37.14452" lon="-2.77419">
        <ele>830.211094</ele>
        <time>2022-02-24T22:32:57.489Z</time>
      </trkpt>
      <trkpt lat="37.14453" lon="-2.77396">
        <ele>829.145913</ele>
        <time>2022-02-24T22:33:00.365Z</time>
      </trkpt>
      <trkpt lat="37.14455" lon="-2.77364">
        <ele>828.101103</ele>
        <time>2022-02-24T22:33:04.489Z</time>
      </trkpt>
      <trkpt lat="37.14458" lon="-2.77309">
        <ele>826.450641</ele>
        <time>2022-02-24T22:33:11.759Z</time>
      </trkpt>
      <trkpt lat="37.14459" lon="-2.77297">
        <ele>826.087317</ele>
        <time>2022-02-24T22:33:13.403Z</time>
      </trkpt>
      <trkpt lat="37.14463" lon="-2.77236">
        <ele>824.288199</ele>
        <time>2022-02-24T22:33:21.607Z</time>
      </trkpt>
      <trkpt lat="37.14463" lon="-2.7722">
        <ele>823.794609</ele>
        <time>2022-02-24T22:33:23.898Z</time>
      </trkpt>
      <trkpt lat="37.14474" lon="-2.77116">
        <ele>820.683523</ele>
        <time>2022-02-24T22:33:38.273Z</time>
      </trkpt>
      <trkpt lat="37.14499" lon="-2.77029">
        <ele>817.9502</ele>
        <time>2022-02-24T22:33:50.599Z</time>
      </trkpt>
      <trkpt lat="37.14519" lon="-2.76977">
        <ele>816.224448</ele>
        <time>2022-02-24T22:33:58.209Z</time>
      </trkpt>
      <trkpt lat="37.14569" lon="-2.76888">
        <ele>812.813415</ele>
        <time>2022-02-24T22:34:12.218Z</time>
      </trkpt>
      <trkpt lat="37.14755" lon="-2.76581">
        <ele>801.532526</ele>
        <time>2022-02-24T22:35:03.441Z</time>
      </trkpt>
      <trkpt lat="37.148" lon="-2.76523">
        <ele>800.060409</ele>
        <time>2022-02-24T22:35:15.086Z</time>
      </trkpt>
      <trkpt lat="37.14944" lon="-2.76364">
        <ele>795.497668</ele>
        <time>2022-02-24T22:35:50.699Z</time>
      </trkpt>
      <trkpt lat="37.14971" lon="-2.76335">
        <ele>794.621454</ele>
        <time>2022-02-24T22:35:56.862Z</time>
      </trkpt>
      <trkpt lat="37.15004" lon="-2.76295">
        <ele>793.495083</ele>
        <time>2022-02-24T22:36:04.702Z</time>
      </trkpt>
      <trkpt lat="37.1503" lon="-2.76249">
        <ele>791.699424</ele>
        <time>2022-02-24T22:36:12.429Z</time>
      </trkpt>
      <trkpt lat="37.15041" lon="-2.76231">
        <ele>790.943918</ele>
        <time>2022-02-24T22:36:15.301Z</time>
      </trkpt>
      <trkpt lat="37.15075" lon="-2.76155">
        <ele>787.973934</ele>
        <time>2022-02-24T22:36:26.555Z</time>
      </trkpt>
      <trkpt lat="37.15098" lon="-2.76091">
        <ele>785.611806</ele>
        <time>2022-02-24T22:36:35.527Z</time>
      </trkpt>
      <trkpt lat="37.15115" lon="-2.76041">
        <ele>783.922437</ele>
        <time>2022-02-24T22:36:42.426Z</time>
      </trkpt>
      <trkpt lat="37.15128" lon="-2.75982">
        <ele>782.014642</ele>
        <time>2022-02-24T22:36:50.461Z</time>
      </trkpt>
      <trkpt lat="37.15138" lon="-2.75875">
        <ele>778.662483</ele>
        <time>2022-02-24T22:37:04.767Z</time>
      </trkpt>
      <trkpt lat="37.15121" lon="-2.75743">
        <ele>777.453864</ele>
        <time>2022-02-24T22:37:24.501Z</time>
      </trkpt>
      <trkpt lat="37.15121" lon="-2.75702">
        <ele>777.083188</ele>
        <time>2022-02-24T22:37:31.385Z</time>
      </trkpt>
      <trkpt lat="37.15129" lon="-2.75673">
        <ele>776.810501</ele>
        <time>2022-02-24T22:37:36.990Z</time>
      </trkpt>
      <trkpt lat="37.15161" lon="-2.75608">
        <ele>777.120128</ele>
        <time>2022-02-24T22:37:53.768Z</time>
      </trkpt>
      <trkpt lat="37.1517" lon="-2.75584">
        <ele>777.356054</ele>
        <time>2022-02-24T22:38:00.459Z</time>
      </trkpt>
      <trkpt lat="37.15173" lon="-2.75554">
        <ele>777.628143</ele>
        <time>2022-02-24T22:38:08.553Z</time>
      </trkpt>
      <trkpt lat="37.15169" lon="-2.75521">
        <ele>777.929562</ele>
        <time>2022-02-24T22:38:17.036Z</time>
      </trkpt>
      <trkpt lat="37.15155" lon="-2.75482">
        <ele>778.313277</ele>
        <time>2022-02-24T22:38:28.082Z</time>
      </trkpt>
      <trkpt lat="37.15105" lon="-2.75398">
        <ele>778.53027</ele>
        <time>2022-02-24T22:38:46.185Z</time>
      </trkpt>
      <trkpt lat="37.15092" lon="-2.75375">
        <ele>778.481085</ele>
        <time>2022-02-24T22:38:50.219Z</time>
      </trkpt>
      <trkpt lat="37.15072" lon="-2.75356">
        <ele>778.423782</ele>
        <time>2022-02-24T22:38:55.545Z</time>
      </trkpt>
      <trkpt lat="37.15048" lon="-2.75352">
        <ele>778.370329</ele>
        <time>2022-02-24T22:39:02.506Z</time>
      </trkpt>
      <trkpt lat="37.15026" lon="-2.75363">
        <ele>778.318696</ele>
        <time>2022-02-24T22:39:07.558Z</time>
      </trkpt>
      <trkpt lat="37.15021" lon="-2.75368">
        <ele>778.30333</ele>
        <time>2022-02-24T22:39:09.432Z</time>
      </trkpt>
      <trkpt lat="37.14955" lon="-2.75437">
        <ele>777.578081</ele>
        <time>2022-02-24T22:39:27.022Z</time>
      </trkpt>
      <trkpt lat="37.14942" lon="-2.75448">
        <ele>777.40762</ele>
        <time>2022-02-24T22:39:29.909Z</time>
      </trkpt>
      <trkpt lat="37.14922" lon="-2.7545">
        <ele>777.188387</ele>
        <time>2022-02-24T22:39:33.745Z</time>
      </trkpt>
      <trkpt lat="37.14902" lon="-2.75441">
        <ele>776.955253</ele>
        <time>2022-02-24T22:39:37.590Z</time>
      </trkpt>
      <trkpt lat="37.14864" lon="-2.75386">
        <ele>776.323866</ele>
        <time>2022-02-24T22:39:49.815Z</time>
      </trkpt>
      <trkpt lat="37.1484" lon="-2.75366">
        <ele>775.494206</ele>
        <time>2022-02-24T22:39:55.618Z</time>
      </trkpt>
      <trkpt lat="37.14529" lon="-2.7522">
        <ele>764.42691</ele>
        <time>2022-02-24T22:40:50.859Z</time>
      </trkpt>
      <trkpt lat="37.14476" lon="-2.752">
        <ele>764.111808</ele>
        <time>2022-02-24T22:41:01.049Z</time>
      </trkpt>
      <trkpt lat="37.14396" lon="-2.75148">
        <ele>763.71413</ele>
        <time>2022-02-24T22:41:20.828Z</time>
      </trkpt>
      <trkpt lat="37.14365" lon="-2.75122">
        <ele>763.560424</ele>
        <time>2022-02-24T22:41:32.930Z</time>
      </trkpt>
      <trkpt lat="37.14326" lon="-2.75075">
        <ele>763.999657</ele>
        <time>2022-02-24T22:41:48.795Z</time>
      </trkpt>
      <trkpt lat="37.14283" lon="-2.74989">
        <ele>764.661137</ele>
        <time>2022-02-24T22:42:12.169Z</time>
      </trkpt>
      <trkpt lat="37.14217" lon="-2.74817">
        <ele>763.147954</ele>
        <time>2022-02-24T22:42:43.752Z</time>
      </trkpt>
      <trkpt lat="37.14184" lon="-2.74756">
        <ele>762.123656</ele>
        <time>2022-02-24T22:42:53.722Z</time>
      </trkpt>
      <trkpt lat="37.14151" lon="-2.74717">
        <ele>760.587112</ele>
        <time>2022-02-24T22:43:01.303Z</time>
      </trkpt>
      <trkpt lat="37.14117" lon="-2.74689">
        <ele>758.959071</ele>
        <time>2022-02-24T22:43:07.855Z</time>
      </trkpt>
      <trkpt lat="37.13791" lon="-2.74465">
        <ele>745.338649</ele>
        <time>2022-02-24T22:44:08.887Z</time>
      </trkpt>
      <trkpt lat="37.13752" lon="-2.74431">
        <ele>744.202684</ele>
        <time>2022-02-24T22:44:17.808Z</time>
      </trkpt>
      <trkpt lat="37.1343" lon="-2.74053">
        <ele>742.697924</ele>
        <time>2022-02-24T22:45:55.407Z</time>
      </trkpt>
      <trkpt lat="37.13334" lon="-2.73934">
        <ele>742.083947</ele>
        <time>2022-02-24T22:46:23.200Z</time>
      </trkpt>
      <trkpt lat="37.13289" lon="-2.73866">
        <ele>742.343163</ele>
        <time>2022-02-24T22:46:38.013Z</time>
      </trkpt>
      <trkpt lat="37.13172" lon="-2.73609">
        <ele>744.135533</ele>
        <time>2022-02-24T22:47:43.277Z</time>
      </trkpt>
      <trkpt lat="37.13145" lon="-2.73499">
        <ele>744.45507</ele>
        <time>2022-02-24T22:48:08.757Z</time>
      </trkpt>
      <trkpt lat="37.13138" lon="-2.73428">
        <ele>743.766221</ele>
        <time>2022-02-24T22:48:21.483Z</time>
      </trkpt>
      <trkpt lat="37.13148" lon="-2.73187">
        <ele>740.131745</ele>
        <time>2022-02-24T22:48:55.218Z</time>
      </trkpt>
      <trkpt lat="37.13145" lon="-2.73042">
        <ele>736.892187</ele>
        <time>2022-02-24T22:49:15.921Z</time>
      </trkpt>
      <trkpt lat="37.13139" lon="-2.73041">
        <ele>736.696056</ele>
        <time>2022-02-24T22:49:18.169Z</time>
      </trkpt>
      <trkpt lat="37.13134" lon="-2.7303">
        <ele>736.34772</ele>
        <time>2022-02-24T22:49:20.002Z</time>
      </trkpt>
      <trkpt lat="37.13133" lon="-2.72966">
        <ele>734.660798</ele>
        <time>2022-02-24T22:49:28.828Z</time>
      </trkpt>
      <trkpt lat="37.13146" lon="-2.72903">
        <ele>732.933282</ele>
        <time>2022-02-24T22:49:38.128Z</time>
      </trkpt>
      <trkpt lat="37.13173" lon="-2.72842">
        <ele>730.646078</ele>
        <time>2022-02-24T22:49:47.733Z</time>
      </trkpt>
      <trkpt lat="37.13193" lon="-2.72817">
        <ele>729.279795</ele>
        <time>2022-02-24T22:49:52.386Z</time>
      </trkpt>
      <trkpt lat="37.13204" lon="-2.72778">
        <ele>727.639982</ele>
        <time>2022-02-24T22:49:57.643Z</time>
      </trkpt>
      <trkpt lat="37.13219" lon="-2.7272">
        <ele>725.237818</ele>
        <time>2022-02-24T22:50:05.223Z</time>
      </trkpt>
      <trkpt lat="37.13251" lon="-2.72606">
        <ele>720.829748</ele>
        <time>2022-02-24T22:50:20.417Z</time>
      </trkpt>
      <trkpt lat="37.13257" lon="-2.72585">
        <ele>720.048513</ele>
        <time>2022-02-24T22:50:23.349Z</time>
      </trkpt>
      <trkpt lat="37.13262" lon="-2.7257">
        <ele>719.477619</ele>
        <time>2022-02-24T22:50:25.493Z</time>
      </trkpt>
      <trkpt lat="37.13263" lon="-2.72566">
        <ele>719.315897</ele>
        <time>2022-02-24T22:50:26.090Z</time>
      </trkpt>
      <trkpt lat="37.13283" lon="-2.72507">
        <ele>717.096458</ele>
        <time>2022-02-24T22:50:34.480Z</time>
      </trkpt>
      <trkpt lat="37.13455" lon="-2.72229">
        <ele>705.887878</ele>
        <time>2022-02-24T22:51:20.519Z</time>
      </trkpt>
      <trkpt lat="37.1348" lon="-2.72147">
        <ele>703.449507</ele>
        <time>2022-02-24T22:51:32.396Z</time>
      </trkpt>
      <trkpt lat="37.13484" lon="-2.72087">
        <ele>701.766681</ele>
        <time>2022-02-24T22:51:40.735Z</time>
      </trkpt>
      <trkpt lat="37.13483" lon="-2.72054">
        <ele>701.049328</ele>
        <time>2022-02-24T22:51:45.210Z</time>
      </trkpt>
      <trkpt lat="37.13471" lon="-2.71944">
        <ele>698.638876</ele>
        <time>2022-02-24T22:52:00.773Z</time>
      </trkpt>
      <trkpt lat="37.13459" lon="-2.71825">
        <ele>696.279428</ele>
        <time>2022-02-24T22:52:17.641Z</time>
      </trkpt>
      <trkpt lat="37.13461" lon="-2.71714">
        <ele>694.60133</ele>
        <time>2022-02-24T22:52:33.932Z</time>
      </trkpt>
      <trkpt lat="37.13486" lon="-2.71374">
        <ele>690.206127</ele>
        <time>2022-02-24T22:53:26.036Z</time>
      </trkpt>
      <trkpt lat="37.13479" lon="-2.71275">
        <ele>688.739004</ele>
        <time>2022-02-24T22:53:40.484Z</time>
      </trkpt>
      <trkpt lat="37.13478" lon="-2.71253">
        <ele>688.412215</ele>
        <time>2022-02-24T22:53:43.715Z</time>
      </trkpt>
      <trkpt lat="37.13479" lon="-2.71247">
        <ele>688.332202</ele>
        <time>2022-02-24T22:53:44.512Z</time>
      </trkpt>
      <trkpt lat="37.13482" lon="-2.71224">
        <ele>687.980342</ele>
        <time>2022-02-24T22:53:47.991Z</time>
      </trkpt>
      <trkpt lat="37.13506" lon="-2.71104">
        <ele>687.243664</ele>
        <time>2022-02-24T22:54:06.491Z</time>
      </trkpt>
      <trkpt lat="37.1355" lon="-2.70767">
        <ele>688.80304</ele>
        <time>2022-02-24T22:55:15.981Z</time>
      </trkpt>
      <trkpt lat="37.13577" lon="-2.70601">
        <ele>693.200722</ele>
        <time>2022-02-24T22:56:09.122Z</time>
      </trkpt>
      <trkpt lat="37.13601" lon="-2.70503">
        <ele>696.406905</ele>
        <time>2022-02-24T22:56:44.135Z</time>
      </trkpt>
      <trkpt lat="37.13638" lon="-2.70385">
        <ele>701.743646</ele>
        <time>2022-02-24T22:57:34.453Z</time>
      </trkpt>
      <trkpt lat="37.13665" lon="-2.70284">
        <ele>705.949596</ele>
        <time>2022-02-24T22:58:17.625Z</time>
      </trkpt>
      <trkpt lat="37.13673" lon="-2.70257">
        <ele>706.863768</ele>
        <time>2022-02-24T22:58:28.702Z</time>
      </trkpt>
      <trkpt lat="37.13687" lon="-2.70211">
        <ele>708.450654</ele>
        <time>2022-02-24T22:58:46.895Z</time>
      </trkpt>
      <trkpt lat="37.1374" lon="-2.70064">
        <ele>713.066271</ele>
        <time>2022-02-24T22:59:35.735Z</time>
      </trkpt>
      <trkpt lat="37.13765" lon="-2.70015">
        <ele>714.170199</ele>
        <time>2022-02-24T22:59:47.597Z</time>
      </trkpt>
      <trkpt lat="37.14012" lon="-2.69587">
        <ele>724.996786</ele>
        <time>2022-02-24T23:02:13.857Z</time>
      </trkpt>
      <trkpt lat="37.14054" lon="-2.69511">
        <ele>727.841463</ele>
        <time>2022-02-24T23:02:46.254Z</time>
      </trkpt>
      <trkpt lat="37.14086" lon="-2.69419">
        <ele>731.640621</ele>
        <time>2022-02-24T23:03:23.982Z</time>
      </trkpt>
      <trkpt lat="37.14098" lon="-2.69323">
        <ele>735.288015</ele>
        <time>2022-02-24T23:04:02.881Z</time>
      </trkpt>
      <trkpt lat="37.14098" lon="-2.6928">
        <ele>736.810008</ele>
        <time>2022-02-24T23:04:19.997Z</time>
      </trkpt>
      <trkpt lat="37.14092" lon="-2.69238">
        <ele>738.322355</ele>
        <time>2022-02-24T23:04:36.679Z</time>
      </trkpt>
      <trkpt lat="37.14075" lon="-2.6916">
        <ele>741.211389</ele>
        <time>2022-02-24T23:05:06.336Z</time>
      </trkpt>
      <trkpt lat="37.14049" lon="-2.69096">
        <ele>742.929142</ele>
        <time>2022-02-24T23:05:29.420Z</time>
      </trkpt>
      <trkpt lat="37.13915" lon="-2.68859">
        <ele>743.891487</ele>
        <time>2022-02-24T23:06:27.076Z</time>
      </trkpt>
      <trkpt lat="37.13891" lon="-2.68806">
        <ele>743.487479</ele>
        <time>2022-02-24T23:06:36.808Z</time>
      </trkpt>
      <trkpt lat="37.13867" lon="-2.68723">
        <ele>742.742291</ele>
        <time>2022-02-24T23:06:50.632Z</time>
      </trkpt>
      <trkpt lat="37.13854" lon="-2.68655">
        <ele>741.746828</ele>
        <time>2022-02-24T23:07:01.151Z</time>
      </trkpt>
      <trkpt lat="37.13849" lon="-2.68588">
        <ele>740.77215</ele>
        <time>2022-02-24T23:07:11.539Z</time>
      </trkpt>
      <trkpt lat="37.13849" lon="-2.6845">
        <ele>740.045801</ele>
        <time>2022-02-24T23:07:33.466Z</time>
      </trkpt>
      <trkpt lat="37.13888" lon="-2.67117">
        <ele>745.365339</ele>
        <time>2022-02-24T23:12:11.522Z</time>
      </trkpt>
      <trkpt lat="37.13892" lon="-2.66968">
        <ele>746.475244</ele>
        <time>2022-02-24T23:12:44.567Z</time>
      </trkpt>
      <trkpt lat="37.13893" lon="-2.66928">
        <ele>746.815475</ele>
        <time>2022-02-24T23:12:53.773Z</time>
      </trkpt>
      <trkpt lat="37.13902" lon="-2.66449">
        <ele>752.477443</ele>
        <time>2022-02-24T23:14:49.478Z</time>
      </trkpt>
      <trkpt lat="37.13896" lon="-2.66379">
        <ele>753.827716</ele>
        <time>2022-02-24T23:15:07.803Z</time>
      </trkpt>
      <trkpt lat="37.13884" lon="-2.66315">
        <ele>755.095725</ele>
        <time>2022-02-24T23:15:26.905Z</time>
      </trkpt>
      <trkpt lat="37.13838" lon="-2.66203">
        <ele>758.567135</ele>
        <time>2022-02-24T23:16:07.440Z</time>
      </trkpt>
      <trkpt lat="37.13809" lon="-2.66165">
        <ele>760.299715</ele>
        <time>2022-02-24T23:16:26.567Z</time>
      </trkpt>
      <trkpt lat="37.13764" lon="-2.66113">
        <ele>762.796157</ele>
        <time>2022-02-24T23:16:54.882Z</time>
      </trkpt>
      <trkpt lat="37.13664" lon="-2.66018">
        <ele>768.491149</ele>
        <time>2022-02-24T23:17:52.081Z</time>
      </trkpt>
      <trkpt lat="37.13639" lon="-2.65985">
        <ele>770.149496</ele>
        <time>2022-02-24T23:18:08.621Z</time>
      </trkpt>
      <trkpt lat="37.13591" lon="-2.65885">
        <ele>774.980778</ele>
        <time>2022-02-24T23:18:52.847Z</time>
      </trkpt>
      <trkpt lat="37.13575" lon="-2.65819">
        <ele>778.023341</ele>
        <time>2022-02-24T23:19:20.798Z</time>
      </trkpt>
      <trkpt lat="37.13568" lon="-2.65759">
        <ele>780.673961</ele>
        <time>2022-02-24T23:19:46.405Z</time>
      </trkpt>
      <trkpt lat="37.13566" lon="-2.6562">
        <ele>786.197666</ele>
        <time>2022-02-24T23:20:47.349Z</time>
      </trkpt>
      <trkpt lat="37.1357" lon="-2.65541">
        <ele>789.297198</ele>
        <time>2022-02-24T23:21:16.502Z</time>
      </trkpt>
      <trkpt lat="37.13574" lon="-2.65492">
        <ele>790.175081</ele>
        <time>2022-02-24T23:21:30.514Z</time>
      </trkpt>
      <trkpt lat="37.13587" lon="-2.65436">
        <ele>789.600042</ele>
        <time>2022-02-24T23:21:42.725Z</time>
      </trkpt>
      <trkpt lat="37.1361" lon="-2.65372">
        <ele>788.910799</ele>
        <time>2022-02-24T23:21:53.705Z</time>
      </trkpt>
      <trkpt lat="37.13651" lon="-2.65305">
        <ele>787.848444</ele>
        <time>2022-02-24T23:22:05.432Z</time>
      </trkpt>
      <trkpt lat="37.13706" lon="-2.65233">
        <ele>783.975438</ele>
        <time>2022-02-24T23:22:18.621Z</time>
      </trkpt>
      <trkpt lat="37.13741" lon="-2.65174">
        <ele>781.096632</ele>
        <time>2022-02-24T23:22:28.312Z</time>
      </trkpt>
      <trkpt lat="37.13757" lon="-2.65133">
        <ele>779.30399</ele>
        <time>2022-02-24T23:22:34.375Z</time>
      </trkpt>
      <trkpt lat="37.13767" lon="-2.65088">
        <ele>777.618037</ele>
        <time>2022-02-24T23:22:40.545Z</time>
      </trkpt>
      <trkpt lat="37.13773" lon="-2.6504">
        <ele>775.835999</ele>
        <time>2022-02-24T23:22:47.142Z</time>
      </trkpt>
      <trkpt lat="37.13767" lon="-2.64959">
        <ele>772.837937</ele>
        <time>2022-02-24T23:22:58.164Z</time>
      </trkpt>
      <trkpt lat="37.13757" lon="-2.64923">
        <ele>771.429932</ele>
        <time>2022-02-24T23:23:03.355Z</time>
      </trkpt>
      <trkpt lat="37.13715" lon="-2.64826">
        <ele>768.344736</ele>
        <time>2022-02-24T23:23:18.484Z</time>
      </trkpt>
      <trkpt lat="37.13696" lon="-2.6478">
        <ele>766.944162</ele>
        <time>2022-02-24T23:23:25.792Z</time>
      </trkpt>
      <trkpt lat="37.1365" lon="-2.64563">
        <ele>762.096938</ele>
        <time>2022-02-24T23:23:59.167Z</time>
      </trkpt>
      <trkpt lat="37.13633" lon="-2.64514">
        <ele>761.08706</ele>
        <time>2022-02-24T23:24:07.408Z</time>
      </trkpt>
      <trkpt lat="37.13604" lon="-2.64453">
        <ele>759.718349</ele>
        <time>2022-02-24T23:24:18.133Z</time>
      </trkpt>
      <trkpt lat="37.1353" lon="-2.6433">
        <ele>756.690098</ele>
        <time>2022-02-24T23:24:40.991Z</time>
      </trkpt>
      <trkpt lat="37.13507" lon="-2.64303">
        <ele>755.834939</ele>
        <time>2022-02-24T23:24:46.784Z</time>
      </trkpt>
      <trkpt lat="37.13412" lon="-2.64204">
        <ele>752.194884</ele>
        <time>2022-02-24T23:25:09.294Z</time>
      </trkpt>
      <trkpt lat="37.13358" lon="-2.64161">
        <ele>750.317929</ele>
        <time>2022-02-24T23:25:20.693Z</time>
      </trkpt>
      <trkpt lat="37.13311" lon="-2.64103">
        <ele>748.436091</ele>
        <time>2022-02-24T23:25:32.460Z</time>
      </trkpt>
      <trkpt lat="37.13279" lon="-2.64173">
        <ele>746.613979</ele>
        <time>2022-02-24T23:25:43.968Z</time>
      </trkpt>
      <trkpt lat="37.12943" lon="-2.63941">
        <ele>739.699907</ele>
        <time>2022-02-24T23:26:58.510Z</time>
      </trkpt>
      <trkpt lat="37.12887" lon="-2.63892">
        <ele>740.207174</ele>
        <time>2022-02-24T23:27:14.831Z</time>
      </trkpt>
      <trkpt lat="37.12774" lon="-2.63781">
        <ele>742.346926</ele>
        <time>2022-02-24T23:27:58.511Z</time>
      </trkpt>
      <trkpt lat="37.12745" lon="-2.63757">
        <ele>743.730571</ele>
        <time>2022-02-24T23:28:13.154Z</time>
      </trkpt>
      <trkpt lat="37.12731" lon="-2.63749">
        <ele>744.347524</ele>
        <time>2022-02-24T23:28:19.926Z</time>
      </trkpt>
      <trkpt lat="37.1271" lon="-2.63747">
        <ele>745.18184</ele>
        <time>2022-02-24T23:28:29.341Z</time>
      </trkpt>
      <trkpt lat="37.12703" lon="-2.63746">
        <ele>745.454008</ele>
        <time>2022-02-24T23:28:32.330Z</time>
      </trkpt>
      <trkpt lat="37.12694" lon="-2.63735">
        <ele>745.982408</ele>
        <time>2022-02-24T23:28:38.483Z</time>
      </trkpt>
      <trkpt lat="37.12693" lon="-2.63726">
        <ele>746.255081</ele>
        <time>2022-02-24T23:28:41.961Z</time>
      </trkpt>
      <trkpt lat="37.12696" lon="-2.63716">
        <ele>746.59713</ele>
        <time>2022-02-24T23:28:45.821Z</time>
      </trkpt>
      <trkpt lat="37.12694" lon="-2.63703">
        <ele>747.023535</ele>
        <time>2022-02-24T23:28:50.891Z</time>
      </trkpt>
      <trkpt lat="37.12683" lon="-2.63686">
        <ele>747.700979</ele>
        <time>2022-02-24T23:28:59.173Z</time>
      </trkpt>
      <trkpt lat="37.12531" lon="-2.63574">
        <ele>756.097506</ele>
        <time>2022-02-24T23:30:26.593Z</time>
      </trkpt>
      <trkpt lat="37.12459" lon="-2.63512">
        <ele>757.778926</ele>
        <time>2022-02-24T23:30:57.180Z</time>
      </trkpt>
      <trkpt lat="37.12409" lon="-2.63466">
        <ele>758.399781</ele>
        <time>2022-02-24T23:31:12.821Z</time>
      </trkpt>
      <trkpt lat="37.1229" lon="-2.63331">
        <ele>757.405268</ele>
        <time>2022-02-24T23:31:44.171Z</time>
      </trkpt>
      <trkpt lat="37.12094" lon="-2.63092">
        <ele>752.41042</ele>
        <time>2022-02-24T23:32:35.090Z</time>
      </trkpt>
      <trkpt lat="37.11974" lon="-2.62946">
        <ele>747.786809</ele>
        <time>2022-02-24T23:33:03.833Z</time>
      </trkpt>
      <trkpt lat="37.119" lon="-2.6287">
        <ele>745.392425</ele>
        <time>2022-02-24T23:33:20.960Z</time>
      </trkpt>
      <trkpt lat="37.11814" lon="-2.62811">
        <ele>742.390975</ele>
        <time>2022-02-24T23:33:38.708Z</time>
      </trkpt>
      <trkpt lat="37.11762" lon="-2.62789">
        <ele>739.725675</ele>
        <time>2022-02-24T23:33:47.921Z</time>
      </trkpt>
      <trkpt lat="37.11645" lon="-2.62744">
        <ele>733.488597</ele>
        <time>2022-02-24T23:34:06.804Z</time>
      </trkpt>
      <trkpt lat="37.1161" lon="-2.6272">
        <ele>730.967375</ele>
        <time>2022-02-24T23:34:12.453Z</time>
      </trkpt>
      <trkpt lat="37.11589" lon="-2.62702">
        <ele>729.337908</ele>
        <time>2022-02-24T23:34:16.167Z</time>
      </trkpt>
      <trkpt lat="37.11551" lon="-2.62649">
        <ele>725.740064</ele>
        <time>2022-02-24T23:34:24.888Z</time>
      </trkpt>
      <trkpt lat="37.11525" lon="-2.62593">
        <ele>723.48409</ele>
        <time>2022-02-24T23:34:33.168Z</time>
      </trkpt>
      <trkpt lat="37.11493" lon="-2.62473">
        <ele>723.891332</ele>
        <time>2022-02-24T23:34:55.123Z</time>
      </trkpt>
      <trkpt lat="37.11476" lon="-2.6243">
        <ele>724.045557</ele>
        <time>2022-02-24T23:35:06.738Z</time>
      </trkpt>
      <trkpt lat="37.11457" lon="-2.62395">
        <ele>724.360569</ele>
        <time>2022-02-24T23:35:23.562Z</time>
      </trkpt>
      <trkpt lat="37.1143" lon="-2.62359">
        <ele>725.468357</ele>
        <time>2022-02-24T23:35:42.430Z</time>
      </trkpt>
      <trkpt lat="37.11393" lon="-2.62324">
        <ele>726.76495</ele>
        <time>2022-02-24T23:36:01.121Z</time>
      </trkpt>
      <trkpt lat="37.11324" lon="-2.62278">
        <ele>728.936961</ele>
        <time>2022-02-24T23:36:25.240Z</time>
      </trkpt>
      <trkpt lat="37.11204" lon="-2.62207">
        <ele>730.205678</ele>
        <time>2022-02-24T23:36:59.791Z</time>
      </trkpt>
      <trkpt lat="37.11177" lon="-2.62193">
        <ele>730.447815</ele>
        <time>2022-02-24T23:37:07.329Z</time>
      </trkpt>
      <trkpt lat="37.11131" lon="-2.62141">
        <ele>730.857797</ele>
        <time>2022-02-24T23:37:23.034Z</time>
      </trkpt>
      <trkpt lat="37.11093" lon="-2.62112">
        <ele>731.094412</ele>
        <time>2022-02-24T23:37:34.593Z</time>
      </trkpt>
      <trkpt lat="37.11068" lon="-2.62087">
        <ele>731.267509</ele>
        <time>2022-02-24T23:37:43.063Z</time>
      </trkpt>
      <trkpt lat="37.11052" lon="-2.62062">
        <ele>731.404518</ele>
        <time>2022-02-24T23:37:49.273Z</time>
      </trkpt>
      <trkpt lat="37.1105" lon="-2.6206">
        <ele>731.416592</ele>
        <time>2022-02-24T23:37:49.815Z</time>
      </trkpt>
      <trkpt lat="37.10756" lon="-2.61639">
        <ele>731.836179</ele>
        <time>2022-02-24T23:39:32.382Z</time>
      </trkpt>
      <trkpt lat="37.10141" lon="-2.60789">
        <ele>726.594406</ele>
        <time>2022-02-24T23:42:41.292Z</time>
      </trkpt>
      <trkpt lat="37.10113" lon="-2.60747">
        <ele>726.321137</ele>
        <time>2022-02-24T23:42:50.337Z</time>
      </trkpt>
      <trkpt lat="37.10111" lon="-2.60743">
        <ele>726.298728</ele>
        <time>2022-02-24T23:42:51.078Z</time>
      </trkpt>
      <trkpt lat="37.08949" lon="-2.59099">
        <ele>715.589994</ele>
        <time>2022-02-24T23:48:57.820Z</time>
      </trkpt>
      <trkpt lat="37.08921" lon="-2.59092">
        <ele>714.600527</ele>
        <time>2022-02-24T23:49:02.500Z</time>
      </trkpt>
      <trkpt lat="37.08927" lon="-2.59072">
        <ele>713.999365</ele>
        <time>2022-02-24T23:49:05.070Z</time>
      </trkpt>
      <trkpt lat="37.08924" lon="-2.59025">
        <ele>712.660162</ele>
        <time>2022-02-24T23:49:11.049Z</time>
      </trkpt>
      <trkpt lat="37.08929" lon="-2.58996">
        <ele>711.824636</ele>
        <time>2022-02-24T23:49:14.795Z</time>
      </trkpt>
      <trkpt lat="37.08999" lon="-2.58784">
        <ele>700.034458</ele>
        <time>2022-02-24T23:49:42.454Z</time>
      </trkpt>
      <trkpt lat="37.09025" lon="-2.58658">
        <ele>692.851498</ele>
        <time>2022-02-24T23:49:58.014Z</time>
      </trkpt>
      <trkpt lat="37.09044" lon="-2.58616">
        <ele>690.239098</ele>
        <time>2022-02-24T23:50:03.686Z</time>
      </trkpt>
      <trkpt lat="37.09068" lon="-2.58589">
        <ele>687.980349</ele>
        <time>2022-02-24T23:50:08.622Z</time>
      </trkpt>
      <trkpt lat="37.09088" lon="-2.58556">
        <ele>686.129277</ele>
        <time>2022-02-24T23:50:13.866Z</time>
      </trkpt>
      <trkpt lat="37.09111" lon="-2.58512">
        <ele>684.085446</ele>
        <time>2022-02-24T23:50:20.621Z</time>
      </trkpt>
      <trkpt lat="37.09126" lon="-2.58455">
        <ele>681.710927</ele>
        <time>2022-02-24T23:50:28.676Z</time>
      </trkpt>
      <trkpt lat="37.09145" lon="-2.58419">
        <ele>680.032692</ele>
        <time>2022-02-24T23:50:34.504Z</time>
      </trkpt>
      <trkpt lat="37.09135" lon="-2.58382">
        <ele>678.505779</ele>
        <time>2022-02-24T23:50:40.025Z</time>
      </trkpt>
      <trkpt lat="37.09144" lon="-2.58374">
        <ele>678.167951</ele>
        <time>2022-02-24T23:50:42.112Z</time>
      </trkpt>
      <trkpt lat="37.09154" lon="-2.58366">
        <ele>677.890185</ele>
        <time>2022-02-24T23:50:44.286Z</time>
      </trkpt>
      <trkpt lat="37.0918" lon="-2.58345">
        <ele>677.138257</ele>
        <time>2022-02-24T23:50:50.297Z</time>
      </trkpt>
      <trkpt lat="37.0916" lon="-2.58317">
        <ele>676.414012</ele>
        <time>2022-02-24T23:50:56.056Z</time>
      </trkpt>
      <trkpt lat="37.09144" lon="-2.58269">
        <ele>675.423677</ele>
        <time>2022-02-24T23:51:03.925Z</time>
      </trkpt>
      <trkpt lat="37.09132" lon="-2.58247">
        <ele>674.908885</ele>
        <time>2022-02-24T23:51:07.892Z</time>
      </trkpt>
      <trkpt lat="37.09106" lon="-2.58221">
        <ele>674.105851</ele>
        <time>2022-02-24T23:51:14.299Z</time>
      </trkpt>
      <trkpt lat="37.09094" lon="-2.58189">
        <ele>673.320248</ele>
        <time>2022-02-24T23:51:19.541Z</time>
      </trkpt>
      <trkpt lat="37.09068" lon="-2.58131">
        <ele>671.845941</ele>
        <time>2022-02-24T23:51:29.117Z</time>
      </trkpt>
      <trkpt lat="37.09061" lon="-2.58086">
        <ele>670.834174</ele>
        <time>2022-02-24T23:51:35.534Z</time>
      </trkpt>
      <trkpt lat="37.0904" lon="-2.58019">
        <ele>669.226042</ele>
        <time>2022-02-24T23:51:46.039Z</time>
      </trkpt>
      <trkpt lat="37.09021" lon="-2.57994">
        <ele>668.84338</ele>
        <time>2022-02-24T23:51:51.219Z</time>
      </trkpt>
      <trkpt lat="37.08994" lon="-2.57994">
        <ele>668.617911</ele>
        <time>2022-02-24T23:51:56.296Z</time>
      </trkpt>
      <trkpt lat="37.08989" lon="-2.58">
        <ele>668.555536</ele>
        <time>2022-02-24T23:51:57.861Z</time>
      </trkpt>
      <trkpt lat="37.08969" lon="-2.58">
        <ele>668.3856</ele>
        <time>2022-02-24T23:52:01.751Z</time>
      </trkpt>
      <trkpt lat="37.08957" lon="-2.57976">
        <ele>668.198727</ele>
        <time>2022-02-24T23:52:09.648Z</time>
      </trkpt>
      <trkpt lat="37.08931" lon="-2.57886">
        <ele>667.552118</ele>
        <time>2022-02-24T23:52:38.495Z</time>
      </trkpt>
      <trkpt lat="37.08905" lon="-2.57827">
        <ele>667.613464</ele>
        <time>2022-02-24T23:53:00.477Z</time>
      </trkpt>
      <trkpt lat="37.08888" lon="-2.57813">
        <ele>667.66226</ele>
        <time>2022-02-24T23:53:09.716Z</time>
      </trkpt>
      <trkpt lat="37.08815" lon="-2.5778">
        <ele>667.852144</ele>
        <time>2022-02-24T23:53:42.695Z</time>
      </trkpt>
      <trkpt lat="37.08787" lon="-2.57755">
        <ele>667.934201</ele>
        <time>2022-02-24T23:53:54.022Z</time>
      </trkpt>
      <trkpt lat="37.08773" lon="-2.57729">
        <ele>667.247569</ele>
        <time>2022-02-24T23:54:02.128Z</time>
      </trkpt>
      <trkpt lat="37.0876" lon="-2.57687">
        <ele>666.224849</ele>
        <time>2022-02-24T23:54:13.623Z</time>
      </trkpt>
      <trkpt lat="37.08753" lon="-2.57634">
        <ele>665.02719</ele>
        <time>2022-02-24T23:54:26.878Z</time>
      </trkpt>
      <trkpt lat="37.08759" lon="-2.57593">
        <ele>664.090086</ele>
        <time>2022-02-24T23:54:37.180Z</time>
      </trkpt>
      <trkpt lat="37.08769" lon="-2.57579">
        <ele>663.665444</ele>
        <time>2022-02-24T23:54:41.537Z</time>
      </trkpt>
      <trkpt lat="37.08809" lon="-2.57548">
        <ele>662.285356</ele>
        <time>2022-02-24T23:54:55.720Z</time>
      </trkpt>
      <trkpt lat="37.08845" lon="-2.57499">
        <ele>660.613739</ele>
        <time>2022-02-24T23:55:11.240Z</time>
      </trkpt>
      <trkpt lat="37.08851" lon="-2.57482">
        <ele>660.139151</ele>
        <time>2022-02-24T23:55:15.729Z</time>
      </trkpt>
      <trkpt lat="37.08842" lon="-2.57446">
        <ele>659.209478</ele>
        <time>2022-02-24T23:55:24.654Z</time>
      </trkpt>
      <trkpt lat="37.08823" lon="-2.57406">
        <ele>658.03626</ele>
        <time>2022-02-24T23:55:37.036Z</time>
      </trkpt>
      <trkpt lat="37.08807" lon="-2.57337">
        <ele>657.18985</ele>
        <time>2022-02-24T23:55:56.271Z</time>
      </trkpt>
      <trkpt lat="37.08796" lon="-2.57265">
        <ele>657.118002</ele>
        <time>2022-02-24T23:56:16.893Z</time>
      </trkpt>
      <trkpt lat="37.08809" lon="-2.57241">
        <ele>657.089738</ele>
        <time>2022-02-24T23:56:25.573Z</time>
      </trkpt>
      <trkpt lat="37.08808" lon="-2.57228">
        <ele>657.07739</ele>
        <time>2022-02-24T23:56:29.751Z</time>
      </trkpt>
      <trkpt lat="37.08784" lon="-2.57176">
        <ele>657.018989</ele>
        <time>2022-02-24T23:56:50.435Z</time>
      </trkpt>
      <trkpt lat="37.08756" lon="-2.57134">
        <ele>657.027524</ele>
        <time>2022-02-24T23:57:09.015Z</time>
      </trkpt>
      <trkpt lat="37.08747" lon="-2.57128">
        <ele>657.032985</ele>
        <time>2022-02-24T23:57:13.117Z</time>
      </trkpt>
      <trkpt lat="37.08716" lon="-2.57127">
        <ele>657.050479</ele>
        <time>2022-02-24T23:57:25.591Z</time>
      </trkpt>
      <trkpt lat="37.08674" lon="-2.57113">
        <ele>657.075506</ele>
        <time>2022-02-24T23:57:42.987Z</time>
      </trkpt>
      <trkpt lat="37.08536" lon="-2.57093">
        <ele>655.259293</ele>
        <time>2022-02-24T23:58:29.983Z</time>
      </trkpt>
      <trkpt lat="37.0851" lon="-2.5708">
        <ele>654.590236</ele>
        <time>2022-02-24T23:58:38.686Z</time>
      </trkpt>
      <trkpt lat="37.0849" lon="-2.57057">
        <ele>653.937981</ele>
        <time>2022-02-24T23:58:47.119Z</time>
      </trkpt>
      <trkpt lat="37.08459" lon="-2.56965">
        <ele>651.438728</ele>
        <time>2022-02-24T23:59:11.332Z</time>
      </trkpt>
      <trkpt lat="37.08447" lon="-2.56868">
        <ele>648.09075</ele>
        <time>2022-02-24T23:59:34.513Z</time>
      </trkpt>
      <trkpt lat="37.08433" lon="-2.56849">
        <ele>647.205553</ele>
        <time>2022-02-24T23:59:40.670Z</time>
      </trkpt>
      <trkpt lat="37.08357" lon="-2.56808">
        <ele>643.646422</ele>
        <time>2022-02-25T00:00:04.473Z</time>
      </trkpt>
      <trkpt lat="37.08335" lon="-2.56782">
        <ele>642.292708</ele>
        <time>2022-02-25T00:00:13.497Z</time>
      </trkpt>
      <trkpt lat="37.08332" lon="-2.56769">
        <ele>641.836002</ele>
        <time>2022-02-25T00:00:16.451Z</time>
      </trkpt>
      <trkpt lat="37.08321" lon="-2.56705">
        <ele>639.571619</ele>
        <time>2022-02-25T00:00:31.434Z</time>
      </trkpt>
      <trkpt lat="37.08324" lon="-2.56669">
        <ele>638.31444</ele>
        <time>2022-02-25T00:00:39.871Z</time>
      </trkpt>
      <trkpt lat="37.08339" lon="-2.56646">
        <ele>637.345325</ele>
        <time>2022-02-25T00:00:47.081Z</time>
      </trkpt>
      <trkpt lat="37.08368" lon="-2.56644">
        <ele>637.564643</ele>
        <time>2022-02-25T00:00:56.774Z</time>
      </trkpt>
      <trkpt lat="37.08379" lon="-2.56636">
        <ele>637.657503</ele>
        <time>2022-02-25T00:01:00.990Z</time>
      </trkpt>
      <trkpt lat="37.08379" lon="-2.5662">
        <ele>637.755384</ele>
        <time>2022-02-25T00:01:05.644Z</time>
      </trkpt>
      <trkpt lat="37.08345" lon="-2.5657">
        <ele>638.148953</ele>
        <time>2022-02-25T00:01:30.055Z</time>
      </trkpt>
      <trkpt lat="37.08346" lon="-2.56549">
        <ele>638.27121</ele>
        <time>2022-02-25T00:01:37.099Z</time>
      </trkpt>
      <trkpt lat="37.08368" lon="-2.5651">
        <ele>638.55503</ele>
        <time>2022-02-25T00:01:56.066Z</time>
      </trkpt>
      <trkpt lat="37.08369" lon="-2.56499">
        <ele>638.623162</ele>
        <time>2022-02-25T00:02:02.019Z</time>
      </trkpt>
      <trkpt lat="37.08364" lon="-2.56461">
        <ele>639.406381</ele>
        <time>2022-02-25T00:02:16.733Z</time>
      </trkpt>
      <trkpt lat="37.08359" lon="-2.56456">
        <ele>639.595026</ele>
        <time>2022-02-25T00:02:20.574Z</time>
      </trkpt>
      <trkpt lat="37.08292" lon="-2.5645">
        <ele>641.718251</ele>
        <time>2022-02-25T00:02:56.017Z</time>
      </trkpt>
      <trkpt lat="37.0826" lon="-2.56434">
        <ele>642.815624</ele>
        <time>2022-02-25T00:03:15.624Z</time>
      </trkpt>
      <trkpt lat="37.08216" lon="-2.56429">
        <ele>644.214175</ele>
        <time>2022-02-25T00:03:40.326Z</time>
      </trkpt>
      <trkpt lat="37.08202" lon="-2.56419">
        <ele>644.583677</ele>
        <time>2022-02-25T00:03:47.595Z</time>
      </trkpt>
      <trkpt lat="37.0821" lon="-2.56376">
        <ele>645.325302</ele>
        <time>2022-02-25T00:04:04.895Z</time>
      </trkpt>
      <trkpt lat="37.08221" lon="-2.56351">
        <ele>645.800585</ele>
        <time>2022-02-25T00:04:15.762Z</time>
      </trkpt>
      <trkpt lat="37.08245" lon="-2.56322">
        <ele>646.478113</ele>
        <time>2022-02-25T00:04:31.419Z</time>
      </trkpt>
      <trkpt lat="37.08239" lon="-2.56304">
        <ele>646.810023</ele>
        <time>2022-02-25T00:04:39.351Z</time>
      </trkpt>
      <trkpt lat="37.08223" lon="-2.56286">
        <ele>647.251592</ele>
        <time>2022-02-25T00:04:49.602Z</time>
      </trkpt>
      <trkpt lat="37.08209" lon="-2.56258">
        <ele>647.799896</ele>
        <time>2022-02-25T00:05:01.771Z</time>
      </trkpt>
      <trkpt lat="37.08205" lon="-2.56234">
        <ele>647.961497</ele>
        <time>2022-02-25T00:05:10.790Z</time>
      </trkpt>
      <trkpt lat="37.08207" lon="-2.56116">
        <ele>646.248843</ele>
        <time>2022-02-25T00:05:46.365Z</time>
      </trkpt>
      <trkpt lat="37.08201" lon="-2.56102">
        <ele>646.021105</ele>
        <time>2022-02-25T00:05:50.585Z</time>
      </trkpt>
      <trkpt lat="37.08166" lon="-2.56073">
        <ele>645.262369</ele>
        <time>2022-02-25T00:06:03.739Z</time>
      </trkpt>
      <trkpt lat="37.08154" lon="-2.56057">
        <ele>644.932689</ele>
        <time>2022-02-25T00:06:08.930Z</time>
      </trkpt>
      <trkpt lat="37.08125" lon="-2.55965">
        <ele>637.937208</ele>
        <time>2022-02-25T00:06:29.443Z</time>
      </trkpt>
      <trkpt lat="37.08107" lon="-2.55937">
        <ele>635.151213</ele>
        <time>2022-02-25T00:06:36.718Z</time>
      </trkpt>
      <trkpt lat="37.08106" lon="-2.55906">
        <ele>632.719612</ele>
        <time>2022-02-25T00:06:43.087Z</time>
      </trkpt>
      <trkpt lat="37.08087" lon="-2.55833">
        <ele>626.891961</ele>
        <time>2022-02-25T00:06:58.437Z</time>
      </trkpt>
      <trkpt lat="37.08083" lon="-2.55798">
        <ele>624.528496</ele>
        <time>2022-02-25T00:07:05.517Z</time>
      </trkpt>
      <trkpt lat="37.08071" lon="-2.55768">
        <ele>622.285727</ele>
        <time>2022-02-25T00:07:12.316Z</time>
      </trkpt>
      <trkpt lat="37.08041" lon="-2.55746">
        <ele>619.341495</ele>
        <time>2022-02-25T00:07:21.237Z</time>
      </trkpt>
      <trkpt lat="37.07998" lon="-2.55681">
        <ele>613.672901</ele>
        <time>2022-02-25T00:07:39.456Z</time>
      </trkpt>
      <trkpt lat="37.07978" lon="-2.5567">
        <ele>612.125518</ele>
        <time>2022-02-25T00:07:45.774Z</time>
      </trkpt>
      <trkpt lat="37.07928" lon="-2.5566">
        <ele>611.019244</ele>
        <time>2022-02-25T00:08:02.154Z</time>
      </trkpt>
      <trkpt lat="37.07868" lon="-2.55613">
        <ele>609.462361</ele>
        <time>2022-02-25T00:08:26.002Z</time>
      </trkpt>
      <trkpt lat="37.07855" lon="-2.5562">
        <ele>609.155707</ele>
        <time>2022-02-25T00:08:30.715Z</time>
      </trkpt>
      <trkpt lat="37.07848" lon="-2.5564">
        <ele>608.779133</ele>
        <time>2022-02-25T00:08:36.616Z</time>
      </trkpt>
      <trkpt lat="37.07827" lon="-2.55663">
        <ele>608.160713</ele>
        <time>2022-02-25T00:08:46.038Z</time>
      </trkpt>
      <trkpt lat="37.07813" lon="-2.55668">
        <ele>607.789143</ele>
        <time>2022-02-25T00:08:51.206Z</time>
      </trkpt>
      <trkpt lat="37.0776" lon="-2.55673">
        <ele>606.476485</ele>
        <time>2022-02-25T00:09:08.923Z</time>
      </trkpt>
      <trkpt lat="37.07733" lon="-2.55666">
        <ele>605.796785</ele>
        <time>2022-02-25T00:09:17.665Z</time>
      </trkpt>
      <trkpt lat="37.07693" lon="-2.55626">
        <ele>604.527763</ele>
        <time>2022-02-25T00:09:33.493Z</time>
      </trkpt>
      <trkpt lat="37.0767" lon="-2.55612">
        <ele>603.908241</ele>
        <time>2022-02-25T00:09:41.068Z</time>
      </trkpt>
      <trkpt lat="37.07623" lon="-2.55601">
        <ele>601.579717</ele>
        <time>2022-02-25T00:09:55.514Z</time>
      </trkpt>
      <trkpt lat="37.07598" lon="-2.5558">
        <ele>600.123174</ele>
        <time>2022-02-25T00:10:04.176Z</time>
      </trkpt>
      <trkpt lat="37.07573" lon="-2.55542">
        <ele>598.186943</ele>
        <time>2022-02-25T00:10:15.398Z</time>
      </trkpt>
      <trkpt lat="37.0755" lon="-2.5553">
        <ele>596.969561</ele>
        <time>2022-02-25T00:10:22.428Z</time>
      </trkpt>
      <trkpt lat="37.07508" lon="-2.55529">
        <ele>594.82774</ele>
        <time>2022-02-25T00:10:34.417Z</time>
      </trkpt>
      <trkpt lat="37.07466" lon="-2.55544">
        <ele>591.817817</ele>
        <time>2022-02-25T00:10:46.497Z</time>
      </trkpt>
      <trkpt lat="37.07439" lon="-2.55538">
        <ele>589.900597</ele>
        <time>2022-02-25T00:10:54.081Z</time>
      </trkpt>
      <trkpt lat="37.07416" lon="-2.55517">
        <ele>587.953959</ele>
        <time>2022-02-25T00:11:01.746Z</time>
      </trkpt>
      <trkpt lat="37.07333" lon="-2.55364">
        <ele>577.229753</ele>
        <time>2022-02-25T00:11:41.713Z</time>
      </trkpt>
      <trkpt lat="37.07319" lon="-2.55349">
        <ele>575.861676</ele>
        <time>2022-02-25T00:11:46.553Z</time>
      </trkpt>
      <trkpt lat="37.07238" lon="-2.55349">
        <ele>569.711756</ele>
        <time>2022-02-25T00:12:08.335Z</time>
      </trkpt>
      <trkpt lat="37.07182" lon="-2.55325">
        <ele>565.18483</ele>
        <time>2022-02-25T00:12:24.359Z</time>
      </trkpt>
      <trkpt lat="37.07164" lon="-2.55302">
        <ele>563.231582</ele>
        <time>2022-02-25T00:12:31.247Z</time>
      </trkpt>
      <trkpt lat="37.07156" lon="-2.55267">
        <ele>561.014219</ele>
        <time>2022-02-25T00:12:38.997Z</time>
      </trkpt>
      <trkpt lat="37.0714" lon="-2.55236">
        <ele>558.722506</ele>
        <time>2022-02-25T00:12:47.071Z</time>
      </trkpt>
      <trkpt lat="37.07128" lon="-2.55223">
        <ele>557.524398</ele>
        <time>2022-02-25T00:12:51.246Z</time>
      </trkpt>
      <trkpt lat="37.07086" lon="-2.55218">
        <ele>554.238127</ele>
        <time>2022-02-25T00:13:02.631Z</time>
      </trkpt>
      <trkpt lat="37.07066" lon="-2.55201">
        <ele>552.331353</ele>
        <time>2022-02-25T00:13:08.986Z</time>
      </trkpt>
      <trkpt lat="37.07056" lon="-2.55191">
        <ele>551.342999</ele>
        <time>2022-02-25T00:13:12.337Z</time>
      </trkpt>
      <trkpt lat="37.07046" lon="-2.55167">
        <ele>549.626023</ele>
        <time>2022-02-25T00:13:18.021Z</time>
      </trkpt>
      <trkpt lat="37.07046" lon="-2.5513">
        <ele>547.264151</ele>
        <time>2022-02-25T00:13:25.885Z</time>
      </trkpt>
      <trkpt lat="37.07042" lon="-2.5512">
        <ele>546.531517</ele>
        <time>2022-02-25T00:13:28.329Z</time>
      </trkpt>
      <trkpt lat="37.07017" lon="-2.55101">
        <ele>544.240333</ele>
        <time>2022-02-25T00:13:35.945Z</time>
      </trkpt>
      <trkpt lat="37.06997" lon="-2.55094">
        <ele>542.567135</ele>
        <time>2022-02-25T00:13:41.563Z</time>
      </trkpt>
      <trkpt lat="37.06988" lon="-2.55084">
        <ele>541.582714</ele>
        <time>2022-02-25T00:13:44.792Z</time>
      </trkpt>
      <trkpt lat="37.06989" lon="-2.55017">
        <ele>537.404136</ele>
        <time>2022-02-25T00:13:59.094Z</time>
      </trkpt>
      <trkpt lat="37.06982" lon="-2.54993">
        <ele>535.790458</ele>
        <time>2022-02-25T00:14:04.573Z</time>
      </trkpt>
      <trkpt lat="37.06962" lon="-2.54958">
        <ele>533.14676</ele>
        <time>2022-02-25T00:14:13.490Z</time>
      </trkpt>
      <trkpt lat="37.0696" lon="-2.54947">
        <ele>532.428366</ele>
        <time>2022-02-25T00:14:15.933Z</time>
      </trkpt>
      <trkpt lat="37.06964" lon="-2.54923">
        <ele>530.895444</ele>
        <time>2022-02-25T00:14:21.143Z</time>
      </trkpt>
      <trkpt lat="37.06977" lon="-2.54911">
        <ele>529.632963</ele>
        <time>2022-02-25T00:14:25.502Z</time>
      </trkpt>
      <trkpt lat="37.06979" lon="-2.54902">
        <ele>529.067093</ele>
        <time>2022-02-25T00:14:27.434Z</time>
      </trkpt>
      <trkpt lat="37.06958" lon="-2.5486">
        <ele>526.224047</ele>
        <time>2022-02-25T00:14:38.209Z</time>
      </trkpt>
      <trkpt lat="37.06945" lon="-2.54802">
        <ele>523.657167</ele>
        <time>2022-02-25T00:14:51.775Z</time>
      </trkpt>
      <trkpt lat="37.06932" lon="-2.5478">
        <ele>522.502249</ele>
        <time>2022-02-25T00:14:57.980Z</time>
      </trkpt>
      <trkpt lat="37.06901" lon="-2.54747">
        <ele>520.363593</ele>
        <time>2022-02-25T00:15:09.691Z</time>
      </trkpt>
      <trkpt lat="37.06888" lon="-2.54722">
        <ele>519.101182</ele>
        <time>2022-02-25T00:15:16.594Z</time>
      </trkpt>
      <trkpt lat="37.06885" lon="-2.54711">
        <ele>518.600647</ele>
        <time>2022-02-25T00:15:19.350Z</time>
      </trkpt>
      <trkpt lat="37.06891" lon="-2.54678">
        <ele>517.201861</ele>
        <time>2022-02-25T00:15:27.003Z</time>
      </trkpt>
      <trkpt lat="37.06892" lon="-2.54646">
        <ele>516.115269</ele>
        <time>2022-02-25T00:15:34.801Z</time>
      </trkpt>
      <trkpt lat="37.0688" lon="-2.54624">
        <ele>515.242294</ele>
        <time>2022-02-25T00:15:41.165Z</time>
      </trkpt>
      <trkpt lat="37.06755" lon="-2.54596">
        <ele>510.01655</ele>
        <time>2022-02-25T00:16:18.980Z</time>
      </trkpt>
      <trkpt lat="37.06618" lon="-2.54583">
        <ele>504.470188</ele>
        <time>2022-02-25T00:16:59.401Z</time>
      </trkpt>
      <trkpt lat="37.06566" lon="-2.54565">
        <ele>502.281815</ele>
        <time>2022-02-25T00:17:16.021Z</time>
      </trkpt>
      <trkpt lat="37.06508" lon="-2.54553">
        <ele>499.961594</ele>
        <time>2022-02-25T00:17:33.842Z</time>
      </trkpt>
      <trkpt lat="37.06492" lon="-2.54529">
        <ele>498.959871</ele>
        <time>2022-02-25T00:17:41.384Z</time>
      </trkpt>
      <trkpt lat="37.06479" lon="-2.54457">
        <ele>496.614753</ele>
        <time>2022-02-25T00:17:58.830Z</time>
      </trkpt>
      <trkpt lat="37.06464" lon="-2.54427">
        <ele>495.526338</ele>
        <time>2022-02-25T00:18:06.898Z</time>
      </trkpt>
      <trkpt lat="37.0643" lon="-2.54387">
        <ele>493.559033</ele>
        <time>2022-02-25T00:18:20.501Z</time>
      </trkpt>
      <trkpt lat="37.06369" lon="-2.54349">
        <ele>490.683113</ele>
        <time>2022-02-25T00:18:40.262Z</time>
      </trkpt>
      <trkpt lat="37.06261" lon="-2.54323">
        <ele>486.94087</ele>
        <time>2022-02-25T00:19:13.299Z</time>
      </trkpt>
      <trkpt lat="37.06186" lon="-2.54278">
        <ele>485.245514</ele>
        <time>2022-02-25T00:19:41.981Z</time>
      </trkpt>
      <trkpt lat="37.06156" lon="-2.54284">
        <ele>484.615937</ele>
        <time>2022-02-25T00:19:52.405Z</time>
      </trkpt>
      <trkpt lat="37.06089" lon="-2.54328">
        <ele>482.501551</ele>
        <time>2022-02-25T00:20:16.677Z</time>
      </trkpt>
      <trkpt lat="37.06042" lon="-2.54339">
        <ele>480.960931</ele>
        <time>2022-02-25T00:20:31.368Z</time>
      </trkpt>
      <trkpt lat="37.059" lon="-2.54375">
        <ele>475.941147</ele>
        <time>2022-02-25T00:21:14.673Z</time>
      </trkpt>
      <trkpt lat="37.05865" lon="-2.54372">
        <ele>474.614998</ele>
        <time>2022-02-25T00:21:25.110Z</time>
      </trkpt>
      <trkpt lat="37.05842" lon="-2.54361">
        <ele>473.700027</ele>
        <time>2022-02-25T00:21:32.398Z</time>
      </trkpt>
      <trkpt lat="37.05821" lon="-2.54337">
        <ele>472.619519</ele>
        <time>2022-02-25T00:21:41.077Z</time>
      </trkpt>
      <trkpt lat="37.05819" lon="-2.54317">
        <ele>472.030271</ele>
        <time>2022-02-25T00:21:45.779Z</time>
      </trkpt>
      <trkpt lat="37.05829" lon="-2.54201">
        <ele>469.025698</ele>
        <time>2022-02-25T00:22:14.541Z</time>
      </trkpt>
      <trkpt lat="37.05828" lon="-2.54171">
        <ele>468.268721</ele>
        <time>2022-02-25T00:22:21.951Z</time>
      </trkpt>
      <trkpt lat="37.05808" lon="-2.54145">
        <ele>467.363139</ele>
        <time>2022-02-25T00:22:30.826Z</time>
      </trkpt>
      <trkpt lat="37.05768" lon="-2.54114">
        <ele>465.895294</ele>
        <time>2022-02-25T00:22:45.312Z</time>
      </trkpt>
      <trkpt lat="37.05724" lon="-2.54091">
        <ele>464.526363</ele>
        <time>2022-02-25T00:23:00.241Z</time>
      </trkpt>
      <trkpt lat="37.05649" lon="-2.54064">
        <ele>462.320101</ele>
        <time>2022-02-25T00:23:24.396Z</time>
      </trkpt>
      <trkpt lat="37.05602" lon="-2.54035">
        <ele>460.81432</ele>
        <time>2022-02-25T00:23:41.064Z</time>
      </trkpt>
      <trkpt lat="37.05573" lon="-2.54012">
        <ele>459.99059</ele>
        <time>2022-02-25T00:23:51.969Z</time>
      </trkpt>
      <trkpt lat="37.05549" lon="-2.53974">
        <ele>459.082015</ele>
        <time>2022-02-25T00:24:04.111Z</time>
      </trkpt>
      <trkpt lat="37.05477" lon="-2.53789">
        <ele>455.420067</ele>
        <time>2022-02-25T00:24:56.636Z</time>
      </trkpt>
      <trkpt lat="37.05447" lon="-2.53734">
        <ele>454.369835</ele>
        <time>2022-02-25T00:25:14.236Z</time>
      </trkpt>
      <trkpt lat="37.05372" lon="-2.53738">
        <ele>452.916979</ele>
        <time>2022-02-25T00:25:39.210Z</time>
      </trkpt>
      <trkpt lat="37.05354" lon="-2.53744">
        <ele>452.622954</ele>
        <time>2022-02-25T00:25:45.338Z</time>
      </trkpt>
      <trkpt lat="37.05295" lon="-2.5375">
        <ele>451.679845</ele>
        <time>2022-02-25T00:26:04.836Z</time>
      </trkpt>
      <trkpt lat="37.0524" lon="-2.5374">
        <ele>450.776883</ele>
        <time>2022-02-25T00:26:23.618Z</time>
      </trkpt>
      <trkpt lat="37.05219" lon="-2.53729">
        <ele>450.410707</ele>
        <time>2022-02-25T00:26:31.232Z</time>
      </trkpt>
      <trkpt lat="37.05132" lon="-2.53661">
        <ele>448.259065</ele>
        <time>2022-02-25T00:27:05.160Z</time>
      </trkpt>
      <trkpt lat="37.05035" lon="-2.53547">
        <ele>445.122121</ele>
        <time>2022-02-25T00:27:46.810Z</time>
      </trkpt>
      <trkpt lat="37.04989" lon="-2.53474">
        <ele>443.057924</ele>
        <time>2022-02-25T00:28:10.306Z</time>
      </trkpt>
      <trkpt lat="37.04968" lon="-2.53452">
        <ele>442.305802</ele>
        <time>2022-02-25T00:28:18.726Z</time>
      </trkpt>
      <trkpt lat="37.04955" lon="-2.53427">
        <ele>441.651498</ele>
        <time>2022-02-25T00:28:26.187Z</time>
      </trkpt>
      <trkpt lat="37.04945" lon="-2.534">
        <ele>441.012129</ele>
        <time>2022-02-25T00:28:33.665Z</time>
      </trkpt>
      <trkpt lat="37.04945" lon="-2.53393">
        <ele>440.877952</ele>
        <time>2022-02-25T00:28:35.304Z</time>
      </trkpt>
      <trkpt lat="37.04954" lon="-2.53386">
        <ele>440.598317</ele>
        <time>2022-02-25T00:28:38.802Z</time>
      </trkpt>
      <trkpt lat="37.04956" lon="-2.53378">
        <ele>440.425395</ele>
        <time>2022-02-25T00:28:40.997Z</time>
      </trkpt>
      <trkpt lat="37.04952" lon="-2.53358">
        <ele>440.008653</ele>
        <time>2022-02-25T00:28:46.300Z</time>
      </trkpt>
      <trkpt lat="37.04942" lon="-2.53335">
        <ele>439.487644</ele>
        <time>2022-02-25T00:28:52.918Z</time>
      </trkpt>
      <trkpt lat="37.04935" lon="-2.53336">
        <ele>439.30877</ele>
        <time>2022-02-25T00:28:55.317Z</time>
      </trkpt>
      <trkpt lat="37.04934" lon="-2.53343">
        <ele>439.165893</ele>
        <time>2022-02-25T00:28:56.987Z</time>
      </trkpt>
      <trkpt lat="37.04905" lon="-2.53309">
        <ele>438.186699</ele>
        <time>2022-02-25T00:29:09.367Z</time>
      </trkpt>
      <trkpt lat="37.04866" lon="-2.53303">
        <ele>437.185069</ele>
        <time>2022-02-25T00:29:22.280Z</time>
      </trkpt>
      <trkpt lat="37.04827" lon="-2.53286">
        <ele>436.175147</ele>
        <time>2022-02-25T00:29:35.296Z</time>
      </trkpt>
      <trkpt lat="37.04781" lon="-2.533">
        <ele>435.030813</ele>
        <time>2022-02-25T00:29:50.201Z</time>
      </trkpt>
      <trkpt lat="37.04767" lon="-2.53349">
        <ele>434.02051</ele>
        <time>2022-02-25T00:30:03.511Z</time>
      </trkpt>
      <trkpt lat="37.04722" lon="-2.53407">
        <ele>432.456753</ele>
        <time>2022-02-25T00:30:24.219Z</time>
      </trkpt>
      <trkpt lat="37.04673" lon="-2.53399">
        <ele>431.858309</ele>
        <time>2022-02-25T00:30:39.973Z</time>
      </trkpt>
      <trkpt lat="37.04635" lon="-2.53374">
        <ele>431.403735</ele>
        <time>2022-02-25T00:30:54.568Z</time>
      </trkpt>
      <trkpt lat="37.04602" lon="-2.5327">
        <ele>430.45719</ele>
        <time>2022-02-25T00:31:26.235Z</time>
      </trkpt>
      <trkpt lat="37.04566" lon="-2.53231">
        <ele>431.137441</ele>
        <time>2022-02-25T00:31:43.128Z</time>
      </trkpt>
      <trkpt lat="37.04503" lon="-2.53222">
        <ele>432.234143</ele>
        <time>2022-02-25T00:32:11.739Z</time>
      </trkpt>
      <trkpt lat="37.04427" lon="-2.53248">
        <ele>433.722437</ele>
        <time>2022-02-25T00:32:52.837Z</time>
      </trkpt>
      <trkpt lat="37.04453" lon="-2.53176">
        <ele>436.326613</ele>
        <time>2022-02-25T00:33:28.816Z</time>
      </trkpt>
      <trkpt lat="37.04466" lon="-2.53089">
        <ele>439.297357</ele>
        <time>2022-02-25T00:34:11.555Z</time>
      </trkpt>
      <trkpt lat="37.04447" lon="-2.53003">
        <ele>442.037706</ele>
        <time>2022-02-25T00:34:54.645Z</time>
      </trkpt>
      <trkpt lat="37.04428" lon="-2.52973">
        <ele>443.096575</ele>
        <time>2022-02-25T00:35:10.942Z</time>
      </trkpt>
      <trkpt lat="37.04409" lon="-2.52967">
        <ele>443.771127</ele>
        <time>2022-02-25T00:35:21.081Z</time>
      </trkpt>
      <trkpt lat="37.04403" lon="-2.52958">
        <ele>444.098495</ele>
        <time>2022-02-25T00:35:25.881Z</time>
      </trkpt>
      <trkpt lat="37.04406" lon="-2.52946">
        <ele>444.441055</ele>
        <time>2022-02-25T00:35:31.114Z</time>
      </trkpt>
      <trkpt lat="37.04415" lon="-2.52941">
        <ele>444.782734</ele>
        <time>2022-02-25T00:35:36.387Z</time>
      </trkpt>
      <trkpt lat="37.04433" lon="-2.52944">
        <ele>445.420847</ele>
        <time>2022-02-25T00:35:46.396Z</time>
      </trkpt>
      <trkpt lat="37.0444" lon="-2.52938">
        <ele>445.701472</ele>
        <time>2022-02-25T00:35:50.675Z</time>
      </trkpt>
      <trkpt lat="37.04424" lon="-2.52906">
        <ele>446.745748</ele>
        <time>2022-02-25T00:36:06.889Z</time>
      </trkpt>
      <trkpt lat="37.04428" lon="-2.52884">
        <ele>447.361323</ele>
        <time>2022-02-25T00:36:16.476Z</time>
      </trkpt>
      <trkpt lat="37.04426" lon="-2.52807">
        <ele>449.228479</ele>
        <time>2022-02-25T00:36:48.195Z</time>
      </trkpt>
      <trkpt lat="37.0443" lon="-2.52773">
        <ele>450.043652</ele>
        <time>2022-02-25T00:37:02.282Z</time>
      </trkpt>
      <trkpt lat="37.04442" lon="-2.52735">
        <ele>451.040814</ele>
        <time>2022-02-25T00:37:19.341Z</time>
      </trkpt>
      <trkpt lat="37.04442" lon="-2.52706">
        <ele>451.76054</ele>
        <time>2022-02-25T00:37:32.275Z</time>
      </trkpt>
      <trkpt lat="37.04402" lon="-2.52706">
        <ele>452.96286</ele>
        <time>2022-02-25T00:37:53.374Z</time>
      </trkpt>
      <trkpt lat="37.04385" lon="-2.527">
        <ele>453.437043</ele>
        <time>2022-02-25T00:38:02.988Z</time>
      </trkpt>
      <trkpt lat="37.04381" lon="-2.52622">
        <ele>455.121607</ele>
        <time>2022-02-25T00:38:33.475Z</time>
      </trkpt>
      <trkpt lat="37.04372" lon="-2.52621">
        <ele>455.373909</ele>
        <time>2022-02-25T00:38:38.933Z</time>
      </trkpt>
      <trkpt lat="37.0436" lon="-2.52629">
        <ele>455.752894</ele>
        <time>2022-02-25T00:38:45.647Z</time>
      </trkpt>
      <trkpt lat="37.04326" lon="-2.52674">
        <ele>457.094012</ele>
        <time>2022-02-25T00:39:09.920Z</time>
      </trkpt>
      <trkpt lat="37.04299" lon="-2.52668">
        <ele>457.844613</ele>
        <time>2022-02-25T00:39:23.457Z</time>
      </trkpt>
      <trkpt lat="37.04276" lon="-2.5268">
        <ele>458.554015</ele>
        <time>2022-02-25T00:39:36.130Z</time>
      </trkpt>
      <trkpt lat="37.04262" lon="-2.5268">
        <ele>458.937482</ele>
        <time>2022-02-25T00:39:42.702Z</time>
      </trkpt>
      <trkpt lat="37.04244" lon="-2.52662">
        <ele>459.579783</ele>
        <time>2022-02-25T00:39:55.051Z</time>
      </trkpt>
      <trkpt lat="37.04251" lon="-2.52635">
        <ele>460.196524</ele>
        <time>2022-02-25T00:40:06.291Z</time>
      </trkpt>
      <trkpt lat="37.04277" lon="-2.52601">
        <ele>461.258432</ele>
        <time>2022-02-25T00:40:26.418Z</time>
      </trkpt>
      <trkpt lat="37.043" lon="-2.52584">
        <ele>462.010422</ele>
        <time>2022-02-25T00:40:40.393Z</time>
      </trkpt>
      <trkpt lat="37.043" lon="-2.52567">
        <ele>462.377063</ele>
        <time>2022-02-25T00:40:46.422Z</time>
      </trkpt>
      <trkpt lat="37.04268" lon="-2.52507">
        <ele>463.912019</ele>
        <time>2022-02-25T00:41:16.254Z</time>
      </trkpt>
      <trkpt lat="37.04254" lon="-2.52497">
        <ele>464.325877</ele>
        <time>2022-02-25T00:41:23.918Z</time>
      </trkpt>
      <trkpt lat="37.0423" lon="-2.52493">
        <ele>464.954698</ele>
        <time>2022-02-25T00:41:36.377Z</time>
      </trkpt>
      <trkpt lat="37.04221" lon="-2.52512">
        <ele>465.405344</ele>
        <time>2022-02-25T00:41:44.646Z</time>
      </trkpt>
      <trkpt lat="37.04223" lon="-2.52548">
        <ele>466.15793</ele>
        <time>2022-02-25T00:41:58.680Z</time>
      </trkpt>
      <trkpt lat="37.04216" lon="-2.52555">
        <ele>466.396572</ele>
        <time>2022-02-25T00:42:03.599Z</time>
      </trkpt>
      <trkpt lat="37.04198" lon="-2.5256">
        <ele>466.878386</ele>
        <time>2022-02-25T00:42:13.586Z</time>
      </trkpt>
      <trkpt lat="37.04134" lon="-2.52562">
        <ele>468.156752</ele>
        <time>2022-02-25T00:42:45.079Z</time>
      </trkpt>
      <trkpt lat="37.04113" lon="-2.52557">
        <ele>468.553949</ele>
        <time>2022-02-25T00:42:54.806Z</time>
      </trkpt>
      <trkpt lat="37.04106" lon="-2.5255">
        <ele>468.719461</ele>
        <time>2022-02-25T00:42:58.824Z</time>
      </trkpt>
      <trkpt lat="37.04102" lon="-2.52526">
        <ele>469.075048</ele>
        <time>2022-02-25T00:43:07.357Z</time>
      </trkpt>
      <trkpt lat="37.04105" lon="-2.52521">
        <ele>469.167181</ele>
        <time>2022-02-25T00:43:09.605Z</time>
      </trkpt>
      <trkpt lat="37.04143" lon="-2.52515">
        <ele>469.865829</ele>
        <time>2022-02-25T00:43:27.465Z</time>
      </trkpt>
      <trkpt lat="37.04152" lon="-2.52514">
        <ele>470.029509</ele>
        <time>2022-02-25T00:43:31.631Z</time>
      </trkpt>
      <trkpt lat="37.04162" lon="-2.52483">
        <ele>470.511573</ele>
        <time>2022-02-25T00:43:43.536Z</time>
      </trkpt>
      <trkpt lat="37.04166" lon="-2.52481">
        <ele>470.573852</ele>
        <time>2022-02-25T00:43:45.665Z</time>
      </trkpt>
      <trkpt lat="37.0417" lon="-2.52482">
        <ele>470.602922</ele>
        <time>2022-02-25T00:43:47.367Z</time>
      </trkpt>
      <trkpt lat="37.04176" lon="-2.52516">
        <ele>470.80327</ele>
        <time>2022-02-25T00:43:58.784Z</time>
      </trkpt>
      <trkpt lat="37.04188" lon="-2.52518">
        <ele>470.898056</ele>
        <time>2022-02-25T00:44:04.025Z</time>
      </trkpt>
      <trkpt lat="37.042" lon="-2.52486">
        <ele>471.107835</ele>
        <time>2022-02-25T00:44:15.856Z</time>
      </trkpt>
      <trkpt lat="37.04198" lon="-2.52455">
        <ele>471.284227</ele>
        <time>2022-02-25T00:44:26.044Z</time>
      </trkpt>
      <trkpt lat="37.04206" lon="-2.52444">
        <ele>471.37232</ele>
        <time>2022-02-25T00:44:30.888Z</time>
      </trkpt>
      <trkpt lat="37.04218" lon="-2.52441">
        <ele>471.459648</ele>
        <time>2022-02-25T00:44:35.483Z</time>
      </trkpt>
      <trkpt lat="37.04286" lon="-2.52444">
        <ele>471.90491</ele>
        <time>2022-02-25T00:45:00.856Z</time>
      </trkpt>
      <trkpt lat="37.04301" lon="-2.52467">
        <ele>471.974128</ele>
        <time>2022-02-25T00:45:11.065Z</time>
      </trkpt>
      <trkpt lat="37.04319" lon="-2.52481">
        <ele>472.033196</ele>
        <time>2022-02-25T00:45:20.318Z</time>
      </trkpt>
      <trkpt lat="37.04345" lon="-2.52488">
        <ele>472.109733</ele>
        <time>2022-02-25T00:45:30.502Z</time>
      </trkpt>
      <trkpt lat="37.04355" lon="-2.52518">
        <ele>472.182398</ele>
        <time>2022-02-25T00:45:39.957Z</time>
      </trkpt>
      <trkpt lat="37.04364" lon="-2.52523">
        <ele>472.208922</ele>
        <time>2022-02-25T00:45:43.400Z</time>
      </trkpt>
      <trkpt lat="37.04382" lon="-2.52516">
        <ele>472.263421</ele>
        <time>2022-02-25T00:45:50.512Z</time>
      </trkpt>
      <trkpt lat="37.04401" lon="-2.525">
        <ele>472.328523</ele>
        <time>2022-02-25T00:45:59.234Z</time>
      </trkpt>
      <trkpt lat="37.04442" lon="-2.52488">
        <ele>472.337765</ele>
        <time>2022-02-25T00:46:15.168Z</time>
      </trkpt>
    </trkseg>
  </trk>
</gpx>